Provisional Data: Sterling Run near Sterling Run, PA


Please select a monitoring station.
Please select start date.
Please select start date.

Toggle Unit: C/F Toggle Unit: C/F
Sample Time Temperature (C) Temperature (F) Specific Conductivity (mS/cm) pH   Turbidity (NTU+) DO (mg/L)
1/12/2021 12:00:00 AM 2.71 36.878 0.061 6.44 1.25 13.34
1/12/2021 12:15:00 AM 2.72 36.896 0.061 6.44 1.25 13.34
1/12/2021 12:30:00 AM 2.72 36.896 0.061 6.43 1.25 13.33
1/12/2021 12:45:00 AM 2.72 36.896 0.061 6.44 1.22 13.33
1/12/2021 1:00:00 AM 2.72 36.896 0.061 6.44 1.2 13.34
1/12/2021 1:15:00 AM 2.71 36.878 0.061 6.42 1.26 13.33
1/12/2021 1:30:00 AM 2.72 36.896 0.061 6.42 1.3 13.34
1/12/2021 1:45:00 AM 2.72 36.896 0.061 6.44 1.39 13.34
1/12/2021 2:00:00 AM 2.72 36.896 0.061 6.44 1.4 13.33
1/12/2021 2:15:00 AM 2.72 36.896 0.061 6.4 1.28 13.34
1/12/2021 2:30:00 AM 2.71 36.878 0.061 6.44 1.27 13.33
1/12/2021 2:45:00 AM 2.7 36.86 0.061 6.44 1.26 13.34
1/12/2021 3:00:00 AM 2.69 36.842 0.061 6.38 1.26 13.34
1/12/2021 3:15:00 AM 2.7 36.86 0.061 6.44 1.22 13.34
1/12/2021 3:30:00 AM 2.69 36.842 0.061 6.44 1.29 13.34
1/12/2021 3:45:00 AM 2.69 36.842 0.061 6.44 1.27 13.34
1/12/2021 4:00:00 AM 2.68 36.824 0.061 6.38 1.23 13.35
1/12/2021 4:15:00 AM 2.68 36.824 0.061 6.44 1.27 13.33
1/12/2021 4:30:00 AM 2.68 36.824 0.061 6.44 1.21 13.34
1/12/2021 4:45:00 AM 2.68 36.824 0.061 6.44 1.33 13.34
1/12/2021 5:00:00 AM 2.67 36.806 0.061 6.44 1.22 13.33
1/12/2021 5:15:00 AM 2.65 36.77 0.061 6.39 1.26 13.34
1/12/2021 5:30:00 AM 2.65 36.77 0.061 6.44 1.3 13.33
1/12/2021 5:45:00 AM 2.64 36.752 0.061 6.43 1.25 13.33
1/12/2021 6:00:00 AM 2.64 36.752 0.061 6.42 1.26 13.34
1/12/2021 6:15:00 AM 2.64 36.752 0.061 6.44 1.26 13.34
1/12/2021 6:30:00 AM 2.63 36.734 0.061 6.44 1.32 13.35
1/12/2021 6:45:00 AM 2.61 36.698 0.061 6.38 1.21 13.36
1/12/2021 7:00:00 AM 2.61 36.698 0.061 6.44 1.25 13.35
1/12/2021 7:15:00 AM 2.61 36.698 0.061 6.44 1.27 13.35
1/12/2021 7:30:00 AM 2.59 36.662 0.061 6.44 1.26 13.36
1/12/2021 7:45:00 AM 2.58 36.644 0.061 6.44 1.23 13.36
1/12/2021 8:00:00 AM 2.58 36.644 0.061 6.44 1.26 13.37
1/12/2021 8:15:00 AM 2.58 36.644 0.061 6.44 1.26 13.38
1/12/2021 8:30:00 AM 2.56 36.608 0.061 6.44 1.27 13.39
1/12/2021 8:45:00 AM 2.56 36.608 0.061 6.44 1.31 13.4
1/12/2021 9:00:00 AM 2.57 36.626 0.061 6.45 1.25 13.42
1/12/2021 9:15:00 AM 2.57 36.626 0.061 6.45 1.21 13.42
1/12/2021 9:30:00 AM 2.58 36.644 0.061 6.46 1.18 13.44
1/12/2021 9:45:00 AM 2.59 36.662 0.061 6.46 1.27 13.44
1/12/2021 10:00:00 AM 2.63 36.734 0.061 6.46 1.24 13.45
1/12/2021 10:15:00 AM 2.65 36.77 0.061 6.46 1.21 13.46
1/12/2021 10:30:00 AM 2.66 36.788 0.061 6.46 1.21 13.45
1/12/2021 10:45:00 AM 2.69 36.842 0.061 6.46 1.22 13.45
1/12/2021 11:00:00 AM 2.71 36.878 0.061 6.46 1.2 13.45
1/12/2021 11:15:00 AM 2.75 36.95 0.061 6.45 1.2 13.46
1/12/2021 11:30:00 AM 2.8 37.04 0.061 6.46 1.45 13.45
1/12/2021 11:45:00 AM 2.82 37.076 0.061 6.47 1.26 13.44
1/12/2021 12:00:00 PM 2.84 37.112 0.061 6.47 1.27 13.43
1/12/2021 12:15:00 PM 2.87 37.166 0.061 6.42 1.92 13.42
1/12/2021 12:30:00 PM 2.93 37.274 0.061 6.47 1.18 13.41
1/12/2021 12:45:00 PM 2.97 37.346 0.061 6.47 1.2 13.39
1/12/2021 1:00:00 PM 2.99 37.382 0.061 6.41 1.19 13.38
1/12/2021 1:15:00 PM 3.04 37.472 0.061 6.46 1.21 13.36
1/12/2021 1:30:00 PM 3.09 37.562 0.061 6.46 1.2 13.34
1/12/2021 1:45:00 PM 3.12 37.616 0.061 6.46 1.22 13.33
1/12/2021 2:00:00 PM 3.14 37.652 0.061 6.47 1.23 13.32
1/12/2021 2:15:00 PM 3.17 37.706 0.061 6.47 1.22 13.29
1/12/2021 2:30:00 PM 3.2 37.76 0.061 6.47 1.18 13.28
1/12/2021 2:45:00 PM 3.21 37.778 0.061 6.45 1.22 13.27
1/12/2021 3:00:00 PM 3.21 37.778 0.061 6.47 1.22 13.26
1/12/2021 3:15:00 PM 3.2 37.76 0.061 6.47 1.24 13.25
1/12/2021 3:30:00 PM 3.18 37.724 0.061 6.47 1.21 13.24
1/12/2021 3:45:00 PM 3.16 37.688 0.061 6.46 1.22 13.24
1/12/2021 4:00:00 PM 3.15 37.67 0.061 6.45 1.2 13.23
1/12/2021 4:15:00 PM 3.13 37.634 0.061 6.46 1.23 13.21
1/12/2021 4:30:00 PM 3.11 37.598 0.061 6.46 1.19 13.21
1/12/2021 4:45:00 PM 3.1 37.58 0.061 6.45 1.22 13.21
1/12/2021 5:00:00 PM 3.08 37.544 0.061 6.45 1.18 13.21
1/12/2021 5:15:00 PM 3.06 37.508 0.061 6.45 1.22 13.2
1/12/2021 5:30:00 PM 3.04 37.472 0.061 6.44 1.19 13.2
1/12/2021 5:45:00 PM 3.02 37.436 0.061 6.45 1.23 13.21
1/12/2021 6:00:00 PM 3.01 37.418 0.061 6.45 1.2 13.22
1/12/2021 6:15:00 PM 2.99 37.382 0.062 6.44 1.26 13.22
1/12/2021 6:30:00 PM 2.98 37.364 0.061 6.44 1.24 13.22
1/12/2021 6:45:00 PM 2.97 37.346 0.061 6.44 1.24 13.23
1/12/2021 7:00:00 PM 2.96 37.328 0.062 6.44 1.27 13.23
1/12/2021 7:15:00 PM 2.95 37.31 0.062 6.44 1.24 13.23
1/12/2021 7:30:00 PM 2.94 37.292 0.061 6.45 1.19 13.24
1/12/2021 7:45:00 PM 2.93 37.274 0.062 6.44 1.23 13.24
1/12/2021 8:00:00 PM 2.91 37.238 0.062 6.39 1.23 13.25
1/12/2021 8:15:00 PM 2.91 37.238 0.062 6.44 1.27 13.25
1/12/2021 8:30:00 PM 2.9 37.22 0.062 6.44 1.24 13.25
1/12/2021 8:45:00 PM 2.9 37.22 0.062 6.44 1.26 13.26
1/12/2021 9:00:00 PM 2.89 37.202 0.062 6.44 1.19 13.26
1/12/2021 9:15:00 PM 2.88 37.184 0.062 6.44 1.21 13.26
1/12/2021 9:30:00 PM 2.87 37.166 0.062 6.44 1.22 13.27
1/12/2021 9:45:00 PM 2.87 37.166 0.062 6.44 1.2 13.27
1/12/2021 10:00:00 PM 2.86 37.148 0.062 6.42 1.21 13.28
1/12/2021 10:15:00 PM 2.85 37.13 0.062 6.43 1.23 13.26
1/12/2021 10:30:00 PM 2.85 37.13 0.062 6.44 1.2 13.27
1/12/2021 10:45:00 PM 2.84 37.112 0.062 6.44 1.28 13.28
1/12/2021 11:00:00 PM 2.84 37.112 0.062 6.44 1.2 13.28
1/12/2021 11:15:00 PM 2.83 37.094 0.062 6.44 1.18 13.29
1/12/2021 11:30:00 PM 2.82 37.076 0.062 6.44 1.22 13.29
1/12/2021 11:45:00 PM 2.81 37.058 0.062 6.43 1.2 13.29
1/13/2021 12:00:00 AM 2.8 37.04 0.062 6.45 1.32 13.29
1/13/2021 12:15:00 AM 2.79 37.022 0.062 6.44 1.21 13.29
1/13/2021 12:30:00 AM 2.78 37.004 0.062 6.45 1.26 13.29
1/13/2021 12:45:00 AM 2.77 36.986 0.062 6.45 1.24 13.29
1/13/2021 1:00:00 AM 2.76 36.968 0.062 6.45 1.25 13.29
1/13/2021 1:15:00 AM 2.75 36.95 0.062 6.4 1.25 13.3
1/13/2021 1:30:00 AM 2.75 36.95 0.062 6.45 1.23 13.3
1/13/2021 1:45:00 AM 2.74 36.932 0.062 6.44 1.28 13.3
1/13/2021 2:00:00 AM 2.72 36.896 0.062 6.41 1.28 13.29
1/13/2021 2:15:00 AM 2.72 36.896 0.062 6.45 1.21 13.3
1/13/2021 2:30:00 AM 2.71 36.878 0.062 6.45 1.21 13.3
1/13/2021 2:45:00 AM 2.7 36.86 0.062 6.44 1.19 13.3
1/13/2021 3:00:00 AM 2.7 36.86 0.062 6.45 1.21 13.31
1/13/2021 3:15:00 AM 2.68 36.824 0.062 6.45 1.26 13.31
1/13/2021 3:30:00 AM 2.67 36.806 0.062 6.45 1.18 13.3
1/13/2021 3:45:00 AM 2.67 36.806 0.062 6.44 1.21 13.31
1/13/2021 4:00:00 AM 2.66 36.788 0.062 6.45 1.22 13.32
1/13/2021 4:15:00 AM 2.65 36.77 0.062 6.45 1.19 13.31
1/13/2021 4:30:00 AM 2.64 36.752 0.062 6.45 1.18 13.31
1/13/2021 4:45:00 AM 2.64 36.752 0.062 6.44 1.31 13.31
1/13/2021 5:00:00 AM 2.63 36.734 0.062 6.45 1.23 13.31
1/13/2021 5:15:00 AM 2.62 36.716 0.062 6.45 1.21 13.31
1/13/2021 5:30:00 AM 2.62 36.716 0.062 6.45 1.2 13.31
1/13/2021 5:45:00 AM 2.61 36.698 0.062 6.44 1.22 13.31
1/13/2021 6:00:00 AM 2.6 36.68 0.062 6.45 1.39 13.32
1/13/2021 6:15:00 AM 2.6 36.68 0.062 6.45 1.24 13.32
1/13/2021 6:30:00 AM 2.59 36.662 0.062 6.45 1.41 13.32
1/13/2021 6:45:00 AM 2.59 36.662 0.062 6.45 1.25 13.31
1/13/2021 7:00:00 AM 2.59 36.662 0.062 6.45 3.3 13.32
1/13/2021 7:15:00 AM 2.57 36.626 0.062 6.4 1.23 13.33
1/13/2021 7:30:00 AM 2.57 36.626 0.062 6.45 1.24 13.33
1/13/2021 7:45:00 AM 2.56 36.608 0.062 6.45 1.22 13.33
1/13/2021 8:00:00 AM 2.55 36.59 0.062 6.45 1.21 13.33
1/13/2021 8:15:00 AM 2.55 36.59 0.062 6.45 1.18 13.33
1/13/2021 8:30:00 AM 2.54 36.572 0.062 6.45 1.25 13.34
1/13/2021 8:45:00 AM 2.54 36.572 0.062 6.45 1.2 13.34
1/13/2021 9:00:00 AM 2.54 36.572 0.062 6.45 1.16 13.35
1/13/2021 9:15:00 AM 2.55 36.59 0.062 6.45 1.15 13.36
1/13/2021 9:30:00 AM 2.56 36.608 0.062 6.46 1.15 13.37
1/13/2021 9:45:00 AM 2.56 36.608 0.062 6.4 1.17 13.38
1/13/2021 10:00:00 AM 2.59 36.662 0.062 6.46 1.15 13.39
1/13/2021 10:15:00 AM 2.61 36.698 0.062 6.46 1.21 13.4
1/13/2021 10:30:00 AM 2.64 36.752 0.062 6.47 1.18 13.4
1/13/2021 10:45:00 AM 2.67 36.806 0.062 6.44 1.14 13.4
1/13/2021 11:00:00 AM 2.7 36.86 0.062 6.47 1.16 13.4
1/13/2021 11:15:00 AM 2.72 36.896 0.062 6.47 1.18 13.4
1/13/2021 11:30:00 AM 2.74 36.932 0.062 6.46 1.17 13.4
1/13/2021 11:45:00 AM 2.77 36.986 0.062 6.44 1.19 13.39
1/13/2021 12:00:00 PM 2.82 37.076 0.062 6.48 1.2 13.38
1/13/2021 12:15:00 PM 2.86 37.148 0.062 6.48 1.22 13.37
1/13/2021 12:30:00 PM 2.89 37.202 0.062 6.47 1.16 13.36
1/13/2021 12:45:00 PM 2.93 37.274 0.062 6.47 1.14 13.35
1/13/2021 1:00:00 PM 3.01 37.418 0.062 6.48 1.17 13.31
1/13/2021 1:15:00 PM 3.04 37.472 0.062 6.48 1.14 13.29
1/13/2021 1:30:00 PM 3.08 37.544 0.062 6.48 1.13 13.28
1/13/2021 1:45:00 PM 3.12 37.616 0.062 6.48 1.13 13.26
1/13/2021 2:00:00 PM 3.1 37.58 0.062 6.48 1.16 13.24
1/13/2021 2:15:00 PM 3.13 37.634 0.062 6.47 1.16 13.22
1/13/2021 2:30:00 PM 3.16 37.688 0.062 6.48 1.16 13.21
1/13/2021 2:45:00 PM 3.21 37.778 0.062 6.48 1.2 13.21
1/13/2021 3:00:00 PM 3.23 37.814 0.062 6.48 1.18 13.19
1/13/2021 3:15:00 PM 3.25 37.85 0.062 6.48 1.22 13.19
1/13/2021 3:30:00 PM 3.28 37.904 0.062 6.48 1.17 13.18
1/13/2021 3:45:00 PM 3.3 37.94 0.062 6.48 1.14 13.18
1/13/2021 4:00:00 PM 3.29 37.922 0.062 6.48 1.16 13.16
1/13/2021 4:15:00 PM 3.29 37.922 0.062 6.48 1.16 13.14
1/13/2021 4:30:00 PM 3.28 37.904 0.062 6.48 1.17 13.12
1/13/2021 4:45:00 PM 3.27 37.886 0.062 6.47 1.25 13.1
1/13/2021 5:00:00 PM 3.25 37.85 0.062 6.46 1.21 13.11
1/13/2021 5:15:00 PM 3.23 37.814 0.062 6.46 1.17 13.08
1/13/2021 5:30:00 PM 3.21 37.778 0.062 6.46 1.2 13.07
1/13/2021 5:45:00 PM 3.19 37.742 0.062 6.46 1.24 13.06
1/13/2021 6:00:00 PM 3.17 37.706 0.062 6.39 1.21 13.08
1/13/2021 6:15:00 PM 3.16 37.688 0.062 6.45 1.28 13.06
1/13/2021 6:30:00 PM 3.15 37.67 0.062 6.45 1.32 13.07
1/13/2021 6:45:00 PM 3.13 37.634 0.062 6.46 1.23 13.07
1/13/2021 7:00:00 PM 3.12 37.616 0.062 6.46 1.22 13.07
1/13/2021 7:15:00 PM 3.11 37.598 0.062 6.45 1.2 13.08
1/13/2021 7:30:00 PM 3.09 37.562 0.062 6.43 1.29 13.09
1/13/2021 7:45:00 PM 3.09 37.562 0.062 6.46 1.21 13.08
1/13/2021 8:00:00 PM 3.08 37.544 0.062 6.45 1.17 13.09
1/13/2021 8:15:00 PM 3.07 37.526 0.062 6.45 1.18 13.08
1/13/2021 8:30:00 PM 3.05 37.49 0.062 6.43 1.24 13.09
1/13/2021 8:45:00 PM 3.04 37.472 0.062 6.45 1.18 13.09
1/13/2021 9:00:00 PM 3.03 37.454 0.062 6.46 1.18 13.1
1/13/2021 9:15:00 PM 3.02 37.436 0.062 6.46 1.17 13.1
1/13/2021 9:30:00 PM 3 37.4 0.062 6.45 1.21 13.11
1/13/2021 9:45:00 PM 2.99 37.382 0.062 6.45 1.19 13.11
1/13/2021 10:00:00 PM 2.98 37.364 0.062 6.45 1.22 13.12
1/13/2021 10:15:00 PM 2.97 37.346 0.062 6.44 1.21 13.12
1/13/2021 10:30:00 PM 2.96 37.328 0.062 6.42 1.21 13.13
1/13/2021 10:45:00 PM 2.95 37.31 0.062 6.45 1.18 13.14
1/13/2021 11:00:00 PM 2.95 37.31 0.062 6.45 1.24 13.13
1/13/2021 11:15:00 PM 2.93 37.274 0.062 6.44 1.16 13.13
1/13/2021 11:30:00 PM 2.93 37.274 0.062 6.45 1.19 13.14
1/13/2021 11:45:00 PM 2.93 37.274 0.062 6.45 1.2 13.15
1/14/2021 12:00:00 AM 2.92 37.256 0.062 6.45 1.21 13.15
1/14/2021 12:15:00 AM 2.92 37.256 0.062 6.45 1.16 13.14
1/14/2021 12:30:00 AM 2.91 37.238 0.062 6.45 1.17 13.14
1/14/2021 12:45:00 AM 2.91 37.238 0.062 6.43 1.19 13.15
1/14/2021 1:00:00 AM 2.9 37.22 0.062 6.45 1.18 13.14
1/14/2021 1:15:00 AM 2.9 37.22 0.062 6.45 1.26 13.14
1/14/2021 1:30:00 AM 2.89 37.202 0.062 6.44 1.22 13.14
1/14/2021 1:45:00 AM 2.89 37.202 0.062 6.45 1.16 13.15
1/14/2021 2:00:00 AM 2.89 37.202 0.062 6.45 1.25 13.14
1/14/2021 2:15:00 AM 2.88 37.184 0.062 6.38 1.19 13.17
1/14/2021 2:30:00 AM 2.89 37.202 0.062 6.45 1.19 13.15
1/14/2021 2:45:00 AM 2.88 37.184 0.062 6.4 1.18 13.16
1/14/2021 3:00:00 AM 2.88 37.184 0.062 6.45 1.23 13.15
1/14/2021 3:15:00 AM 2.88 37.184 0.062 6.45 1.16 13.16
1/14/2021 3:30:00 AM 2.88 37.184 0.062 6.44 1.2 13.15
1/14/2021 3:45:00 AM 2.88 37.184 0.062 6.44 1.24 13.15
1/14/2021 4:00:00 AM 2.88 37.184 0.062 6.45 1.16 13.15
1/14/2021 4:15:00 AM 2.88 37.184 0.063 6.41 1.22 13.16
1/14/2021 4:30:00 AM 2.88 37.184 0.062 6.43 1.19 13.15
1/14/2021 4:45:00 AM 2.88 37.184 0.062 6.45 1.2 13.15
1/14/2021 5:00:00 AM 2.88 37.184 0.062 6.44 1.2 13.14
1/14/2021 5:15:00 AM 2.88 37.184 0.062 6.45 1.16 13.15
1/14/2021 5:30:00 AM 2.88 37.184 0.063 6.45 1.17 13.15
1/14/2021 5:45:00 AM 2.88 37.184 0.063 6.41 1.11 13.15
1/14/2021 6:00:00 AM 2.88 37.184 0.062 6.45 1.2 13.15
1/14/2021 6:15:00 AM 2.88 37.184 0.063 6.44 1.18 13.14
1/14/2021 6:30:00 AM 2.88 37.184 0.063 6.44 1.18 13.16
1/14/2021 6:45:00 AM 2.88 37.184 0.063 6.44 1.13 13.15
1/14/2021 7:00:00 AM 2.87 37.166 0.063 6.44 1.2 13.15
1/14/2021 7:15:00 AM 2.88 37.184 0.063 6.45 1.23 13.14
1/14/2021 7:30:00 AM 2.88 37.184 0.063 6.44 1.16 13.15
1/14/2021 7:45:00 AM 2.88 37.184 0.063 6.44 1.23 13.15
1/14/2021 8:00:00 AM 2.89 37.202 0.063 6.45 1.15 13.16
1/14/2021 8:15:00 AM 2.89 37.202 0.063 6.45 1.17 13.17
1/14/2021 8:30:00 AM 2.89 37.202 0.063 6.45 1.22 13.18
1/14/2021 8:45:00 AM 2.89 37.202 0.063 6.46 2.23 13.19
1/14/2021 9:00:00 AM 2.91 37.238 0.063 6.46 1.16 13.19
1/14/2021 9:15:00 AM 2.93 37.274 0.063 6.46 1.13 13.2
1/14/2021 9:30:00 AM 2.94 37.292 0.063 6.46 1.2 13.21
1/14/2021 9:45:00 AM 2.98 37.364 0.063 6.46 1.15 13.22
1/14/2021 10:00:00 AM 3.02 37.436 0.063 6.47 1.14 13.22
1/14/2021 10:15:00 AM 3.05 37.49 0.063 6.46 1.16 13.21
1/14/2021 10:30:00 AM 3.1 37.58 0.063 6.48 1.13 13.21
1/14/2021 10:45:00 AM 3.17 37.706 0.063 6.43 1.14 13.21
1/14/2021 11:00:00 AM 3.25 37.85 0.063 6.48 1.17 13.2
1/14/2021 11:15:00 AM 3.31 37.958 0.063 6.48 1.18 13.2
1/14/2021 11:30:00 AM 3.38 38.084 0.063 6.48 1.15 13.18
1/14/2021 11:45:00 AM 3.45 38.21 0.063 6.49 1.15 13.15
1/14/2021 12:00:00 PM 3.51 38.318 0.063 6.49 1.18 13.12
1/14/2021 12:15:00 PM 3.52 38.336 0.063 6.45 1.17 13.11
1/14/2021 12:30:00 PM 3.55 38.39 0.063 6.49 1.16 13.06
1/14/2021 12:45:00 PM 3.58 38.444 0.063 6.47 1.14 13.05
1/14/2021 1:00:00 PM 3.65 38.57 0.063 6.5 1.31 13.03
1/14/2021 1:15:00 PM 3.72 38.696 0.063 6.46 1.18 13.03
1/14/2021 1:30:00 PM 3.78 38.804 0.063 6.51 1.19 13.02
1/14/2021 1:45:00 PM 3.84 38.912 0.063 6.51 1.14 13.01
1/14/2021 2:00:00 PM 3.86 38.948 0.063 6.51 1.21 12.99
1/14/2021 2:15:00 PM 3.9 39.02 0.063 6.5 1.29 12.98
1/14/2021 2:30:00 PM 3.91 39.038 0.063 6.51 1.19 12.97
1/14/2021 2:45:00 PM 3.91 39.038 0.063 6.44 1.14 12.96
1/14/2021 3:00:00 PM 3.94 39.092 0.063 6.51 1.22 12.95
1/14/2021 3:15:00 PM 3.94 39.092 0.063 6.51 1.18 12.93
1/14/2021 3:30:00 PM 3.95 39.11 0.063 6.51 1.21 12.92
1/14/2021 3:45:00 PM 3.96 39.128 0.063 6.46 1.16 12.92
1/14/2021 4:00:00 PM 3.94 39.092 0.063 6.49 1.19 12.91
1/14/2021 4:15:00 PM 3.91 39.038 0.063 6.5 1.2 12.9
1/14/2021 4:30:00 PM 3.86 38.948 0.063 6.45 1.17 12.89
1/14/2021 4:45:00 PM 3.84 38.912 0.063 6.48 1.61 12.88
1/14/2021 5:00:00 PM 3.8 38.84 0.063 6.49 1.23 12.87
1/14/2021 5:15:00 PM 3.75 38.75 0.063 6.5 1.22 12.86
1/14/2021 5:30:00 PM 3.7 38.66 0.063 6.43 1.25 12.86
1/14/2021 5:45:00 PM 3.67 38.606 0.063 6.49 1.37 12.86
1/14/2021 6:00:00 PM 3.62 38.516 0.063 6.44 1.2 12.86
1/14/2021 6:15:00 PM 3.58 38.444 0.063 6.46 1.28 12.89
1/14/2021 6:30:00 PM 3.54 38.372 0.063 6.48 1.38 12.91
1/14/2021 6:45:00 PM 3.5 38.3 0.063 6.47 1.36 12.93
1/14/2021 7:00:00 PM 3.46 38.228 0.063 6.48 1.27 12.93
1/14/2021 7:15:00 PM 3.42 38.156 0.063 6.47 1.25 12.95
1/14/2021 7:30:00 PM 3.39 38.102 0.063 6.47 1.2 12.97
1/14/2021 7:45:00 PM 3.35 38.03 0.063 6.47 1.19 12.98
1/14/2021 8:00:00 PM 3.32 37.976 0.063 6.47 1.24 13
1/14/2021 8:15:00 PM 3.29 37.922 0.063 6.47 1.18 13.01
1/14/2021 8:30:00 PM 3.24 37.832 0.063 6.41 1.22 13
1/14/2021 8:45:00 PM 3.22 37.796 0.063 6.47 1.24 13.02
1/14/2021 9:00:00 PM 3.19 37.742 0.063 6.47 1.21 13.02
1/14/2021 9:15:00 PM 3.16 37.688 0.063 6.46 1.24 13.03
1/14/2021 9:30:00 PM 3.14 37.652 0.063 6.46 1.25 13.04
1/14/2021 9:45:00 PM 3.12 37.616 0.063 6.46 1.22 13.04
1/14/2021 10:00:00 PM 3.11 37.598 0.063 6.46 1.24 13.05
1/14/2021 10:15:00 PM 3.09 37.562 0.063 6.46 1.25 13.06
1/14/2021 10:30:00 PM 3.06 37.508 0.063 6.46 1.2 13.06
1/14/2021 10:45:00 PM 3.05 37.49 0.063 6.45 1.22 13.07
1/14/2021 11:00:00 PM 3.03 37.454 0.063 6.46 1.36 13.08
1/14/2021 11:15:00 PM 3.01 37.418 0.063 6.46 1.27 13.08
1/14/2021 11:30:00 PM 2.99 37.382 0.063 6.46 1.3 13.1
1/14/2021 11:45:00 PM 2.96 37.328 0.063 6.46 1.3 13.11
1/15/2021 12:00:00 AM 2.93 37.274 0.063 6.4 1.34 13.12
1/15/2021 12:15:00 AM 2.91 37.238 0.063 6.45 1.28 13.13
1/15/2021 12:30:00 AM 2.88 37.184 0.063 6.46 1.28 13.13
1/15/2021 12:45:00 AM 2.85 37.13 0.063 6.46 1.24 13.15
1/15/2021 1:00:00 AM 2.82 37.076 0.063 6.46 1.31 13.16
1/15/2021 1:15:00 AM 2.8 37.04 0.063 6.46 1.26 13.17
1/15/2021 1:30:00 AM 2.78 37.004 0.063 6.46 1.32 13.17
1/15/2021 1:45:00 AM 2.76 36.968 0.063 6.46 1.25 13.18
1/15/2021 2:00:00 AM 2.74 36.932 0.063 6.46 1.22 13.2
1/15/2021 2:15:00 AM 2.72 36.896 0.063 6.46 1.19 13.19
1/15/2021 2:30:00 AM 2.7 36.86 0.063 6.46 1.18 13.2
1/15/2021 2:45:00 AM 2.7 36.86 0.063 6.46 1.21 13.2
1/15/2021 3:00:00 AM 2.69 36.842 0.063 6.46 1.22 13.21
1/15/2021 3:15:00 AM 2.69 36.842 0.063 6.46 1.22 13.21
1/15/2021 3:30:00 AM 2.68 36.824 0.063 6.46 1.27 13.21
1/15/2021 3:45:00 AM 2.66 36.788 0.063 6.37 1.2 13.21
1/15/2021 4:00:00 AM 2.66 36.788 0.063 6.46 1.18 13.2
1/15/2021 4:15:00 AM 2.64 36.752 0.063 6.45 1.22 13.21
1/15/2021 4:30:00 AM 2.63 36.734 0.063 6.46 1.19 13.21
1/15/2021 4:45:00 AM 2.6 36.68 0.063 6.45 1.23 13.22
1/15/2021 5:00:00 AM 2.6 36.68 0.063 6.46 1.19 13.22
1/15/2021 5:15:00 AM 2.58 36.644 0.063 6.44 1.21 13.22
1/15/2021 5:30:00 AM 2.57 36.626 0.063 6.45 1.18 13.22
1/15/2021 5:45:00 AM 2.56 36.608 0.063 6.45 1.22 13.22
1/15/2021 6:00:00 AM 2.55 36.59 0.063 6.46 1.16 13.23
1/15/2021 6:15:00 AM 2.53 36.554 0.064 6.38 1.18 13.24
1/15/2021 6:30:00 AM 2.54 36.572 0.064 6.46 1.15 13.24
1/15/2021 6:45:00 AM 2.54 36.572 0.063 6.46 1.2 13.24
1/15/2021 7:00:00 AM 2.53 36.554 0.064 6.44 1.21 13.24
1/15/2021 7:15:00 AM 2.54 36.572 0.063 6.46 1.21 13.25
1/15/2021 7:30:00 AM 2.56 36.608 0.064 6.46 1.21 13.24
1/15/2021 7:45:00 AM 2.57 36.626 0.064 6.46 1.26 13.24
1/15/2021 8:00:00 AM 2.59 36.662 0.064 6.47 1.32 13.25
1/15/2021 8:15:00 AM 2.61 36.698 0.064 6.47 1.18 13.25
1/15/2021 8:30:00 AM 2.63 36.734 0.064 6.47 1.22 13.27
1/15/2021 8:45:00 AM 2.66 36.788 0.063 6.48 1.35 13.29
1/15/2021 9:00:00 AM 2.69 36.842 0.064 6.48 1.28 13.29
1/15/2021 9:15:00 AM 2.72 36.896 0.063 6.48 1.17 13.31
1/15/2021 9:30:00 AM 2.76 36.968 0.063 6.49 1.14 13.31
1/15/2021 9:45:00 AM 2.8 37.04 0.064 6.49 1.16 13.3
1/15/2021 10:00:00 AM 2.84 37.112 0.064 6.49 1.16 13.31
1/15/2021 10:15:00 AM 2.86 37.148 0.064 6.49 1.23 13.28
1/15/2021 10:30:00 AM 2.88 37.184 0.063 6.44 1.16 13.28
1/15/2021 10:45:00 AM 2.94 37.292 0.063 6.49 1.15 13.26
1/15/2021 11:00:00 AM 2.97 37.346 0.064 6.5 1.19 13.25
1/15/2021 11:15:00 AM 3.02 37.436 0.063 6.5 1.21 13.23
1/15/2021 11:30:00 AM 3.07 37.526 0.063 6.5 1.18 13.21
1/15/2021 11:45:00 AM 3.13 37.634 0.063 6.5 1.15 13.2
1/15/2021 12:00:00 PM 3.19 37.742 0.063 6.5 1.16 13.19
1/15/2021 12:15:00 PM 3.22 37.796 0.063 6.51 1.12 13.18
1/15/2021 12:30:00 PM 3.25 37.85 0.063 6.5 1.18 13.17
1/15/2021 12:45:00 PM 3.27 37.886 0.063 6.46 1.14 13.16
1/15/2021 1:00:00 PM 3.33 37.994 0.063 6.5 1.13 13.15
1/15/2021 1:15:00 PM 3.39 38.102 0.063 6.5 1.13 13.12
1/15/2021 1:30:00 PM 3.51 38.318 0.063 6.5 1.19 13.1
1/15/2021 1:45:00 PM 3.48 38.264 0.063 6.46 1.15 13.1
1/15/2021 2:00:00 PM 3.5 38.3 0.064 6.51 1.18 13.08
1/15/2021 2:15:00 PM 3.51 38.318 0.064 6.5 1.18 13.03
1/15/2021 2:30:00 PM 3.53 38.354 0.064 6.5 1.25 13.02
1/15/2021 2:45:00 PM 3.56 38.408 0.064 6.5 1.15 13.01
1/15/2021 3:00:00 PM 3.59 38.462 0.064 6.5 1.19 12.99
1/15/2021 3:15:00 PM 3.59 38.462 0.064 6.51 1.18 12.99
1/15/2021 3:30:00 PM 3.58 38.444 0.064 6.5 1.15 12.97
1/15/2021 3:45:00 PM 3.59 38.462 0.064 6.5 1.14 12.95
1/15/2021 4:00:00 PM 3.61 38.498 0.063 6.5 1.27 12.93
1/15/2021 4:15:00 PM 3.61 38.498 0.063 6.43 1.22 12.91
1/15/2021 4:30:00 PM 3.62 38.516 0.064 6.5 1.32 12.89
1/15/2021 4:45:00 PM 3.61 38.498 0.063 6.49 1.36 12.91
1/15/2021 5:00:00 PM 3.59 38.462 0.063 6.49 1.4 12.9
1/15/2021 5:15:00 PM 3.58 38.444 0.063 6.48 1.34 12.89
1/15/2021 5:30:00 PM 3.57 38.426 0.063 6.48 1.39 12.89
1/15/2021 5:45:00 PM 3.56 38.408 0.063 6.48 1.5 12.89
1/15/2021 6:00:00 PM 3.55 38.39 0.063 6.48 1.46 12.89
1/15/2021 6:15:00 PM 3.55 38.39 0.063 6.48 1.41 12.89
1/15/2021 6:30:00 PM 3.54 38.372 0.063 6.48 1.44 12.88
1/15/2021 6:45:00 PM 3.53 38.354 0.063 6.46 1.42 12.9
1/15/2021 7:00:00 PM 3.53 38.354 0.063 6.47 1.57 12.9
1/15/2021 7:15:00 PM 3.52 38.336 0.063 6.47 1.64 12.9
1/15/2021 7:30:00 PM 3.51 38.318 0.063 6.48 1.66 12.91
1/15/2021 7:45:00 PM 3.5 38.3 0.063 6.47 1.81 12.91
1/15/2021 8:00:00 PM 3.5 38.3 0.063 6.47 2.09 12.92
1/15/2021 8:15:00 PM 3.48 38.264 0.063 6.41 2.23 12.92
1/15/2021 8:30:00 PM 3.49 38.282 0.063 6.47 2.84 12.91
1/15/2021 8:45:00 PM 3.47 38.246 0.063 6.47 2.82 12.92
1/15/2021 9:00:00 PM 3.47 38.246 0.063 6.47 3.97 12.92
1/15/2021 9:15:00 PM 3.46 38.228 0.063 6.48 3.32 12.92
1/15/2021 9:30:00 PM 3.45 38.21 0.063 6.47 3.9 12.92
1/15/2021 9:45:00 PM 3.43 38.174 0.063 6.48 4.01 12.94
1/15/2021 10:00:00 PM 3.39 38.102 0.063 6.47 3.43 12.94
1/15/2021 10:15:00 PM 3.37 38.066 0.063 6.47 3.42 12.95
1/15/2021 10:30:00 PM 3.35 38.03 0.063 6.47 3.83 12.96
1/15/2021 10:45:00 PM 3.34 38.012 0.063 6.47 3.57 12.96
1/15/2021 11:00:00 PM 3.33 37.994 0.063 6.47 3.59 12.97
1/15/2021 11:15:00 PM 3.3 37.94 0.063 6.45 3.56 12.97
1/15/2021 11:30:00 PM 3.28 37.904 0.063 6.47 3.49 12.97
1/15/2021 11:45:00 PM 3.24 37.832 0.063 6.46 3.44 12.98
1/16/2021 12:00:00 AM 3.23 37.814 0.063 6.46 3.32 12.98
1/16/2021 12:15:00 AM 3.22 37.796 0.063 6.47 3.27 12.99
1/16/2021 12:30:00 AM 3.2 37.76 0.063 6.42 3.17 13
1/16/2021 12:45:00 AM 3.2 37.76 0.064 6.47 3.23 12.98
1/16/2021 1:00:00 AM 3.19 37.742 0.064 6.42 3.04 12.99
1/16/2021 1:15:00 AM 3.19 37.742 0.064 6.46 3.04 12.99
1/16/2021 1:30:00 AM 3.16 37.688 0.064 6.45 2.91 12.99
1/16/2021 1:45:00 AM 3.16 37.688 0.064 6.46 2.75 13.01
1/16/2021 2:00:00 AM 3.15 37.67 0.064 6.46 2.72 13.01
1/16/2021 2:15:00 AM 3.14 37.652 0.064 6.46 2.72 13
1/16/2021 2:30:00 AM 3.12 37.616 0.065 6.39 2.57 13
1/16/2021 2:45:00 AM 3.11 37.598 0.065 6.45 2.39 13
1/16/2021 3:00:00 AM 3.07 37.526 0.065 6.46 2.34 13.01
1/16/2021 3:15:00 AM 3.04 37.472 0.065 6.45 2.34 13.01
1/16/2021 3:30:00 AM 3.02 37.436 0.065 6.44 2.41 13.03
1/16/2021 3:45:00 AM 2.99 37.382 0.065 6.41 2.48 13.03
1/16/2021 4:00:00 AM 2.98 37.364 0.065 6.45 2.19 13.04
1/16/2021 4:15:00 AM 2.95 37.31 0.065 6.45 2.18 13.05
1/16/2021 4:30:00 AM 2.92 37.256 0.065 6.45 2.1 13.05
1/16/2021 4:45:00 AM 2.89 37.202 0.065 6.45 2.13 13.06
1/16/2021 5:00:00 AM 2.87 37.166 0.065 6.44 1.97 13.07
1/16/2021 5:15:00 AM 2.85 37.13 0.065 6.45 1.86 13.08
1/16/2021 5:30:00 AM 2.81 37.058 0.065 6.39 1.84 13.1
1/16/2021 5:45:00 AM 2.8 37.04 0.066 6.45 1.82 13.09
1/16/2021 6:00:00 AM 2.77 36.986 0.066 6.45 1.86 13.09
1/16/2021 6:15:00 AM 2.76 36.968 0.066 6.45 1.78 13.12
1/16/2021 6:30:00 AM 2.73 36.914 0.066 6.45 1.77 13.1
1/16/2021 6:45:00 AM 2.69 36.842 0.066 6.44 1.7 13.11
1/16/2021 7:00:00 AM 2.67 36.806 0.066 6.44 1.69 13.12
1/16/2021 7:15:00 AM 2.66 36.788 0.066 6.44 1.64 13.13
1/16/2021 7:30:00 AM 2.64 36.752 0.065 6.41 1.71 13.14
1/16/2021 7:45:00 AM 2.61 36.698 0.065 6.45 1.89 13.14
1/16/2021 8:00:00 AM 2.58 36.644 0.066 6.45 1.75 13.15
1/16/2021 8:15:00 AM 2.56 36.608 0.065 6.45 1.61 13.17
1/16/2021 8:30:00 AM 2.55 36.59 0.065 6.45 1.54 13.19
1/16/2021 8:45:00 AM 2.54 36.572 0.065 6.45 1.58 13.21
1/16/2021 9:00:00 AM 2.54 36.572 0.065 6.46 1.52 13.22
1/16/2021 9:15:00 AM 2.55 36.59 0.065 6.46 1.52 13.23
1/16/2021 9:30:00 AM 2.55 36.59 0.065 6.42 1.53 13.24
1/16/2021 9:45:00 AM 2.58 36.644 0.065 6.46 1.54 13.25
1/16/2021 10:00:00 AM 2.61 36.698 0.065 6.46 1.5 13.25
1/16/2021 10:15:00 AM 2.62 36.716 0.065 6.41 1.52 13.26
1/16/2021 10:30:00 AM 2.69 36.842 0.065 6.47 1.53 13.26
1/16/2021 10:45:00 AM 2.75 36.95 0.065 6.46 1.41 13.26
1/16/2021 11:00:00 AM 2.8 37.04 0.065 6.46 1.46 13.25
1/16/2021 11:15:00 AM 2.85 37.13 0.065 6.47 1.43 13.24
1/16/2021 11:30:00 AM 2.89 37.202 0.065 6.47 1.43 13.21
1/16/2021 11:45:00 AM 2.93 37.274 0.065 6.47 1.39 13.2
1/16/2021 12:00:00 PM 2.97 37.346 0.065 6.47 1.35 13.18
1/16/2021 12:15:00 PM 3.01 37.418 0.065 6.47 1.41 13.15
1/16/2021 12:30:00 PM 3.05 37.49 0.065 6.47 1.38 13.12
1/16/2021 12:45:00 PM 3.11 37.598 0.065 6.46 1.4 13.11
1/16/2021 1:00:00 PM 3.18 37.724 0.065 6.45 1.36 13.11
1/16/2021 1:15:00 PM 3.22 37.796 0.065 6.47 1.36 13.09
1/16/2021 1:30:00 PM 3.26 37.868 0.065 6.47 1.35 13.08
1/16/2021 1:45:00 PM 3.31 37.958 0.065 6.42 1.39 13.09
1/16/2021 2:00:00 PM 3.36 38.048 0.065 6.48 1.39 13.05
1/16/2021 2:15:00 PM 3.39 38.102 0.065 6.47 1.34 13.04
1/16/2021 2:30:00 PM 3.41 38.138 0.065 6.47 1.37 13.02
1/16/2021 2:45:00 PM 3.44 38.192 0.065 6.48 1.38 13
1/16/2021 3:00:00 PM 3.47 38.246 0.065 6.48 1.49 13
1/16/2021 3:15:00 PM 3.49 38.282 0.065 6.47 1.31 12.99
1/16/2021 3:30:00 PM 3.5 38.3 0.065 6.45 1.33 12.96
1/16/2021 3:45:00 PM 3.51 38.318 0.065 6.48 1.28 12.96
1/16/2021 4:00:00 PM 3.5 38.3 0.064 6.47 1.34 12.96
1/16/2021 4:15:00 PM 3.47 38.246 0.064 6.47 1.32 12.95
1/16/2021 4:30:00 PM 3.44 38.192 0.064 6.47 1.3 12.93
1/16/2021 4:45:00 PM 3.4 38.12 0.064 6.4 1.34 12.95
1/16/2021 5:00:00 PM 3.37 38.066 0.064 6.46 1.34 12.93
1/16/2021 5:15:00 PM 3.33 37.994 0.064 6.46 1.36 12.93
1/16/2021 5:30:00 PM 3.29 37.922 0.064 6.45 1.43 12.93
1/16/2021 5:45:00 PM 3.26 37.868 0.064 6.45 1.4 12.93
1/16/2021 6:00:00 PM 3.24 37.832 0.064 6.45 1.5 12.94
1/16/2021 6:15:00 PM 3.23 37.814 0.065 6.45 1.5 12.93
1/16/2021 6:30:00 PM 3.22 37.796 0.064 6.45 1.39 12.93
1/16/2021 6:45:00 PM 3.2 37.76 0.064 6.43 1.44 12.93
1/16/2021 7:00:00 PM 3.19 37.742 0.064 6.44 1.46 12.94
1/16/2021 7:15:00 PM 3.17 37.706 0.064 6.42 1.46 12.95
1/16/2021 7:30:00 PM 3.14 37.652 0.064 6.45 1.43 12.93
1/16/2021 7:45:00 PM 3.11 37.598 0.064 6.4 1.44 12.95
1/16/2021 8:00:00 PM 3.09 37.562 0.064 6.45 1.44 12.95
1/16/2021 8:15:00 PM 3.07 37.526 0.064 6.45 1.44 12.96
1/16/2021 8:30:00 PM 3.05 37.49 0.064 6.45 1.42 12.97
1/16/2021 8:45:00 PM 3.02 37.436 0.064 6.42 1.39 12.98
1/16/2021 9:00:00 PM 3.01 37.418 0.064 6.42 1.43 12.98
1/16/2021 9:15:00 PM 3 37.4 0.064 6.45 1.39 12.99
1/16/2021 9:30:00 PM 2.99 37.382 0.064 6.45 1.31 13
1/16/2021 9:45:00 PM 2.98 37.364 0.064 6.44 1.36 13
1/16/2021 10:00:00 PM 2.97 37.346 0.064 6.45 1.36 13.01
1/16/2021 10:15:00 PM 2.96 37.328 0.064 6.45 1.4 13.01
1/16/2021 10:30:00 PM 2.94 37.292 0.064 6.45 1.34 13.02
1/16/2021 10:45:00 PM 2.92 37.256 0.064 6.44 1.41 13.03
1/16/2021 11:00:00 PM 2.91 37.238 0.064 6.44 1.36 13.03
1/16/2021 11:15:00 PM 2.9 37.22 0.064 6.44 1.42 13.04
1/16/2021 11:30:00 PM 2.89 37.202 0.064 6.44 1.36 13.05
1/16/2021 11:45:00 PM 2.87 37.166 0.064 6.44 1.31 13.05
1/17/2021 12:00:00 AM 2.86 37.148 0.064 6.45 1.36 13.05
1/17/2021 12:15:00 AM 2.85 37.13 0.064 6.44 1.34 13.06
1/17/2021 12:30:00 AM 2.84 37.112 0.064 6.45 1.36 13.07
1/17/2021 12:45:00 AM 2.83 37.094 0.064 6.39 1.32 13.07
1/17/2021 1:00:00 AM 2.82 37.076 0.064 6.44 1.32 13.07
1/17/2021 1:15:00 AM 2.82 37.076 0.064 6.44 1.35 13.08
1/17/2021 1:30:00 AM 2.8 37.04 0.064 6.42 1.27 13.08
1/17/2021 1:45:00 AM 2.79 37.022 0.064 6.44 1.33 13.09
1/17/2021 2:00:00 AM 2.78 37.004 0.064 6.45 1.31 13.09
1/17/2021 2:15:00 AM 2.77 36.986 0.064 6.45 1.34 13.09
1/17/2021 2:30:00 AM 2.76 36.968 0.064 6.44 1.28 13.11
1/17/2021 2:45:00 AM 2.75 36.95 0.064 6.45 1.35 13.09
1/17/2021 3:00:00 AM 2.75 36.95 0.064 6.45 1.35 13.11
1/17/2021 3:15:00 AM 2.74 36.932 0.064 6.44 1.35 13.11
1/17/2021 3:30:00 AM 2.73 36.914 0.064 6.43 1.29 13.12
1/17/2021 3:45:00 AM 2.73 36.914 0.064 6.45 1.4 13.11
1/17/2021 4:00:00 AM 2.73 36.914 0.064 6.44 1.31 13.11
1/17/2021 4:15:00 AM 2.72 36.896 0.064 6.45 1.28 13.11
1/17/2021 4:30:00 AM 2.7 36.86 0.064 6.42 1.26 13.12
1/17/2021 4:45:00 AM 2.7 36.86 0.064 6.43 1.32 13.13
1/17/2021 5:00:00 AM 2.69 36.842 0.064 6.45 1.23 13.12
1/17/2021 5:15:00 AM 2.69 36.842 0.064 6.45 1.28 13.13
1/17/2021 5:30:00 AM 2.69 36.842 0.064 6.44 1.38 13.12
1/17/2021 5:45:00 AM 2.69 36.842 0.064 6.45 1.28 13.13
1/17/2021 6:00:00 AM 2.69 36.842 0.064 6.45 1.3 13.13
1/17/2021 6:15:00 AM 2.69 36.842 0.064 6.44 1.25 13.13
1/17/2021 6:30:00 AM 2.7 36.86 0.064 6.44 1.23 13.13
1/17/2021 6:45:00 AM 2.7 36.86 0.064 6.45 1.26 13.14
1/17/2021 7:00:00 AM 2.69 36.842 0.064 6.41 1.52 13.14
1/17/2021 7:15:00 AM 2.7 36.86 0.064 6.45 1.21 13.15
1/17/2021 7:30:00 AM 2.7 36.86 0.064 6.44 1.25 13.14
1/17/2021 7:45:00 AM 2.71 36.878 0.064 6.45 1.23 13.15
1/17/2021 8:00:00 AM 2.71 36.878 0.064 6.44 1.21 13.16
1/17/2021 8:15:00 AM 2.72 36.896 0.064 6.45 1.25 13.15
1/17/2021 8:30:00 AM 2.72 36.896 0.064 6.45 1.22 13.17
1/17/2021 8:45:00 AM 2.73 36.914 0.064 6.4 1.21 13.18
1/17/2021 9:00:00 AM 2.75 36.95 0.064 6.46 1.27 13.19
1/17/2021 9:15:00 AM 2.76 36.968 0.064 6.43 1.31 13.19
1/17/2021 9:30:00 AM 2.77 36.986 0.064 6.46 1.24 13.21
1/17/2021 9:45:00 AM 2.78 37.004 0.064 6.41 1.32 13.21
1/17/2021 10:00:00 AM 2.82 37.076 0.064 6.47 1.22 13.22
1/17/2021 10:15:00 AM 2.85 37.13 0.064 6.47 1.21 13.23
1/17/2021 10:30:00 AM 2.88 37.184 0.064 6.46 1.24 13.22
1/17/2021 10:45:00 AM 2.91 37.238 0.064 6.48 1.21 13.22
1/17/2021 11:00:00 AM 2.93 37.274 0.064 6.45 1.23 13.21
1/17/2021 11:15:00 AM 2.97 37.346 0.064 6.46 1.25 13.2
1/17/2021 11:30:00 AM 3 37.4 0.064 6.45 1.24 13.19
1/17/2021 11:45:00 AM 3.01 37.418 0.064 6.48 1.2 13.17
1/17/2021 12:00:00 PM 3.02 37.436 0.064 6.47 1.23 13.16
1/17/2021 12:15:00 PM 3.04 37.472 0.064 6.47 1.24 13.15
1/17/2021 12:30:00 PM 3.06 37.508 0.064 6.47 1.22 13.15
1/17/2021 12:45:00 PM 3.09 37.562 0.064 6.48 1.16 13.14
1/17/2021 1:00:00 PM 3.12 37.616 0.064 6.48 1.17 13.14
1/17/2021 1:15:00 PM 3.14 37.652 0.064 6.48 1.21 13.13
1/17/2021 1:30:00 PM 3.17 37.706 0.064 6.47 1.21 13.13
1/17/2021 1:45:00 PM 3.21 37.778 0.064 6.47 1.18 13.13
1/17/2021 2:00:00 PM 3.24 37.832 0.064 6.47 1.16 13.13
1/17/2021 2:15:00 PM 3.26 37.868 0.064 6.48 1.24 13.11
1/17/2021 2:30:00 PM 3.3 37.94 0.064 6.48 1.18 13.1
1/17/2021 2:45:00 PM 3.32 37.976 0.064 6.48 1.16 13.09
1/17/2021 3:00:00 PM 3.3 37.94 0.064 6.45 1.21 13.07
1/17/2021 3:15:00 PM 3.29 37.922 0.064 6.48 1.18 13.06
1/17/2021 3:30:00 PM 3.3 37.94 0.064 6.43 1.21 13.07
1/17/2021 3:45:00 PM 3.31 37.958 0.064 6.47 1.25 13.05
1/17/2021 4:00:00 PM 3.3 37.94 0.064 6.47 1.35 13.05
1/17/2021 4:15:00 PM 3.29 37.922 0.064 6.46 1.28 13.07
1/17/2021 4:30:00 PM 3.29 37.922 0.064 6.47 1.25 13.06
1/17/2021 4:45:00 PM 3.28 37.904 0.064 6.47 1.22 13.05
1/17/2021 5:00:00 PM 3.27 37.886 0.064 6.47 1.23 13.04
1/17/2021 5:15:00 PM 3.26 37.868 0.064 6.46 1.15 13.02
1/17/2021 5:30:00 PM 3.24 37.832 0.064 6.46 1.2 13.01
1/17/2021 5:45:00 PM 3.22 37.796 0.064 6.43 1.22 13.01
1/17/2021 6:00:00 PM 3.21 37.778 0.064 6.46 1.34 13
1/17/2021 6:15:00 PM 3.19 37.742 0.064 6.46 1.22 13
1/17/2021 6:30:00 PM 3.19 37.742 0.064 6.45 1.23 13
1/17/2021 6:45:00 PM 3.18 37.724 0.064 6.45 1.25 12.99
1/17/2021 7:00:00 PM 3.16 37.688 0.064 6.44 1.21 13
1/17/2021 7:15:00 PM 3.15 37.67 0.065 6.46 1.22 13.01
1/17/2021 7:30:00 PM 3.15 37.67 0.065 6.46 1.22 13.01
1/17/2021 7:45:00 PM 3.14 37.652 0.065 6.45 1.25 13.02
1/17/2021 8:00:00 PM 3.13 37.634 0.065 6.45 1.2 13.01
1/17/2021 8:15:00 PM 3.13 37.634 0.065 6.45 1.25 13.01
1/17/2021 8:30:00 PM 3.12 37.616 0.065 6.45 1.24 13.02
1/17/2021 8:45:00 PM 3.12 37.616 0.065 6.46 1.23 13.02
1/17/2021 9:00:00 PM 3.11 37.598 0.065 6.45 1.26 13.02
1/17/2021 9:15:00 PM 3.07 37.526 0.065 6.46 1.23 13.02
1/17/2021 9:30:00 PM 3.04 37.472 0.065 6.45 1.23 13.02
1/17/2021 9:45:00 PM 3.03 37.454 0.065 6.45 1.23 13.02
1/17/2021 10:00:00 PM 3.02 37.436 0.065 6.45 1.24 13.03
1/17/2021 10:15:00 PM 3 37.4 0.065 6.45 1.27 13.04
1/17/2021 10:30:00 PM 2.97 37.346 0.065 6.44 1.3 13.05
1/17/2021 10:45:00 PM 2.95 37.31 0.065 6.42 1.26 13.06
1/17/2021 11:00:00 PM 2.95 37.31 0.065 6.45 1.25 13.07
1/17/2021 11:15:00 PM 2.93 37.274 0.065 6.44 1.25 13.06
1/17/2021 11:30:00 PM 2.92 37.256 0.065 6.45 1.22 13.08
1/17/2021 11:45:00 PM 2.91 37.238 0.065 6.45 1.2 13.08
1/18/2021 12:00:00 AM 2.91 37.238 0.065 6.44 1.22 13.09
1/18/2021 12:15:00 AM 2.9 37.22 0.065 6.45 1.21 13.09
1/18/2021 12:30:00 AM 2.89 37.202 0.065 6.45 1.26 13.09
1/18/2021 12:45:00 AM 2.88 37.184 0.065 6.4 1.24 13.1
1/18/2021 1:00:00 AM 2.89 37.202 0.065 6.45 1.53 13.1
1/18/2021 1:15:00 AM 2.87 37.166 0.065 6.43 1.2 13.1
1/18/2021 1:30:00 AM 2.86 37.148 0.065 6.45 1.21 13.1
1/18/2021 1:45:00 AM 2.86 37.148 0.065 6.43 1.23 13.11
1/18/2021 2:00:00 AM 2.86 37.148 0.065 6.45 1.17 13.1
1/18/2021 2:15:00 AM 2.86 37.148 0.065 6.45 1.22 13.12
1/18/2021 2:30:00 AM 2.86 37.148 0.065 6.45 1.24 13.12
1/18/2021 2:45:00 AM 2.86 37.148 0.065 6.45 1.18 13.12
1/18/2021 3:00:00 AM 2.85 37.13 0.065 6.38 1.22 13.12
1/18/2021 3:15:00 AM 2.86 37.148 0.065 6.45 1.18 13.12
1/18/2021 3:30:00 AM 2.85 37.13 0.065 6.39 1.14 13.12
1/18/2021 3:45:00 AM 2.85 37.13 0.065 6.42 1.17 13.12
1/18/2021 4:00:00 AM 2.86 37.148 0.065 6.44 1.22 13.12
1/18/2021 4:15:00 AM 2.84 37.112 0.065 6.42 1.22 13.12
1/18/2021 4:30:00 AM 2.84 37.112 0.065 6.45 1.28 13.12
1/18/2021 4:45:00 AM 2.84 37.112 0.065 6.45 1.18 13.12
1/18/2021 5:00:00 AM 2.83 37.094 0.065 6.4 1.19 13.12
1/18/2021 5:15:00 AM 2.84 37.112 0.065 6.45 1.22 13.12
1/18/2021 5:30:00 AM 2.84 37.112 0.065 6.45 1.19 13.13
1/18/2021 5:45:00 AM 2.84 37.112 0.065 6.45 1.18 13.12
1/18/2021 6:00:00 AM 2.82 37.076 0.065 6.41 1.2 13.13
1/18/2021 6:15:00 AM 2.82 37.076 0.065 6.45 1.21 13.13
1/18/2021 6:30:00 AM 2.81 37.058 0.065 6.45 1.16 13.14
1/18/2021 6:45:00 AM 2.81 37.058 0.065 6.45 1.18 13.13
1/18/2021 7:00:00 AM 2.8 37.04 0.065 6.45 1.2 13.14
1/18/2021 7:15:00 AM 2.79 37.022 0.065 6.45 1.21 13.15
1/18/2021 7:30:00 AM 2.78 37.004 0.065 6.45 1.21 13.15
1/18/2021 7:45:00 AM 2.78 37.004 0.065 6.45 1.24 13.15
1/18/2021 8:00:00 AM 2.79 37.022 0.065 6.45 1.16 13.16
1/18/2021 8:15:00 AM 2.8 37.04 0.065 6.46 1.2 13.18
1/18/2021 8:30:00 AM 2.8 37.04 0.065 6.42 1.19 13.19
1/18/2021 8:45:00 AM 2.82 37.076 0.065 6.47 1.15 13.21
1/18/2021 9:00:00 AM 2.85 37.13 0.065 6.47 1.19 13.22
1/18/2021 9:15:00 AM 2.87 37.166 0.065 6.48 1.25 13.24
1/18/2021 9:30:00 AM 2.9 37.22 0.065 6.48 1.18 13.25
1/18/2021 9:45:00 AM 2.92 37.256 0.065 6.48 1.17 13.25
1/18/2021 10:00:00 AM 2.95 37.31 0.065 6.49 1.16 13.24
1/18/2021 10:15:00 AM 2.99 37.382 0.065 6.47 1.21 13.24
1/18/2021 10:30:00 AM 3.04 37.472 0.065 6.49 1.14 13.23
1/18/2021 10:45:00 AM 3.09 37.562 0.065 6.49 1.16 13.22
1/18/2021 11:00:00 AM 3.11 37.598 0.065 6.45 1.16 13.22
1/18/2021 11:15:00 AM 3.15 37.67 0.065 6.49 1.17 13.2
1/18/2021 11:30:00 AM 3.16 37.688 0.065 6.44 1.21 13.19
1/18/2021 11:45:00 AM 3.18 37.724 0.065 6.5 1.16 13.18
1/18/2021 12:00:00 PM 3.22 37.796 0.065 6.49 1.15 13.17
1/18/2021 12:15:00 PM 3.24 37.832 0.065 6.49 1.14 13.18
1/18/2021 12:30:00 PM 3.24 37.832 0.065 6.49 1.17 13.16
1/18/2021 12:45:00 PM 3.26 37.868 0.065 6.46 1.18 13.16
1/18/2021 1:00:00 PM 3.3 37.94 0.065 6.5 1.14 13.16
1/18/2021 1:15:00 PM 3.31 37.958 0.065 6.49 1.16 13.16
1/18/2021 1:30:00 PM 3.3 37.94 0.065 6.45 1.22 13.16
1/18/2021 1:45:00 PM 3.33 37.994 0.065 6.5 1.19 13.16
1/18/2021 2:00:00 PM 3.33 37.994 0.065 6.49 1.16 13.15
1/18/2021 2:15:00 PM 3.34 38.012 0.065 6.49 1.18 13.14
1/18/2021 2:30:00 PM 3.32 37.976 0.065 6.49 1.15 13.13
1/18/2021 2:45:00 PM 3.32 37.976 0.065 6.48 1.18 13.14
1/18/2021 3:00:00 PM 3.31 37.958 0.065 6.49 1.21 13.13
1/18/2021 3:15:00 PM 3.3 37.94 0.065 6.49 1.21 13.12
1/18/2021 3:30:00 PM 3.29 37.922 0.065 6.49 1.18 13.13
1/18/2021 3:45:00 PM 3.28 37.904 0.065 6.49 1.19 13.12
1/18/2021 4:00:00 PM 3.26 37.868 0.065 6.48 1.16 13.1
1/18/2021 4:15:00 PM 3.24 37.832 0.065 6.48 1.23 13.1
1/18/2021 4:30:00 PM 3.22 37.796 0.065 6.48 1.2 13.11
1/18/2021 4:45:00 PM 3.2 37.76 0.065 6.44 1.25 13.09
1/18/2021 5:00:00 PM 3.19 37.742 0.065 6.47 1.18 13.09
1/18/2021 5:15:00 PM 3.17 37.706 0.065 6.48 1.2 13.09
1/18/2021 5:30:00 PM 3.16 37.688 0.065 6.47 1.25 13.09
1/18/2021 5:45:00 PM 3.15 37.67 0.065 6.47 1.18 13.09
1/18/2021 6:00:00 PM 3.13 37.634 0.065 6.44 1.19 13.1
1/18/2021 6:15:00 PM 3.12 37.616 0.065 6.47 1.26 13.1
1/18/2021 6:30:00 PM 3.1 37.58 0.065 6.47 1.19 13.1
1/18/2021 6:45:00 PM 3.08 37.544 0.065 6.43 1.27 13.11
1/18/2021 7:00:00 PM 3.07 37.526 0.065 6.47 1.22 13.11
1/18/2021 7:15:00 PM 3.05 37.49 0.065 6.46 1.2 13.13
1/18/2021 7:30:00 PM 3.05 37.49 0.065 6.46 1.18 13.13
1/18/2021 7:45:00 PM 3.04 37.472 0.065 6.47 1.25 13.15
1/18/2021 8:00:00 PM 3.02 37.436 0.065 6.46 1.19 13.14
1/18/2021 8:15:00 PM 3.02 37.436 0.065 6.46 1.22 13.15
1/18/2021 8:30:00 PM 3.01 37.418 0.065 6.46 1.21 13.15
1/18/2021 8:45:00 PM 3 37.4 0.065 6.47 1.21 13.17
1/18/2021 9:00:00 PM 2.98 37.364 0.065 6.46 1.25 13.17
1/18/2021 9:15:00 PM 2.97 37.346 0.065 6.46 1.22 13.18
1/18/2021 9:30:00 PM 2.96 37.328 0.065 6.46 1.24 13.18
1/18/2021 9:45:00 PM 2.95 37.31 0.065 6.46 1.19 13.19
1/18/2021 10:00:00 PM 2.93 37.274 0.065 6.4 1.14 13.2
1/18/2021 10:15:00 PM 2.93 37.274 0.065 6.47 1.19 13.2
1/18/2021 10:30:00 PM 2.92 37.256 0.065 6.46 1.26 13.2
1/18/2021 10:45:00 PM 2.91 37.238 0.065 6.46 1.25 13.21
1/18/2021 11:00:00 PM 2.9 37.22 0.065 6.46 1.17 13.21
1/18/2021 11:15:00 PM 2.89 37.202 0.065 6.47 1.2 13.22
1/18/2021 11:30:00 PM 2.89 37.202 0.065 6.47 1.23 13.22
1/18/2021 11:45:00 PM 2.87 37.166 0.065 6.46 1.21 13.22
1/19/2021 12:00:00 AM 2.86 37.148 0.065 6.46 1.2 13.24
1/19/2021 12:15:00 AM 2.85 37.13 0.065 6.47 1.17 13.24
1/19/2021 12:30:00 AM 2.84 37.112 0.065 6.47 1.17 13.25
1/19/2021 12:45:00 AM 2.81 37.058 0.065 6.4 1.23 13.26
1/19/2021 1:00:00 AM 2.81 37.058 0.065 6.47 1.25 13.25
1/19/2021 1:15:00 AM 2.79 37.022 0.065 6.47 1.2 13.25
1/19/2021 1:30:00 AM 2.77 36.986 0.065 6.39 1.22 13.27
1/19/2021 1:45:00 AM 2.77 36.986 0.065 6.45 1.23 13.28
1/19/2021 2:00:00 AM 2.76 36.968 0.065 6.47 1.25 13.28
1/19/2021 2:15:00 AM 2.73 36.914 0.065 6.43 1.14 13.28
1/19/2021 2:30:00 AM 2.73 36.914 0.065 6.47 1.23 13.29
1/19/2021 2:45:00 AM 2.72 36.896 0.065 6.47 1.23 13.29
1/19/2021 3:00:00 AM 2.7 36.86 0.065 6.47 1.15 13.29
1/19/2021 3:15:00 AM 2.69 36.842 0.065 6.45 1.16 13.3
1/19/2021 3:30:00 AM 2.68 36.824 0.065 6.44 1.2 13.3
1/19/2021 3:45:00 AM 2.68 36.824 0.065 6.45 1.24 13.31
1/19/2021 4:00:00 AM 2.68 36.824 0.065 6.47 1.25 13.3
1/19/2021 4:15:00 AM 2.67 36.806 0.065 6.47 1.14 13.31
1/19/2021 4:30:00 AM 2.66 36.788 0.065 6.47 1.24 13.31
1/19/2021 4:45:00 AM 2.65 36.77 0.065 6.44 1.18 13.31
1/19/2021 5:00:00 AM 2.65 36.77 0.065 6.47 1.21 13.31
1/19/2021 5:15:00 AM 2.64 36.752 0.065 6.47 1.21 13.31
1/19/2021 5:30:00 AM 2.63 36.734 0.065 6.47 1.21 13.32
1/19/2021 5:45:00 AM 2.62 36.716 0.065 6.47 1.21 13.32
1/19/2021 6:00:00 AM 2.62 36.716 0.065 6.47 1.21 13.32
1/19/2021 6:15:00 AM 2.61 36.698 0.065 6.47 1.17 13.33
1/19/2021 6:30:00 AM 2.6 36.68 0.065 6.41 1.22 13.34
1/19/2021 6:45:00 AM 2.59 36.662 0.065 6.46 1.2 13.33
1/19/2021 7:00:00 AM 2.59 36.662 0.065 6.47 1.22 13.33
1/19/2021 7:15:00 AM 2.57 36.626 0.065 6.41 1.18 13.33
1/19/2021 7:30:00 AM 2.57 36.626 0.065 6.47 1.21 13.33
1/19/2021 7:45:00 AM 2.57 36.626 0.065 6.45 1.21 13.34
1/19/2021 8:00:00 AM 2.57 36.626 0.065 6.47 1.19 13.35
1/19/2021 8:15:00 AM 2.57 36.626 0.065 6.47 1.17 13.36
1/19/2021 8:30:00 AM 2.56 36.608 0.065 6.47 1.22 13.37
1/19/2021 8:45:00 AM 2.5 36.5 0.065 6.47 1.19 13.36
1/19/2021 9:00:00 AM 2.49 36.482 0.065 6.46 1.19 13.39
1/19/2021 9:15:00 AM 2.51 36.518 0.065 6.48 1.22 13.42
1/19/2021 9:30:00 AM 2.53 36.554 0.065 6.48 1.17 13.42
1/19/2021 9:45:00 AM 2.54 36.572 0.065 6.48 1.19 13.44
1/19/2021 10:00:00 AM 2.56 36.608 0.065 6.48 1.15 13.45
1/19/2021 10:15:00 AM 2.59 36.662 0.065 6.48 1.18 13.47
1/19/2021 10:30:00 AM 2.63 36.734 0.065 6.49 1.25 13.47
1/19/2021 10:45:00 AM 2.63 36.734 0.065 6.42 1.23 13.48
1/19/2021 11:00:00 AM 2.65 36.77 0.065 6.49 1.15 13.46
1/19/2021 11:15:00 AM 2.64 36.752 0.065 6.5 1.17 13.45
1/19/2021 11:30:00 AM 2.66 36.788 0.065 6.49 1.15 13.45
1/19/2021 11:45:00 AM 2.71 36.878 0.065 6.44 1.16 13.47
1/19/2021 12:00:00 PM 2.77 36.986 0.065 6.5 1.14 13.47
1/19/2021 12:15:00 PM 2.79 37.022 0.065 6.5 1.15 13.47
1/19/2021 12:30:00 PM 2.81 37.058 0.065 6.45 1.17 13.46
1/19/2021 12:45:00 PM 2.93 37.274 0.065 6.5 1.12 13.43
1/19/2021 1:00:00 PM 2.97 37.346 0.065 6.5 1.13 13.41
1/19/2021 1:15:00 PM 2.99 37.382 0.065 6.5 1.16 13.4
1/19/2021 1:30:00 PM 3 37.4 0.065 6.5 1.19 13.38
1/19/2021 1:45:00 PM 3.03 37.454 0.065 6.5 1.12 13.36
1/19/2021 2:00:00 PM 3.04 37.472 0.065 6.45 1.17 13.35
1/19/2021 2:15:00 PM 3.05 37.49 0.065 6.5 1.12 13.34
1/19/2021 2:30:00 PM 3.06 37.508 0.065 6.5 1.17 13.33
1/19/2021 2:45:00 PM 3.08 37.544 0.065 6.5 1.16 13.33
1/19/2021 3:00:00 PM 3.08 37.544 0.065 6.5 1.14 13.32
1/19/2021 3:15:00 PM 3.07 37.526 0.065 6.5 1.15 13.33
1/19/2021 3:30:00 PM 3.09 37.562 0.065 6.51 1.12 13.33
1/19/2021 3:45:00 PM 3.08 37.544 0.065 6.5 1.18 13.32
1/19/2021 4:00:00 PM 3.08 37.544 0.065 6.5 1.13 13.32
1/19/2021 4:15:00 PM 3.07 37.526 0.065 6.5 1.15 13.31
1/19/2021 4:30:00 PM 3.05 37.49 0.065 6.5 1.12 13.32
1/19/2021 4:45:00 PM 3.01 37.418 0.065 6.5 1.16 13.3
1/19/2021 5:00:00 PM 2.98 37.364 0.065 6.48 1.16 13.3
1/19/2021 5:15:00 PM 2.96 37.328 0.065 6.49 1.18 13.28
1/19/2021 5:30:00 PM 2.94 37.292 0.065 6.48 1.16 13.28
1/19/2021 5:45:00 PM 2.91 37.238 0.065 6.48 1.22 13.28
1/19/2021 6:00:00 PM 2.88 37.184 0.065 6.48 1.18 13.28
1/19/2021 6:15:00 PM 2.86 37.148 0.065 6.48 1.15 13.29
1/19/2021 6:30:00 PM 2.84 37.112 0.065 6.46 1.18 13.29
1/19/2021 6:45:00 PM 2.82 37.076 0.065 6.47 1.18 13.29
1/19/2021 7:00:00 PM 2.8 37.04 0.065 6.47 1.16 13.3
1/19/2021 7:15:00 PM 2.79 37.022 0.065 6.47 1.16 13.31
1/19/2021 7:30:00 PM 2.75 36.95 0.065 6.41 1.16 13.32
1/19/2021 7:45:00 PM 2.75 36.95 0.065 6.47 1.16 13.32
1/19/2021 8:00:00 PM 2.73 36.914 0.065 6.47 1.17 13.33
1/19/2021 8:15:00 PM 2.71 36.878 0.065 6.47 1.18 13.32
1/19/2021 8:30:00 PM 2.7 36.86 0.065 6.47 1.22 13.33
1/19/2021 8:45:00 PM 2.69 36.842 0.065 6.47 1.18 13.31
1/19/2021 9:00:00 PM 2.66 36.788 0.065 6.42 1.17 13.33
1/19/2021 9:15:00 PM 2.66 36.788 0.065 6.46 1.14 13.32
1/19/2021 9:30:00 PM 2.65 36.77 0.065 6.47 1.18 13.31
1/19/2021 9:45:00 PM 2.64 36.752 0.065 6.47 1.17 13.32
1/19/2021 10:00:00 PM 2.63 36.734 0.065 6.46 1.17 13.32
1/19/2021 10:15:00 PM 2.62 36.716 0.065 6.47 1.2 13.32
1/19/2021 10:30:00 PM 2.6 36.68 0.065 6.46 1.13 13.32
1/19/2021 10:45:00 PM 2.6 36.68 0.065 6.47 1.25 13.31
1/19/2021 11:00:00 PM 2.58 36.644 0.065 6.47 1.2 13.33
1/19/2021 11:15:00 PM 2.58 36.644 0.065 6.47 1.17 13.33
1/19/2021 11:30:00 PM 2.57 36.626 0.065 6.47 1.14 13.33
1/19/2021 11:45:00 PM 2.56 36.608 0.065 6.46 1.17 13.33
1/20/2021 12:00:00 AM 2.55 36.59 0.065 6.44 1.15 13.33
1/20/2021 12:15:00 AM 2.55 36.59 0.065 6.46 1.16 13.32
1/20/2021 12:30:00 AM 2.55 36.59 0.065 6.47 1.14 13.32
1/20/2021 12:45:00 AM 2.53 36.554 0.065 6.42 1.18 13.33
1/20/2021 1:00:00 AM 2.54 36.572 0.065 6.48 1.16 13.32
1/20/2021 1:15:00 AM 2.53 36.554 0.065 6.47 1.15 13.32
1/20/2021 1:30:00 AM 2.53 36.554 0.065 6.47 1.13 13.32
1/20/2021 1:45:00 AM 2.53 36.554 0.065 6.48 1.14 13.32
1/20/2021 2:00:00 AM 2.52 36.536 0.065 6.48 1.16 13.31
1/20/2021 2:15:00 AM 2.49 36.482 0.065 6.48 1.24 13.31
1/20/2021 2:30:00 AM 2.48 36.464 0.065 6.46 1.14 13.32
1/20/2021 2:45:00 AM 2.46 36.428 0.065 6.48 1.31 13.32
1/20/2021 3:00:00 AM 2.45 36.41 0.065 6.47 1.21 13.31
1/20/2021 3:15:00 AM 2.42 36.356 0.065 6.47 1.16 13.32
1/20/2021 3:30:00 AM 2.38 36.284 0.065 6.47 1.17 13.34
1/20/2021 3:45:00 AM 2.38 36.284 0.065 6.47 1.3 13.33
1/20/2021 4:00:00 AM 2.36 36.248 0.065 6.47 1.15 13.35
1/20/2021 4:15:00 AM 2.36 36.248 0.065 6.47 1.22 13.35
1/20/2021 4:30:00 AM 2.35 36.23 0.065 6.41 1.21 13.36
1/20/2021 4:45:00 AM 2.35 36.23 0.065 6.47 1.16 13.36
1/20/2021 5:00:00 AM 2.35 36.23 0.065 6.47 1.2 13.36
1/20/2021 5:15:00 AM 2.34 36.212 0.065 6.47 1.18 13.37
1/20/2021 5:30:00 AM 2.33 36.194 0.065 6.47 1.14 13.38
1/20/2021 5:45:00 AM 2.33 36.194 0.065 6.47 1.15 13.38
1/20/2021 6:00:00 AM 2.33 36.194 0.065 6.47 1.19 13.39
1/20/2021 6:15:00 AM 2.32 36.176 0.065 6.47 1.18 13.38
1/20/2021 6:30:00 AM 2.31 36.158 0.065 6.47 1.19 13.4
1/20/2021 6:45:00 AM 2.29 36.122 0.065 6.47 1.15 13.41
1/20/2021 7:00:00 AM 2.28 36.104 0.065 6.47 1.17 13.4
1/20/2021 7:15:00 AM 2.25 36.05 0.065 6.47 1.18 13.42
1/20/2021 7:30:00 AM 2.22 35.996 0.065 6.47 1.2 13.42
1/20/2021 7:45:00 AM 2.21 35.978 0.065 6.47 1.22 13.44
1/20/2021 8:00:00 AM 2.19 35.942 0.065 6.47 1.25 13.46
1/20/2021 8:15:00 AM 2.19 35.942 0.065 6.48 1.19 13.49
1/20/2021 8:30:00 AM 2.19 35.942 0.065 6.48 1.17 13.5
1/20/2021 8:45:00 AM 2.18 35.924 0.065 6.49 1.21 13.53
1/20/2021 9:00:00 AM 2.17 35.906 0.065 6.49 1.23 13.55
1/20/2021 9:15:00 AM 2.15 35.87 0.065 6.49 1.15 13.54
1/20/2021 9:30:00 AM 2.12 35.816 0.065 6.49 1.15 13.57
1/20/2021 9:45:00 AM 2.11 35.798 0.065 6.5 1.18 13.58
1/20/2021 10:00:00 AM 2.14 35.852 0.065 6.5 1.17 13.59
1/20/2021 10:15:00 AM 2.16 35.888 0.065 6.5 1.13 13.61
1/20/2021 10:30:00 AM 2.17 35.906 0.065 6.5 1.17 13.61
1/20/2021 10:45:00 AM 2.19 35.942 0.065 6.46 1.15 13.63
1/20/2021 11:00:00 AM 2.22 35.996 0.065 6.5 1.12 13.63
1/20/2021 11:15:00 AM 2.23 36.014 0.065 6.5 1.2 13.63
1/20/2021 11:30:00 AM 2.24 36.032 0.065 6.5 1.14 13.62
1/20/2021 11:45:00 AM 2.24 36.032 0.065 6.5 1.26 13.62
1/20/2021 12:00:00 PM 2.24 36.032 0.065 6.5 1.17 13.63
1/20/2021 12:15:00 PM 2.21 35.978 0.065 6.43 1.19 13.63
1/20/2021 12:30:00 PM 2.26 36.068 0.065 6.5 1.16 13.61
1/20/2021 12:45:00 PM 2.26 36.068 0.065 6.45 1.2 13.62
1/20/2021 1:00:00 PM 2.22 35.996 0.065 6.48 1.16 13.61
1/20/2021 1:15:00 PM 2.25 36.05 0.065 6.5 1.21 13.62
1/20/2021 1:30:00 PM 2.22 35.996 0.065 6.46 1.27 13.61
1/20/2021 1:45:00 PM 2.25 36.05 0.065 6.5 1.2 13.62
1/20/2021 2:00:00 PM 2.2 35.96 0.065 6.5 1.18 13.62
1/20/2021 2:15:00 PM 2.18 35.924 0.065 6.5 1.14 13.62
1/20/2021 2:30:00 PM 2.19 35.942 0.065 6.5 1.17 13.62
1/20/2021 2:45:00 PM 2.19 35.942 0.065 6.5 1.19 13.62
1/20/2021 3:00:00 PM 2.18 35.924 0.065 6.49 1.42 13.64
1/20/2021 3:15:00 PM 2.19 35.942 0.065 6.5 1.16 13.65
1/20/2021 3:30:00 PM 2.17 35.906 0.065 6.46 1.21 13.64
1/20/2021 3:45:00 PM 2.15 35.87 0.065 6.49 1.18 13.63
1/20/2021 4:00:00 PM 2.13 35.834 0.065 6.49 1.18 13.63
1/20/2021 4:15:00 PM 2.1 35.78 0.065 6.49 1.18 13.63
1/20/2021 4:30:00 PM 2.07 35.726 0.065 6.49 1.18 13.63
1/20/2021 4:45:00 PM 2.03 35.654 0.065 6.41 1.15 13.64
1/20/2021 5:00:00 PM 2 35.6 0.065 6.47 1.16 13.61
1/20/2021 5:15:00 PM 1.96 35.528 0.065 6.46 1.2 13.59
1/20/2021 5:30:00 PM 1.93 35.474 0.065 6.45 1.21 13.59
1/20/2021 5:45:00 PM 1.9 35.42 0.065 6.44 1.21 13.6
1/20/2021 6:00:00 PM 1.86 35.348 0.065 6.38 1.17 13.6
1/20/2021 6:15:00 PM 1.82 35.276 0.065 6.43 1.2 13.61
1/20/2021 6:30:00 PM 1.78 35.204 0.065 6.38 1.24 13.62
1/20/2021 6:45:00 PM 1.75 35.15 0.065 6.41 1.24 13.62
1/20/2021 7:00:00 PM 1.72 35.096 0.065 6.41 1.22 13.62
1/20/2021 7:15:00 PM 1.67 35.006 0.065 6.41 1.24 13.64
1/20/2021 7:30:00 PM 1.62 34.916 0.065 6.36 1.22 13.65
1/20/2021 7:45:00 PM 1.61 34.898 0.065 6.38 1.25 13.66
1/20/2021 8:00:00 PM 1.58 34.844 0.065 6.4 1.22 13.67
1/20/2021 8:15:00 PM 1.56 34.808 0.065 6.39 1.23 13.67
1/20/2021 8:30:00 PM 1.52 34.736 0.065 6.38 1.27 13.69
1/20/2021 8:45:00 PM 1.48 34.664 0.065 6.35 1.21 13.69
1/20/2021 9:00:00 PM 1.46 34.628 0.065 6.39 1.2 13.71
1/20/2021 9:15:00 PM 1.43 34.574 0.065 6.39 1.26 13.72
1/20/2021 9:30:00 PM 1.38 34.484 0.065 6.37 1.27 13.74
1/20/2021 9:45:00 PM 1.33 34.394 0.065 6.38 1.2 13.76
1/20/2021 10:00:00 PM 1.3 34.34 0.065 6.33 1.24 13.77
1/20/2021 10:15:00 PM 1.29 34.322 0.065 6.37 1.19 13.78
1/20/2021 10:30:00 PM 1.28 34.304 0.065 6.39 1.23 13.79
1/20/2021 10:45:00 PM 1.26 34.268 0.065 6.38 1.23 13.79
1/20/2021 11:00:00 PM 1.23 34.214 0.065 6.38 1.22 13.8
1/20/2021 11:15:00 PM 1.21 34.178 0.065 6.39 1.23 13.8
1/20/2021 11:30:00 PM 1.17 34.106 0.065 6.32 1.27 13.82
1/20/2021 11:45:00 PM 1.16 34.088 0.065 6.37 1.21 13.82
1/21/2021 12:00:00 AM 1.13 34.034 0.065 6.38 1.2 13.82
1/21/2021 12:15:00 AM 1.08 33.944 0.065 6.39 1.24 13.81
1/21/2021 12:30:00 AM 1.04 33.872 0.065 6.38 1.23 13.8
1/21/2021 12:45:00 AM 1 33.8 0.065 6.38 1.21 13.81
1/21/2021 1:00:00 AM 0.95 33.71 0.065 6.34 1.25 13.82
1/21/2021 1:15:00 AM 0.91 33.638 0.065 6.37 1.2 13.83
1/21/2021 1:30:00 AM 0.87 33.566 0.065 6.36 1.19 13.85
1/21/2021 1:45:00 AM 0.82 33.476 0.065 6.35 1.18 13.86
1/21/2021 2:00:00 AM 0.76 33.368 0.065 6.36 1.23 13.89
1/21/2021 2:15:00 AM 0.73 33.314 0.065 6.32 1.22 13.91
1/21/2021 2:30:00 AM 0.72 33.296 0.065 6.36 1.18 13.91
1/21/2021 2:45:00 AM 0.73 33.314 0.065 6.35 1.27 13.91
1/21/2021 3:00:00 AM 0.76 33.368 0.065 6.36 1.4 13.92
1/21/2021 3:15:00 AM 0.77 33.386 0.065 6.36 1.48 13.93
1/21/2021 3:30:00 AM 0.78 33.404 0.066 6.35 1.27 13.91
1/21/2021 3:45:00 AM 0.79 33.422 0.066 6.37 1.25 13.91
1/21/2021 4:00:00 AM 0.79 33.422 0.066 6.4 1.23 13.91
1/21/2021 4:15:00 AM 0.79 33.422 0.065 6.38 1.22 13.9
1/21/2021 4:30:00 AM 0.8 33.44 0.065 6.41 1.22 13.89
1/21/2021 4:45:00 AM 0.79 33.422 0.065 6.38 1.25 13.88
1/21/2021 5:00:00 AM 0.81 33.458 0.065 6.42 1.26 13.87
1/21/2021 5:15:00 AM 0.79 33.422 0.065 6.42 1.23 13.88
1/21/2021 5:30:00 AM 0.81 33.458 0.065 6.43 1.25 13.86
1/21/2021 5:45:00 AM 0.8 33.44 0.065 6.43 1.28 13.86
1/21/2021 6:00:00 AM 0.8 33.44 0.065 6.44 1.21 13.86
1/21/2021 6:15:00 AM 0.8 33.44 0.065 6.44 1.21 13.85
1/21/2021 6:30:00 AM 0.8 33.44 0.064 6.43 1.22 13.85
1/21/2021 6:45:00 AM 0.79 33.422 0.064 6.44 1.25 13.86
1/21/2021 7:00:00 AM 0.79 33.422 0.064 6.44 1.24 13.85
1/21/2021 7:15:00 AM 0.78 33.404 0.064 6.44 1.21 13.87
1/21/2021 7:30:00 AM 0.79 33.422 0.064 6.45 1.25 13.86
1/21/2021 7:45:00 AM 0.78 33.404 0.064 6.38 1.27 13.86
1/21/2021 8:00:00 AM 0.8 33.44 0.064 6.44 1.16 13.85
1/21/2021 8:15:00 AM 0.8 33.44 0.064 6.46 1.2 13.86
1/21/2021 8:30:00 AM 0.81 33.458 0.064 6.45 1.23 13.85
1/21/2021 8:45:00 AM 0.81 33.458 0.063 6.46 1.16 13.88
1/21/2021 9:00:00 AM 0.79 33.422 0.063 6.46 1.22 13.9
1/21/2021 9:15:00 AM 0.8 33.44 0.063 6.48 1.29 13.91
1/21/2021 9:30:00 AM 0.8 33.44 0.063 6.48 1.24 13.91
1/21/2021 9:45:00 AM 0.81 33.458 0.062 6.49 1.23 13.92
1/21/2021 10:00:00 AM 0.81 33.458 0.062 6.48 1.29 13.91
1/21/2021 10:15:00 AM 0.82 33.476 0.063 6.47 1.37 13.88
1/21/2021 10:30:00 AM 0.81 33.458 0.063 6.48 1.31 13.88
1/21/2021 10:45:00 AM 0.83 33.494 0.063 6.49 1.29 13.85
1/21/2021 11:00:00 AM 0.86 33.548 0.063 6.5 1.36 13.85
1/21/2021 11:15:00 AM 0.98 33.764 0.063 6.48 1.26 13.78
1/21/2021 11:30:00 AM 1.13 34.034 0.063 6.47 1.29 13.79
1/21/2021 11:45:00 AM 1.28 34.304 0.064 6.5 1.35 13.79
1/21/2021 12:00:00 PM 1.33 34.394 0.064 6.5 1.28 13.77
1/21/2021 12:15:00 PM 1.39 34.502 0.064 6.5 1.27 13.75
1/21/2021 12:30:00 PM 1.45 34.61 0.065 6.49 1.32 13.71
1/21/2021 12:45:00 PM 1.53 34.754 0.065 6.5 1.34 13.7
1/21/2021 1:00:00 PM 1.58 34.844 0.066 6.5 1.31 13.69
1/21/2021 1:15:00 PM 1.62 34.916 0.066 6.5 1.34 13.68
1/21/2021 1:30:00 PM 1.64 34.952 0.067 6.48 1.29 13.68
1/21/2021 1:45:00 PM 1.65 34.97 0.067 6.49 1.29 13.67
1/21/2021 2:00:00 PM 1.67 35.006 0.067 6.5 1.34 13.65
1/21/2021 2:15:00 PM 1.7 35.06 0.067 6.48 1.26 13.64
1/21/2021 2:30:00 PM 1.73 35.114 0.067 6.5 1.24 13.61
1/21/2021 2:45:00 PM 1.73 35.114 0.067 6.49 1.34 13.59
1/21/2021 3:00:00 PM 1.74 35.132 0.067 6.5 1.34 13.58
1/21/2021 3:15:00 PM 1.77 35.186 0.067 6.49 1.4 13.56
1/21/2021 3:30:00 PM 1.8 35.24 0.067 6.49 1.31 13.54
1/21/2021 3:45:00 PM 1.82 35.276 0.068 6.48 1.3 13.53
1/21/2021 4:00:00 PM 1.83 35.294 0.068 6.5 1.35 13.52
1/21/2021 4:15:00 PM 1.82 35.276 0.068 6.49 1.35 13.52
1/21/2021 4:30:00 PM 1.81 35.258 0.068 6.46 1.41 13.52
1/21/2021 4:45:00 PM 1.81 35.258 0.068 6.5 1.51 13.51
1/21/2021 5:00:00 PM 1.78 35.204 0.068 6.46 1.36 13.52
1/21/2021 5:15:00 PM 1.76 35.168 0.068 6.49 1.35 13.51
1/21/2021 5:30:00 PM 1.73 35.114 0.068 6.49 1.29 13.51
1/21/2021 5:45:00 PM 1.71 35.078 0.068 6.48 1.28 13.51
1/21/2021 6:00:00 PM 1.69 35.042 0.068 6.49 1.32 13.51
1/21/2021 6:15:00 PM 1.67 35.006 0.067 6.48 1.27 13.5
1/21/2021 6:30:00 PM 1.67 35.006 0.067 6.49 1.24 13.51
1/21/2021 6:45:00 PM 1.67 35.006 0.067 6.49 1.22 13.5
1/21/2021 7:00:00 PM 1.66 34.988 0.067 6.48 1.25 13.51
1/21/2021 7:15:00 PM 1.65 34.97 0.067 6.48 1.29 13.52
1/21/2021 7:30:00 PM 1.66 34.988 0.067 6.49 1.26 13.52
1/21/2021 7:45:00 PM 1.65 34.97 0.066 6.41 1.22 13.52
1/21/2021 8:00:00 PM 1.67 35.006 0.066 6.49 1.23 13.52
1/21/2021 8:15:00 PM 1.67 35.006 0.066 6.48 1.26 13.51
1/21/2021 8:30:00 PM 1.68 35.024 0.066 6.49 1.27 13.51
1/21/2021 8:45:00 PM 1.69 35.042 0.066 6.49 1.23 13.51
1/21/2021 9:00:00 PM 1.71 35.078 0.066 6.49 1.21 13.51
1/21/2021 9:15:00 PM 1.72 35.096 0.066 6.45 1.24 13.51
1/21/2021 9:30:00 PM 1.75 35.15 0.066 6.49 1.2 13.51
1/21/2021 9:45:00 PM 1.77 35.186 0.066 6.49 1.16 13.5
1/21/2021 10:00:00 PM 1.79 35.222 0.066 6.49 1.19 13.48
1/21/2021 10:15:00 PM 1.81 35.258 0.066 6.5 1.19 13.47
1/21/2021 10:30:00 PM 1.82 35.276 0.066 6.49 1.2 13.47
1/21/2021 10:45:00 PM 1.84 35.312 0.066 6.49 1.24 13.47
1/21/2021 11:00:00 PM 1.86 35.348 0.066 6.5 1.17 13.46
1/21/2021 11:15:00 PM 1.87 35.366 0.066 6.49 1.21 13.45
1/21/2021 11:30:00 PM 1.88 35.384 0.066 6.46 1.22 13.44
1/21/2021 11:45:00 PM 1.9 35.42 0.066 6.5 1.24 13.43
1/22/2021 12:00:00 AM 1.91 35.438 0.066 6.48 1.23 13.42
1/22/2021 12:15:00 AM 1.93 35.474 0.066 6.48 1.27 13.42
1/22/2021 12:30:00 AM 1.94 35.492 0.066 6.49 1.32 13.42
1/22/2021 12:45:00 AM 1.94 35.492 0.066 6.49 1.25 13.41
1/22/2021 1:00:00 AM 1.96 35.528 0.066 6.49 1.21 13.41
1/22/2021 1:15:00 AM 1.98 35.564 0.066 6.49 1.19 13.4
1/22/2021 1:30:00 AM 1.98 35.564 0.066 6.49 1.21 13.4
1/22/2021 1:45:00 AM 1.99 35.582 0.066 6.49 1.16 13.4
1/22/2021 2:00:00 AM 2 35.6 0.066 6.49 1.21 13.39
1/22/2021 2:15:00 AM 1.99 35.582 0.066 6.45 1.19 13.4
1/22/2021 2:30:00 AM 2.01 35.618 0.066 6.49 1.17 13.39
1/22/2021 2:45:00 AM 2.01 35.618 0.066 6.49 1.19 13.39
1/22/2021 3:00:00 AM 2.01 35.618 0.066 6.49 1.28 13.39
1/22/2021 3:15:00 AM 2.01 35.618 0.066 6.48 1.56 13.38
1/22/2021 3:30:00 AM 2.01 35.618 0.066 6.49 1.44 13.39
1/22/2021 3:45:00 AM 2 35.6 0.066 6.49 1.3 13.39
1/22/2021 4:00:00 AM 2 35.6 0.066 6.49 1.25 13.39
1/22/2021 4:15:00 AM 2 35.6 0.066 6.44 1.17 13.4
1/22/2021 4:30:00 AM 2.01 35.618 0.066 6.49 1.18 13.39
1/22/2021 4:45:00 AM 2.01 35.618 0.066 6.47 1.17 13.4
1/22/2021 5:00:00 AM 2.01 35.618 0.066 6.49 1.16 13.39
1/22/2021 5:15:00 AM 2.02 35.636 0.066 6.49 1.17 13.39
1/22/2021 5:30:00 AM 2.02 35.636 0.066 6.48 1.18 13.39
1/22/2021 5:45:00 AM 2.02 35.636 0.066 6.48 1.17 13.39
1/22/2021 6:00:00 AM 2.01 35.618 0.066 6.43 1.2 13.4
1/22/2021 6:15:00 AM 2.02 35.636 0.066 6.48 1.21 13.39
1/22/2021 6:30:00 AM 2.01 35.618 0.066 6.47 2.35 13.39
1/22/2021 6:45:00 AM 2.01 35.618 0.066 6.48 1.42 13.39
1/22/2021 7:00:00 AM 2.01 35.618 0.066 6.48 1.63 13.39
1/22/2021 7:15:00 AM 2.01 35.618 0.066 6.48 1.32 13.4
1/22/2021 7:30:00 AM 2.01 35.618 0.066 6.47 1.2 13.4
1/22/2021 7:45:00 AM 2.02 35.636 0.066 6.47 1.19 13.4
1/22/2021 8:00:00 AM 2.03 35.654 0.066 6.48 1.23 13.42
1/22/2021 8:15:00 AM 2.04 35.672 0.066 6.48 1.15 13.44
1/22/2021 8:30:00 AM 2.05 35.69 0.066 6.49 1.19 13.45
1/22/2021 8:45:00 AM 2.07 35.726 0.066 6.49 1.21 13.46
1/22/2021 9:00:00 AM 2.08 35.744 0.066 6.49 1.17 13.48
1/22/2021 9:15:00 AM 2.11 35.798 0.066 6.5 1.13 13.49
1/22/2021 9:30:00 AM 2.14 35.852 0.066 6.5 1.2 13.51
1/22/2021 9:45:00 AM 2.21 35.978 0.066 6.5 1.16 13.52
1/22/2021 10:00:00 AM 2.24 36.032 0.066 6.5 1.24 13.52
1/22/2021 10:15:00 AM 2.32 36.176 0.066 6.5 1.26 13.52
1/22/2021 10:30:00 AM 2.35 36.23 0.066 6.51 1.21 13.5
1/22/2021 10:45:00 AM 2.43 36.374 0.066 6.51 1.15 13.48
1/22/2021 11:00:00 AM 2.47 36.446 0.066 6.51 1.13 13.46
1/22/2021 11:15:00 AM 2.49 36.482 0.066 6.51 1.16 13.44
1/22/2021 11:30:00 AM 2.48 36.464 0.066 6.49 1.14 13.43
1/22/2021 11:45:00 AM 2.51 36.518 0.066 6.5 1.13 13.41
1/22/2021 12:00:00 PM 2.53 36.554 0.066 6.51 1.14 13.41
1/22/2021 12:15:00 PM 2.53 36.554 0.066 6.48 1.17 13.4
1/22/2021 12:30:00 PM 2.52 36.536 0.066 6.5 1.12 13.39
1/22/2021 12:45:00 PM 2.53 36.554 0.066 6.5 1.2 13.38
1/22/2021 1:00:00 PM 2.52 36.536 0.066 6.51 1.11 13.38
1/22/2021 1:15:00 PM 2.55 36.59 0.066 6.51 1.07 13.38
1/22/2021 1:30:00 PM 2.58 36.644 0.066 6.5 1.11 13.39
1/22/2021 1:45:00 PM 2.61 36.698 0.066 6.51 1.11 13.4
1/22/2021 2:00:00 PM 2.56 36.608 0.066 6.45 1.16 13.39
1/22/2021 2:15:00 PM 2.57 36.626 0.066 6.52 1.15 13.38
1/22/2021 2:30:00 PM 2.56 36.608 0.066 6.51 1.12 13.37
1/22/2021 2:45:00 PM 2.55 36.59 0.066 6.51 1.14 13.37
1/22/2021 3:00:00 PM 2.52 36.536 0.066 6.45 1.1 13.38
1/22/2021 3:15:00 PM 2.54 36.572 0.066 6.51 1.12 13.38
1/22/2021 3:30:00 PM 2.54 36.572 0.066 6.51 1.09 13.38
1/22/2021 3:45:00 PM 2.53 36.554 0.066 6.51 1.14 13.39
1/22/2021 4:00:00 PM 2.51 36.518 0.066 6.5 1.12 13.37
1/22/2021 4:15:00 PM 2.49 36.482 0.066 6.45 1.15 13.38
1/22/2021 4:30:00 PM 2.48 36.464 0.066 6.5 1.13 13.36
1/22/2021 4:45:00 PM 2.45 36.41 0.066 6.5 1.12 13.37
1/22/2021 5:00:00 PM 2.4 36.32 0.066 6.44 1.15 13.38
1/22/2021 5:15:00 PM 2.37 36.266 0.066 6.48 1.12 13.37
1/22/2021 5:30:00 PM 2.33 36.194 0.066 6.49 1.15 13.38
1/22/2021 5:45:00 PM 2.3 36.14 0.067 6.48 1.15 13.39
1/22/2021 6:00:00 PM 2.26 36.068 0.067 6.48 1.15 13.4
1/22/2021 6:15:00 PM 2.24 36.032 0.067 6.47 1.15 13.4
1/22/2021 6:30:00 PM 2.2 35.96 0.067 6.46 1.14 13.42
1/22/2021 6:45:00 PM 2.16 35.888 0.067 6.46 1.19 13.43
1/22/2021 7:00:00 PM 2.13 35.834 0.067 6.46 1.13 13.44
1/22/2021 7:15:00 PM 2.09 35.762 0.067 6.46 1.16 13.44
1/22/2021 7:30:00 PM 2.06 35.708 0.067 6.46 1.16 13.45
1/22/2021 7:45:00 PM 2.02 35.636 0.067 6.46 1.14 13.46
1/22/2021 8:00:00 PM 1.98 35.564 0.067 6.46 1.14 13.47
1/22/2021 8:15:00 PM 1.96 35.528 0.067 6.46 1.14 13.49
1/22/2021 8:30:00 PM 1.93 35.474 0.067 6.46 1.16 13.5
1/22/2021 8:45:00 PM 1.9 35.42 0.067 6.46 1.13 13.52
1/22/2021 9:00:00 PM 1.87 35.366 0.067 6.47 1.17 13.53
1/22/2021 9:15:00 PM 1.84 35.312 0.067 6.46 1.15 13.56
1/22/2021 9:30:00 PM 1.82 35.276 0.067 6.47 1.12 13.57
1/22/2021 9:45:00 PM 1.8 35.24 0.067 6.47 1.16 13.58
1/22/2021 10:00:00 PM 1.78 35.204 0.067 6.47 1.13 13.59
1/22/2021 10:15:00 PM 1.75 35.15 0.067 6.47 1.13 13.6
1/22/2021 10:30:00 PM 1.73 35.114 0.067 6.47 1.15 13.61
1/22/2021 10:45:00 PM 1.71 35.078 0.067 6.46 1.13 13.63
1/22/2021 11:00:00 PM 1.7 35.06 0.067 6.46 1.13 13.63
1/22/2021 11:15:00 PM 1.66 34.988 0.067 6.46 1.15 13.63
1/22/2021 11:30:00 PM 1.62 34.916 0.067 6.46 1.15 13.64
1/22/2021 11:45:00 PM 1.6 34.88 0.067 6.45 1.1 13.65
1/23/2021 12:00:00 AM 1.57 34.826 0.067 6.45 1.14 13.66
1/23/2021 12:15:00 AM 1.55 34.79 0.067 6.46 1.12 13.66
1/23/2021 12:30:00 AM 1.51 34.718 0.067 6.46 1.13 13.67
1/23/2021 12:45:00 AM 1.46 34.628 0.067 6.37 1.11 13.7
1/23/2021 1:00:00 AM 1.44 34.592 0.067 6.45 1.14 13.69
1/23/2021 1:15:00 AM 1.41 34.538 0.067 6.45 1.13 13.71
1/23/2021 1:30:00 AM 1.38 34.484 0.067 6.44 1.2 13.71
1/23/2021 1:45:00 AM 1.34 34.412 0.067 6.39 1.18 13.74
1/23/2021 2:00:00 AM 1.31 34.358 0.067 6.44 1.13 13.75
1/23/2021 2:15:00 AM 1.29 34.322 0.067 6.43 1.14 13.76
1/23/2021 2:30:00 AM 1.25 34.25 0.067 6.42 1.1 13.78
1/23/2021 2:45:00 AM 1.23 34.214 0.067 6.41 1.12 13.8
1/23/2021 3:00:00 AM 1.2 34.16 0.067 6.41 1.18 13.81
1/23/2021 3:15:00 AM 1.18 34.124 0.067 6.4 1.13 13.82
1/23/2021 3:30:00 AM 1.15 34.07 0.067 6.4 1.18 13.83
1/23/2021 3:45:00 AM 1.11 33.998 0.067 6.35 1.16 13.85
1/23/2021 4:00:00 AM 1.1 33.98 0.067 6.39 1.16 13.85
1/23/2021 4:15:00 AM 1.08 33.944 0.067 6.39 1.15 13.85
1/23/2021 4:30:00 AM 1.05 33.89 0.067 6.38 1.16 13.86
1/23/2021 4:45:00 AM 1.03 33.854 0.067 6.39 1.14 13.86
1/23/2021 5:00:00 AM 1.01 33.818 0.067 6.38 1.17 13.87
1/23/2021 5:15:00 AM 0.96 33.728 0.067 6.32 1.12 13.89
1/23/2021 5:30:00 AM 0.94 33.692 0.067 6.38 1.24 13.89
1/23/2021 5:45:00 AM 0.92 33.656 0.067 6.37 1.2 13.9
1/23/2021 6:00:00 AM 0.9 33.62 0.067 6.37 1.26 13.92
1/23/2021 6:15:00 AM 0.88 33.584 0.067 6.38 1.19 13.94
1/23/2021 6:30:00 AM 0.86 33.548 0.067 6.38 1.16 13.95
1/23/2021 6:45:00 AM 0.85 33.53 0.067 6.38 1.14 13.96
1/23/2021 7:00:00 AM 0.84 33.512 0.067 6.39 1.18 13.97
1/23/2021 7:15:00 AM 0.81 33.458 0.067 6.4 1.17 13.99
1/23/2021 7:30:00 AM 0.79 33.422 0.067 6.41 1.22 13.99
1/23/2021 7:45:00 AM 0.77 33.386 0.067 6.41 1.18 14.02
1/23/2021 8:00:00 AM 0.77 33.386 0.067 6.41 1.19 14.03
1/23/2021 8:15:00 AM 0.78 33.404 0.067 6.42 1.19 14.06
1/23/2021 8:30:00 AM 0.77 33.386 0.067 6.37 1.19 14.09
1/23/2021 8:45:00 AM 0.79 33.422 0.066 6.43 1.16 14.11
1/23/2021 9:00:00 AM 0.81 33.458 0.066 6.42 1.19 14.11
1/23/2021 9:15:00 AM 0.82 33.476 0.066 6.43 1.17 14.11
1/23/2021 9:30:00 AM 0.83 33.494 0.066 6.45 1.19 14.12
1/23/2021 9:45:00 AM 0.86 33.548 0.066 6.45 1.19 14.12
1/23/2021 10:00:00 AM 0.9 33.62 0.066 6.46 1.2 14.12
1/23/2021 10:15:00 AM 0.93 33.674 0.066 6.46 1.17 14.13
1/23/2021 10:30:00 AM 0.95 33.71 0.066 6.43 1.16 14.13
1/23/2021 10:45:00 AM 0.98 33.764 0.066 6.47 1.18 14.11
1/23/2021 11:00:00 AM 1.01 33.818 0.066 6.47 1.13 14.11
1/23/2021 11:15:00 AM 1.05 33.89 0.066 6.48 1.12 14.11
1/23/2021 11:30:00 AM 1.09 33.962 0.066 6.48 1.17 14.1
1/23/2021 11:45:00 AM 1.1 33.98 0.066 6.48 1.18 14.1
1/23/2021 12:00:00 PM 1.11 33.998 0.066 6.48 1.18 14.09
1/23/2021 12:15:00 PM 1.13 34.034 0.066 6.48 1.14 14.1
1/23/2021 12:30:00 PM 1.13 34.034 0.066 6.48 1.17 14.09
1/23/2021 12:45:00 PM 1.13 34.034 0.066 6.48 1.13 14.09
1/23/2021 1:00:00 PM 1.13 34.034 0.066 6.47 1.12 14.09
1/23/2021 1:15:00 PM 1.13 34.034 0.066 6.48 1.15 14.08
1/23/2021 1:30:00 PM 1.15 34.07 0.066 6.48 1.14 14.08
1/23/2021 1:45:00 PM 1.15 34.07 0.066 6.48 1.16 14.08
1/23/2021 2:00:00 PM 1.16 34.088 0.066 6.49 1.11 14.08
1/23/2021 2:15:00 PM 1.16 34.088 0.066 6.46 1.14 14.08
1/23/2021 2:30:00 PM 1.18 34.124 0.066 6.49 1.18 14.07
1/23/2021 2:45:00 PM 1.21 34.178 0.066 6.48 1.16 14.07
1/23/2021 3:00:00 PM 1.21 34.178 0.066 6.49 1.23 14.06
1/23/2021 3:15:00 PM 1.21 34.178 0.067 6.48 1.24 14.05
1/23/2021 3:30:00 PM 1.21 34.178 0.067 6.48 1.14 14.05
1/23/2021 3:45:00 PM 1.2 34.16 0.067 6.48 1.11 14.04
1/23/2021 4:00:00 PM 1.19 34.142 0.067 6.45 1.19 14.04
1/23/2021 4:15:00 PM 1.17 34.106 0.067 6.48 1.16 14.04
1/23/2021 4:30:00 PM 1.16 34.088 0.067 6.47 1.13 14.03
1/23/2021 4:45:00 PM 1.13 34.034 0.067 6.47 1.14 14.02
1/23/2021 5:00:00 PM 1.11 33.998 0.067 6.47 1.15 14.01
1/23/2021 5:15:00 PM 1.08 33.944 0.067 6.47 1.15 14
1/23/2021 5:30:00 PM 1.05 33.89 0.067 6.46 1.15 13.99
1/23/2021 5:45:00 PM 1.03 33.854 0.067 6.46 1.16 13.98
1/23/2021 6:00:00 PM 1.01 33.818 0.067 6.45 1.11 13.99
1/23/2021 6:15:00 PM 0.98 33.764 0.067 6.44 1.15 13.99
1/23/2021 6:30:00 PM 0.96 33.728 0.067 6.43 1.15 14
1/23/2021 6:45:00 PM 0.93 33.674 0.067 6.42 1.18 14.01
1/23/2021 7:00:00 PM 0.91 33.638 0.067 6.43 1.16 14.01
1/23/2021 7:15:00 PM 0.9 33.62 0.067 6.43 1.16 14.02
1/23/2021 7:30:00 PM 0.87 33.566 0.067 6.38 1.16 14.04
1/23/2021 7:45:00 PM 0.88 33.584 0.067 6.42 1.12 14.03
1/23/2021 8:00:00 PM 0.85 33.53 0.067 6.43 1.18 14.04
1/23/2021 8:15:00 PM 0.84 33.512 0.067 6.39 1.16 14.05
1/23/2021 8:30:00 PM 0.84 33.512 0.067 6.43 1.17 14.05
1/23/2021 8:45:00 PM 0.84 33.512 0.067 6.43 1.18 14.05
1/23/2021 9:00:00 PM 0.84 33.512 0.067 6.43 1.15 14.05
1/23/2021 9:15:00 PM 0.83 33.494 0.067 6.43 1.16 14.06
1/23/2021 9:30:00 PM 0.81 33.458 0.067 6.43 1.17 14.07
1/23/2021 9:45:00 PM 0.79 33.422 0.067 6.38 1.15 14.08
1/23/2021 10:00:00 PM 0.81 33.458 0.067 6.43 1.14 14.08
1/23/2021 10:15:00 PM 0.8 33.44 0.067 6.43 1.14 14.08
1/23/2021 10:30:00 PM 0.79 33.422 0.067 6.44 1.17 14.08
1/23/2021 10:45:00 PM 0.79 33.422 0.067 6.44 1.16 14.09
1/23/2021 11:00:00 PM 0.79 33.422 0.067 6.44 1.14 14.09
1/23/2021 11:15:00 PM 0.78 33.404 0.067 6.44 1.14 14.1
1/23/2021 11:30:00 PM 0.76 33.368 0.067 6.39 1.17 14.11
1/23/2021 11:45:00 PM 0.77 33.386 0.067 6.44 1.18 14.1
1/24/2021 12:00:00 AM 0.76 33.368 0.067 6.43 1.14 14.1
1/24/2021 12:15:00 AM 0.74 33.332 0.067 6.44 1.15 14.11
1/24/2021 12:30:00 AM 0.74 33.332 0.067 6.44 1.15 14.11
1/24/2021 12:45:00 AM 0.74 33.332 0.067 6.41 1.17 14.11
1/24/2021 1:00:00 AM 0.74 33.332 0.067 6.43 1.17 14.11
1/24/2021 1:15:00 AM 0.72 33.296 0.067 6.41 1.18 14.11
1/24/2021 1:30:00 AM 0.71 33.278 0.067 6.42 1.2 14.13
1/24/2021 1:45:00 AM 0.72 33.296 0.067 6.42 1.25 14.12
1/24/2021 2:00:00 AM 0.72 33.296 0.067 6.4 1.16 14.12
1/24/2021 2:15:00 AM 0.74 33.332 0.067 6.44 1.1 14.11
1/24/2021 2:30:00 AM 0.74 33.332 0.068 6.44 1.12 14.11
1/24/2021 2:45:00 AM 0.74 33.332 0.068 6.44 1.08 14.12
1/24/2021 3:00:00 AM 0.75 33.35 0.068 6.45 1.12 14.11
1/24/2021 3:15:00 AM 0.75 33.35 0.068 6.45 1.15 14.12
1/24/2021 3:30:00 AM 0.73 33.314 0.068 6.41 1.14 14.13
1/24/2021 3:45:00 AM 0.74 33.332 0.068 6.46 1.15 14.13
1/24/2021 4:00:00 AM 0.74 33.332 0.068 6.46 1.19 14.15
1/24/2021 4:15:00 AM 0.74 33.332 0.067 6.47 1.28 14.14
1/24/2021 4:30:00 AM 0.74 33.332 0.068 6.42 1.12 14.15
1/24/2021 4:45:00 AM 0.74 33.332 0.068 6.47 1.18 14.13
1/24/2021 5:00:00 AM 0.72 33.296 0.067 6.46 1.14 14.16
1/24/2021 5:15:00 AM 0.73 33.314 0.067 6.47 1.22 14.16
1/24/2021 5:30:00 AM 0.71 33.278 0.067 6.41 1.15 14.19
1/24/2021 5:45:00 AM 0.73 33.314 0.067 6.46 1.14 14.17
1/24/2021 6:00:00 AM 0.77 33.386 0.068 6.45 1.15 14.11
1/24/2021 6:15:00 AM 0.76 33.368 0.068 6.46 1.1 14.13
1/24/2021 6:30:00 AM 0.77 33.386 0.068 6.46 1.11 14.12
1/24/2021 6:45:00 AM 0.78 33.404 0.068 6.45 1.15 14.09
1/24/2021 7:00:00 AM 0.77 33.386 0.068 6.45 1.13 14.1
1/24/2021 7:15:00 AM 0.78 33.404 0.068 6.45 1.12 14.1
1/24/2021 7:30:00 AM 0.74 33.332 0.068 6.47 1.17 14.17
1/24/2021 7:45:00 AM 0.74 33.332 0.067 6.47 1.13 14.18
1/24/2021 8:00:00 AM 0.77 33.386 0.068 6.45 1.11 14.12
1/24/2021 8:15:00 AM 0.78 33.404 0.068 6.45 1.12 14.12
1/24/2021 8:30:00 AM 0.77 33.386 0.068 6.46 1.1 14.17
1/24/2021 8:45:00 AM 0.77 33.386 0.067 6.48 1.12 14.21
1/24/2021 9:00:00 AM 0.79 33.422 0.067 6.46 1.1 14.21
1/24/2021 9:15:00 AM 0.8 33.44 0.067 6.48 1.09 14.21
1/24/2021 9:30:00 AM 0.82 33.476 0.067 6.48 1.08 14.22
1/24/2021 9:45:00 AM 0.89 33.602 0.068 6.43 1.14 14.17
1/24/2021 10:00:00 AM 1.09 33.962 0.072 6.33 1.06 13.67
1/24/2021 10:15:00 AM 1.23 34.214 0.075 6.35 1.06 13.37
1/24/2021 10:30:00 AM 1.16 34.088 0.075 6.37 1.03 13.43
1/24/2021 10:45:00 AM 1.15 34.07 0.077 6.37 1.06 13.27
1/24/2021 11:00:00 AM 1.48 34.664 0.085 6.3 0.99 12.65
1/24/2021 11:15:00 AM 1.64 34.952 0.082 6.29 1.03 12.99
1/24/2021 11:30:00 AM 1.41 34.538 0.08 6.37 1.07 13.17
1/24/2021 11:45:00 AM 1.12 34.016 0.071 6.39 1.12 13.77
1/24/2021 12:00:00 PM 0.9 33.62 0.067 6.48 1.24 14.07
1/24/2021 12:15:00 PM 0.85 33.53 0.065 6.5 1.21 14.13
1/24/2021 12:30:00 PM 0.81 33.458 0.064 6.52 1.22 14.16
1/24/2021 12:45:00 PM 0.79 33.422 0.064 6.53 1.47 14.17
1/24/2021 1:00:00 PM 0.78 33.404 0.063 6.54 1.57 14.18
1/24/2021 1:15:00 PM 0.77 33.386 0.063 6.52 1.87 14.17
1/24/2021 1:30:00 PM 0.76 33.368 0.063 6.41 1.45 14.17
1/24/2021 1:45:00 PM 0.79 33.422 0.063 6.45 1.64 14.13
1/24/2021 2:00:00 PM 0.78 33.404 0.063 6.47 1.59 14.11
1/24/2021 2:15:00 PM 0.78 33.404 0.064 6.47 1.51 14.1
1/24/2021 2:30:00 PM 0.79 33.422 0.064 6.47 1.53 14.09
1/24/2021 2:45:00 PM 0.81 33.458 0.065 6.49 1.88 14.09
1/24/2021 3:00:00 PM 0.81 33.458 0.065 6.49 1.6 14.08
1/24/2021 3:15:00 PM 0.83 33.494 0.066 6.5 1.42 14.07
1/24/2021 3:30:00 PM 0.85 33.53 0.066 6.48 1.45 14.07
1/24/2021 3:45:00 PM 0.87 33.566 0.067 6.5 1.39 14.06
1/24/2021 4:00:00 PM 0.88 33.584 0.067 6.48 1.35 14.07
1/24/2021 4:15:00 PM 0.89 33.602 0.067 6.49 1.36 14.06
1/24/2021 4:30:00 PM 0.9 33.62 0.068 6.49 1.33 14.06
1/24/2021 4:45:00 PM 0.91 33.638 0.068 6.49 1.28 14.05
1/24/2021 5:00:00 PM 0.91 33.638 0.068 6.48 1.3 14.04
1/24/2021 5:15:00 PM 0.91 33.638 0.068 6.49 1.36 14.02
1/24/2021 5:30:00 PM 0.92 33.656 0.069 6.48 1.34 14.01
1/24/2021 5:45:00 PM 0.92 33.656 0.069 6.47 1.3 14
1/24/2021 6:00:00 PM 0.92 33.656 0.069 6.46 1.29 13.99
1/24/2021 6:15:00 PM 0.92 33.656 0.069 6.45 1.28 13.98
1/24/2021 6:30:00 PM 0.92 33.656 0.07 6.45 1.28 13.99
1/24/2021 6:45:00 PM 0.92 33.656 0.07 6.42 1.29 13.98
1/24/2021 7:00:00 PM 0.92 33.656 0.07 6.42 1.3 13.98
1/24/2021 7:15:00 PM 0.93 33.674 0.07 6.44 1.24 13.97
1/24/2021 7:30:00 PM 0.92 33.656 0.07 6.41 1.28 13.98
1/24/2021 7:45:00 PM 0.93 33.674 0.071 6.44 1.21 13.98
1/24/2021 8:00:00 PM 0.93 33.674 0.071 6.43 1.22 13.97
1/24/2021 8:15:00 PM 0.94 33.692 0.071 6.43 1.19 13.97
1/24/2021 8:30:00 PM 0.93 33.674 0.071 6.41 1.23 13.97
1/24/2021 8:45:00 PM 0.94 33.692 0.07 6.43 1.22 13.97
1/24/2021 9:00:00 PM 0.95 33.71 0.07 6.44 1.21 13.96
1/24/2021 9:15:00 PM 0.95 33.71 0.07 6.44 1.24 13.96
1/24/2021 9:30:00 PM 0.95 33.71 0.07 6.44 1.24 13.96
1/24/2021 9:45:00 PM 0.95 33.71 0.07 6.4 1.23 13.97
1/24/2021 10:00:00 PM 0.96 33.728 0.07 6.45 1.24 13.95
1/24/2021 10:15:00 PM 0.96 33.728 0.069 6.45 1.24 13.95
1/24/2021 10:30:00 PM 0.96 33.728 0.069 6.45 1.24 13.96
1/24/2021 10:45:00 PM 0.96 33.728 0.069 6.46 1.28 13.95
1/24/2021 11:00:00 PM 0.96 33.728 0.069 6.46 1.22 13.95
1/24/2021 11:15:00 PM 0.97 33.746 0.069 6.45 1.2 13.95
1/24/2021 11:30:00 PM 0.96 33.728 0.069 6.44 1.2 13.96
1/24/2021 11:45:00 PM 0.97 33.746 0.068 6.46 1.32 13.95
1/25/2021 12:00:00 AM 0.97 33.746 0.068 6.46 1.31 13.95
1/25/2021 12:15:00 AM 0.96 33.728 0.068 6.46 1.24 13.95
1/25/2021 12:30:00 AM 0.96 33.728 0.068 6.44 1.26 13.95
1/25/2021 12:45:00 AM 0.96 33.728 0.068 6.46 1.23 13.95
1/25/2021 1:00:00 AM 0.96 33.728 0.068 6.46 1.23 13.95
1/25/2021 1:15:00 AM 0.97 33.746 0.068 6.46 1.2 13.94
1/25/2021 1:30:00 AM 0.96 33.728 0.068 6.46 1.23 13.94
1/25/2021 1:45:00 AM 0.96 33.728 0.068 6.46 1.16 13.95
1/25/2021 2:00:00 AM 0.96 33.728 0.068 6.46 1.17 13.94
1/25/2021 2:15:00 AM 0.94 33.692 0.068 6.45 1.18 13.95
1/25/2021 2:30:00 AM 0.93 33.674 0.068 6.45 1.21 13.95
1/25/2021 2:45:00 AM 0.93 33.674 0.068 6.46 1.22 13.95
1/25/2021 3:00:00 AM 0.93 33.674 0.068 6.46 1.23 13.95
1/25/2021 3:15:00 AM 0.93 33.674 0.068 6.46 1.23 13.96
1/25/2021 3:30:00 AM 0.92 33.656 0.068 6.44 1.19 13.96
1/25/2021 3:45:00 AM 0.93 33.674 0.068 6.46 1.22 13.95
1/25/2021 4:00:00 AM 0.92 33.656 0.068 6.42 1.16 13.96
1/25/2021 4:15:00 AM 0.93 33.674 0.068 6.46 1.15 13.96
1/25/2021 4:30:00 AM 0.93 33.674 0.068 6.46 1.17 13.95
1/25/2021 4:45:00 AM 0.93 33.674 0.068 6.46 1.15 13.96
1/25/2021 5:00:00 AM 0.93 33.674 0.068 6.46 1.2 13.96
1/25/2021 5:15:00 AM 0.93 33.674 0.068 6.47 1.2 13.96
1/25/2021 5:30:00 AM 0.93 33.674 0.068 6.46 1.28 13.96
1/25/2021 5:45:00 AM 0.93 33.674 0.068 6.47 1.24 13.96
1/25/2021 6:00:00 AM 0.93 33.674 0.068 6.47 1.32 13.96
1/25/2021 6:15:00 AM 0.93 33.674 0.068 6.47 1.23 13.96
1/25/2021 6:30:00 AM 0.93 33.674 0.068 6.47 1.23 13.96
1/25/2021 6:45:00 AM 0.93 33.674 0.068 6.48 1.2 13.95
1/25/2021 7:00:00 AM 0.93 33.674 0.068 6.45 1.23 13.96
1/25/2021 7:15:00 AM 0.93 33.674 0.068 6.44 1.2 13.96
1/25/2021 7:30:00 AM 0.93 33.674 0.068 6.46 1.16 13.96
1/25/2021 7:45:00 AM 0.93 33.674 0.068 6.47 1.16 13.97
1/25/2021 8:00:00 AM 0.94 33.692 0.068 6.47 1.11 13.98
1/25/2021 8:15:00 AM 0.96 33.728 0.068 6.48 1.19 14
1/25/2021 8:30:00 AM 0.97 33.746 0.068 6.49 1.16 14.02
1/25/2021 8:45:00 AM 0.98 33.764 0.068 6.44 1.14 14.04
1/25/2021 9:00:00 AM 1 33.8 0.068 6.48 1.17 14.05
1/25/2021 9:15:00 AM 1.03 33.854 0.068 6.49 1.13 14.04
1/25/2021 9:30:00 AM 1.06 33.908 0.068 6.5 1.14 14.07
1/25/2021 9:45:00 AM 1.08 33.944 0.068 6.49 1.14 14.06
1/25/2021 10:00:00 AM 1.14 34.052 0.068 6.49 1.13 14.08
1/25/2021 10:15:00 AM 1.19 34.142 0.068 6.5 1.1 14.07
1/25/2021 10:30:00 AM 1.24 34.232 0.068 6.51 1.14 14.06
1/25/2021 10:45:00 AM 1.3 34.34 0.068 6.51 1.12 14.03
1/25/2021 11:00:00 AM 1.43 34.574 0.068 6.51 1.11 14.01
1/25/2021 11:15:00 AM 1.47 34.646 0.068 6.5 1.16 13.99
1/25/2021 11:30:00 AM 1.55 34.79 0.068 6.5 1.15 13.97
1/25/2021 11:45:00 AM 1.58 34.844 0.068 6.5 1.11 13.95
1/25/2021 12:00:00 PM 1.66 34.988 0.068 6.51 1.1 13.94
1/25/2021 12:15:00 PM 1.7 35.06 0.068 6.51 1.12 13.9
1/25/2021 12:30:00 PM 1.78 35.204 0.068 6.51 1.11 13.87
1/25/2021 12:45:00 PM 1.85 35.33 0.068 6.52 1.1 13.85
1/25/2021 1:00:00 PM 1.89 35.402 0.068 6.51 1.12 13.82
1/25/2021 1:15:00 PM 1.96 35.528 0.068 6.52 1.1 13.79
1/25/2021 1:30:00 PM 1.98 35.564 0.068 6.51 1.1 13.76
1/25/2021 1:45:00 PM 2.02 35.636 0.068 6.52 1.12 13.74
1/25/2021 2:00:00 PM 2.05 35.69 0.068 6.51 1.15 13.72
1/25/2021 2:15:00 PM 2.09 35.762 0.068 6.51 1.13 13.72
1/25/2021 2:30:00 PM 2.1 35.78 0.068 6.47 1.13 13.72
1/25/2021 2:45:00 PM 2.1 35.78 0.068 6.52 1.09 13.7
1/25/2021 3:00:00 PM 2.12 35.816 0.068 6.52 1.12 13.69
1/25/2021 3:15:00 PM 2.12 35.816 0.068 6.52 1.15 13.69
1/25/2021 3:30:00 PM 2.13 35.834 0.068 6.51 1.14 13.68
1/25/2021 3:45:00 PM 2.12 35.816 0.068 6.51 1.13 13.67
1/25/2021 4:00:00 PM 2.11 35.798 0.068 6.52 1.16 13.66
1/25/2021 4:15:00 PM 2.1 35.78 0.068 6.51 1.16 13.64
1/25/2021 4:30:00 PM 2.07 35.726 0.068 6.51 1.16 13.64
1/25/2021 4:45:00 PM 2.05 35.69 0.068 6.5 1.17 13.63
1/25/2021 5:00:00 PM 2.02 35.636 0.068 6.5 1.16 13.62
1/25/2021 5:15:00 PM 1.99 35.582 0.068 6.49 1.15 13.61
1/25/2021 5:30:00 PM 1.96 35.528 0.068 6.49 1.19 13.6
1/25/2021 5:45:00 PM 1.93 35.474 0.068 6.48 1.18 13.6
1/25/2021 6:00:00 PM 1.91 35.438 0.068 6.48 1.21 13.61
1/25/2021 6:15:00 PM 1.88 35.384 0.068 6.47 1.22 13.6
1/25/2021 6:30:00 PM 1.86 35.348 0.068 6.47 1.19 13.62
1/25/2021 6:45:00 PM 1.84 35.312 0.068 6.49 1.18 13.62
1/25/2021 7:00:00 PM 1.81 35.258 0.068 6.46 1.19 13.62
1/25/2021 7:15:00 PM 1.79 35.222 0.068 6.47 1.19 13.64
1/25/2021 7:30:00 PM 1.77 35.186 0.068 6.48 1.19 13.64
1/25/2021 7:45:00 PM 1.76 35.168 0.068 6.47 1.18 13.65
1/25/2021 8:00:00 PM 1.74 35.132 0.068 6.48 1.19 13.65
1/25/2021 8:15:00 PM 1.73 35.114 0.068 6.48 1.15 13.66
1/25/2021 8:30:00 PM 1.73 35.114 0.068 6.48 1.17 13.66
1/25/2021 8:45:00 PM 1.72 35.096 0.068 6.48 1.16 13.67
1/25/2021 9:00:00 PM 1.71 35.078 0.068 6.48 1.16 13.67
1/25/2021 9:15:00 PM 1.7 35.06 0.068 6.49 1.16 13.67
1/25/2021 9:30:00 PM 1.69 35.042 0.068 6.49 1.15 13.68
1/25/2021 9:45:00 PM 1.69 35.042 0.068 6.49 1.16 13.68
1/25/2021 10:00:00 PM 1.69 35.042 0.068 6.49 1.16 13.68
1/25/2021 10:15:00 PM 1.68 35.024 0.068 6.48 1.17 13.68
1/25/2021 10:30:00 PM 1.68 35.024 0.068 6.49 1.13 13.68
1/25/2021 10:45:00 PM 1.67 35.006 0.068 6.49 1.16 13.68
1/25/2021 11:00:00 PM 1.67 35.006 0.068 6.45 1.17 13.68
1/25/2021 11:15:00 PM 1.68 35.024 0.068 6.49 1.16 13.68
1/25/2021 11:30:00 PM 1.67 35.006 0.068 6.47 1.15 13.68
1/25/2021 11:45:00 PM 1.66 34.988 0.068 6.49 1.14 13.68
1/26/2021 12:00:00 AM 1.65 34.97 0.068 6.49 1.14 13.68
1/26/2021 12:15:00 AM 1.64 34.952 0.068 6.5 1.15 13.67
1/26/2021 12:30:00 AM 1.63 34.934 0.068 6.45 1.14 13.68
1/26/2021 12:45:00 AM 1.62 34.916 0.068 6.47 1.15 13.68
1/26/2021 1:00:00 AM 1.61 34.898 0.068 6.48 1.16 13.68
1/26/2021 1:15:00 AM 1.59 34.862 0.068 6.48 1.14 13.67
1/26/2021 1:30:00 AM 1.59 34.862 0.068 6.48 1.16 13.67
1/26/2021 1:45:00 AM 1.58 34.844 0.068 6.46 1.12 13.68
1/26/2021 2:00:00 AM 1.6 34.88 0.068 6.49 1.13 13.68
1/26/2021 2:15:00 AM 1.61 34.898 0.068 6.49 1.15 13.68
1/26/2021 2:30:00 AM 1.61 34.898 0.068 6.48 1.15 13.68
1/26/2021 2:45:00 AM 1.61 34.898 0.068 6.49 1.15 13.67
1/26/2021 3:00:00 AM 1.61 34.898 0.068 6.49 1.14 13.67
1/26/2021 3:15:00 AM 1.61 34.898 0.068 6.49 1.16 13.66
1/26/2021 3:30:00 AM 1.61 34.898 0.068 6.47 1.15 13.66
1/26/2021 3:45:00 AM 1.61 34.898 0.068 6.48 1.15 13.66
1/26/2021 4:00:00 AM 1.6 34.88 0.068 6.45 1.14 13.66
1/26/2021 4:15:00 AM 1.61 34.898 0.068 6.49 1.12 13.65
1/26/2021 4:30:00 AM 1.6 34.88 0.068 6.45 1.09 13.66
1/26/2021 4:45:00 AM 1.61 34.898 0.068 6.49 1.15 13.63
1/26/2021 5:00:00 AM 1.62 34.916 0.068 6.49 1.16 13.64
1/26/2021 5:15:00 AM 1.62 34.916 0.068 6.49 1.17 13.64
1/26/2021 5:30:00 AM 1.61 34.898 0.068 6.5 1.12 13.64
1/26/2021 5:45:00 AM 1.62 34.916 0.068 6.49 1.13 13.63
1/26/2021 6:00:00 AM 1.61 34.898 0.068 6.5 1.11 13.64
1/26/2021 6:15:00 AM 1.6 34.88 0.068 6.45 1.12 13.64
1/26/2021 6:30:00 AM 1.61 34.898 0.068 6.49 1.16 13.63
1/26/2021 6:45:00 AM 1.61 34.898 0.068 6.5 1.15 13.63
1/26/2021 7:00:00 AM 1.61 34.898 0.068 6.5 1.18 13.63
1/26/2021 7:15:00 AM 1.61 34.898 0.068 6.49 1.17 13.62
1/26/2021 7:30:00 AM 1.61 34.898 0.068 6.48 1.12 13.62
1/26/2021 7:45:00 AM 1.61 34.898 0.068 6.49 1.16 13.63
1/26/2021 8:00:00 AM 1.6 34.88 0.068 6.49 1.18 13.63
1/26/2021 8:15:00 AM 1.61 34.898 0.068 6.49 1.14 13.64
1/26/2021 8:30:00 AM 1.49 34.682 0.068 6.49 1.2 13.61
1/26/2021 8:45:00 AM 1.47 34.646 0.068 6.47 1.17 13.63
1/26/2021 9:00:00 AM 1.5 34.7 0.068 6.51 1.18 13.66
1/26/2021 9:15:00 AM 1.42 34.556 0.067 6.5 1.23 13.66
1/26/2021 9:30:00 AM 1.47 34.646 0.067 6.48 1.18 13.68
1/26/2021 9:45:00 AM 1.46 34.628 0.067 6.48 1.19 13.69
1/26/2021 10:00:00 AM 1.46 34.628 0.067 6.49 1.18 13.7
1/26/2021 10:15:00 AM 1.48 34.664 0.067 6.45 1.18 13.72
1/26/2021 10:30:00 AM 1.52 34.736 0.067 6.49 1.18 13.71
1/26/2021 10:45:00 AM 1.55 34.79 0.067 6.49 1.18 13.72
1/26/2021 11:00:00 AM 1.57 34.826 0.067 6.46 1.21 13.72
1/26/2021 11:15:00 AM 1.59 34.862 0.067 6.49 1.15 13.72
1/26/2021 11:30:00 AM 1.6 34.88 0.067 6.5 1.16 13.72
1/26/2021 11:45:00 AM 1.61 34.898 0.067 6.49 1.2 13.72
1/26/2021 12:00:00 PM 1.55 34.79 0.067 6.5 1.18 13.69
1/26/2021 12:15:00 PM 1.57 34.826 0.067 6.46 1.17 13.7
1/26/2021 12:30:00 PM 1.62 34.916 0.067 6.5 1.18 13.7
1/26/2021 12:45:00 PM 1.65 34.97 0.067 6.5 1.15 13.71
1/26/2021 1:00:00 PM 1.67 35.006 0.067 6.5 1.16 13.7
1/26/2021 1:15:00 PM 1.7 35.06 0.067 6.5 1.16 13.69
1/26/2021 1:30:00 PM 1.73 35.114 0.067 6.51 1.17 13.69
1/26/2021 1:45:00 PM 1.76 35.168 0.067 6.47 1.15 13.68
1/26/2021 2:00:00 PM 1.79 35.222 0.067 6.51 1.17 13.67
1/26/2021 2:15:00 PM 1.81 35.258 0.067 6.51 1.14 13.66
1/26/2021 2:30:00 PM 1.82 35.276 0.067 6.51 1.15 13.64
1/26/2021 2:45:00 PM 1.85 35.33 0.067 6.5 1.15 13.63
1/26/2021 3:00:00 PM 1.86 35.348 0.067 6.5 1.13 13.61
1/26/2021 3:15:00 PM 1.87 35.366 0.067 6.5 1.17 13.59
1/26/2021 3:30:00 PM 1.89 35.402 0.067 6.5 1.18 13.58
1/26/2021 3:45:00 PM 1.9 35.42 0.067 6.5 1.15 13.57
1/26/2021 4:00:00 PM 1.92 35.456 0.067 6.5 1.18 13.56
1/26/2021 4:15:00 PM 1.93 35.474 0.067 6.48 1.19 13.55
1/26/2021 4:30:00 PM 1.95 35.51 0.067 6.49 1.25 13.54
1/26/2021 4:45:00 PM 1.96 35.528 0.067 6.46 1.18 13.53
1/26/2021 5:00:00 PM 1.97 35.546 0.067 6.48 1.17 13.51
1/26/2021 5:15:00 PM 1.98 35.564 0.068 6.48 1.16 13.5
1/26/2021 5:30:00 PM 1.99 35.582 0.068 6.49 1.21 13.49
1/26/2021 5:45:00 PM 1.99 35.582 0.068 6.49 1.16 13.47
1/26/2021 6:00:00 PM 1.99 35.582 0.068 6.48 1.17 13.46
1/26/2021 6:15:00 PM 2 35.6 0.068 6.48 1.32 13.46
1/26/2021 6:30:00 PM 2 35.6 0.068 6.48 1.17 13.46
1/26/2021 6:45:00 PM 2 35.6 0.068 6.48 1.19 13.46
1/26/2021 7:00:00 PM 2 35.6 0.068 6.48 1.15 13.46
1/26/2021 7:15:00 PM 2.01 35.618 0.068 6.46 1.19 13.45
1/26/2021 7:30:00 PM 2.01 35.618 0.068 6.47 1.19 13.45
1/26/2021 7:45:00 PM 2.01 35.618 0.068 6.49 1.15 13.46
1/26/2021 8:00:00 PM 2.01 35.618 0.068 6.48 1.17 13.46
1/26/2021 8:15:00 PM 2.02 35.636 0.068 6.48 1.18 13.46
1/26/2021 8:30:00 PM 2.01 35.618 0.068 6.44 1.17 13.46
1/26/2021 8:45:00 PM 2.03 35.654 0.068 6.48 1.16 13.46
1/26/2021 9:00:00 PM 2.03 35.654 0.068 6.48 1.15 13.45
1/26/2021 9:15:00 PM 2.04 35.672 0.068 6.45 1.16 13.46
1/26/2021 9:30:00 PM 2.06 35.708 0.068 6.49 1.18 13.46
1/26/2021 9:45:00 PM 2.06 35.708 0.068 6.49 1.17 13.46
1/26/2021 10:00:00 PM 2.07 35.726 0.068 6.49 1.18 13.46
1/26/2021 10:15:00 PM 2.06 35.708 0.068 6.44 1.16 13.47
1/26/2021 10:30:00 PM 2.08 35.744 0.068 6.49 1.14 13.45
1/26/2021 10:45:00 PM 2.08 35.744 0.068 6.49 1.16 13.46
1/26/2021 11:00:00 PM 2.08 35.744 0.068 6.49 1.17 13.46
1/26/2021 11:15:00 PM 2.09 35.762 0.068 6.49 1.17 13.46
1/26/2021 11:30:00 PM 2.08 35.744 0.068 6.44 1.18 13.46
1/26/2021 11:45:00 PM 2.09 35.762 0.068 6.49 1.16 13.46
1/27/2021 12:00:00 AM 2.09 35.762 0.068 6.49 1.15 13.46
1/27/2021 12:15:00 AM 2.09 35.762 0.068 6.48 1.17 13.47
1/27/2021 12:30:00 AM 2.09 35.762 0.068 6.49 1.16 13.46
1/27/2021 12:45:00 AM 2.09 35.762 0.068 6.49 1.16 13.46
1/27/2021 1:00:00 AM 2.07 35.726 0.068 6.46 1.16 13.47
1/27/2021 1:15:00 AM 2.08 35.744 0.068 6.49 1.16 13.47
1/27/2021 1:30:00 AM 2.08 35.744 0.068 6.49 1.17 13.47
1/27/2021 1:45:00 AM 2.07 35.726 0.068 6.49 1.16 13.48
1/27/2021 2:00:00 AM 2.07 35.726 0.068 6.48 1.15 13.48
1/27/2021 2:15:00 AM 2.06 35.708 0.069 6.48 1.16 13.49
1/27/2021 2:30:00 AM 2.06 35.708 0.069 6.48 1.17 13.49
1/27/2021 2:45:00 AM 2.04 35.672 0.069 6.48 1.12 13.5
1/27/2021 3:00:00 AM 2.04 35.672 0.069 6.48 1.13 13.5
1/27/2021 3:15:00 AM 2.04 35.672 0.069 6.47 1.15 13.51
1/27/2021 3:30:00 AM 2.03 35.654 0.069 6.47 1.16 13.51
1/27/2021 3:45:00 AM 2.02 35.636 0.069 6.47 1.27 13.51
1/27/2021 4:00:00 AM 2.01 35.618 0.069 6.49 1.16 13.52
1/27/2021 4:15:00 AM 2 35.6 0.069 6.48 1.2 13.53
1/27/2021 4:30:00 AM 1.99 35.582 0.069 6.49 1.14 13.53
1/27/2021 4:45:00 AM 1.98 35.564 0.069 6.49 1.11 13.54
1/27/2021 5:00:00 AM 1.97 35.546 0.069 6.49 1.15 13.54
1/27/2021 5:15:00 AM 1.96 35.528 0.069 6.49 1.15 13.55
1/27/2021 5:30:00 AM 1.94 35.492 0.069 6.49 1.15 13.55
1/27/2021 5:45:00 AM 1.92 35.456 0.069 6.44 1.16 13.57
1/27/2021 6:00:00 AM 1.92 35.456 0.069 6.49 1.16 13.57
1/27/2021 6:15:00 AM 1.91 35.438 0.069 6.48 1.14 13.59
1/27/2021 6:30:00 AM 1.89 35.402 0.069 6.48 1.13 13.59
1/27/2021 6:45:00 AM 1.88 35.384 0.069 6.48 1.14 13.6
1/27/2021 7:00:00 AM 1.87 35.366 0.069 6.49 1.16 13.62
1/27/2021 7:15:00 AM 1.85 35.33 0.069 6.48 1.16 13.62
1/27/2021 7:30:00 AM 1.83 35.294 0.069 6.44 1.27 13.63
1/27/2021 7:45:00 AM 1.82 35.276 0.069 6.48 1.28 13.64
1/27/2021 8:00:00 AM 1.81 35.258 0.069 6.5 1.23 13.66
1/27/2021 8:15:00 AM 1.79 35.222 0.069 6.49 1.23 13.68
1/27/2021 8:30:00 AM 1.79 35.222 0.069 6.49 1.25 13.7
1/27/2021 8:45:00 AM 1.79 35.222 0.069 6.5 1.16 13.72
1/27/2021 9:00:00 AM 1.79 35.222 0.069 6.5 1.17 13.74
1/27/2021 9:15:00 AM 1.78 35.204 0.069 6.48 1.11 13.76
1/27/2021 9:30:00 AM 1.79 35.222 0.069 6.52 1.11 13.76
1/27/2021 9:45:00 AM 1.79 35.222 0.069 6.51 1.13 13.78
1/27/2021 10:00:00 AM 1.8 35.24 0.069 6.52 1.11 13.79
1/27/2021 10:15:00 AM 1.81 35.258 0.069 6.51 1.11 13.8
1/27/2021 10:30:00 AM 1.84 35.312 0.069 6.52 1.09 13.79
1/27/2021 10:45:00 AM 1.88 35.384 0.069 6.52 1.1 13.8
1/27/2021 11:00:00 AM 1.9 35.42 0.069 6.5 1.11 13.79
1/27/2021 11:15:00 AM 1.93 35.474 0.069 6.52 1.1 13.79
1/27/2021 11:30:00 AM 1.93 35.474 0.069 6.49 1.11 13.79
1/27/2021 11:45:00 AM 1.95 35.51 0.069 6.53 1.1 13.78
1/27/2021 12:00:00 PM 1.97 35.546 0.069 6.49 1.11 13.78
1/27/2021 12:15:00 PM 1.99 35.582 0.069 6.52 1.12 13.77
1/27/2021 12:30:00 PM 2.02 35.636 0.069 6.5 1.08 13.77
1/27/2021 12:45:00 PM 2.06 35.708 0.069 6.53 1.15 13.76
1/27/2021 1:00:00 PM 2.08 35.744 0.069 6.53 1.07 13.75
1/27/2021 1:15:00 PM 2.1 35.78 0.069 6.53 1.07 13.74
1/27/2021 1:30:00 PM 2.08 35.744 0.069 6.48 1.11 13.74
1/27/2021 1:45:00 PM 2.08 35.744 0.069 6.52 1.15 13.73
1/27/2021 2:00:00 PM 2.07 35.726 0.069 6.52 1.18 13.72
1/27/2021 2:15:00 PM 2.07 35.726 0.069 6.52 1.1 13.72
1/27/2021 2:30:00 PM 2.06 35.708 0.069 6.52 1.09 13.71
1/27/2021 2:45:00 PM 2.06 35.708 0.069 6.52 1.1 13.71
1/27/2021 3:00:00 PM 2.06 35.708 0.069 6.51 1.11 13.71
1/27/2021 3:15:00 PM 2.06 35.708 0.069 6.49 1.17 13.72
1/27/2021 3:30:00 PM 2.05 35.69 0.069 6.5 1.18 13.71
1/27/2021 3:45:00 PM 2.03 35.654 0.069 6.5 1.12 13.7
1/27/2021 4:00:00 PM 2.01 35.618 0.069 6.49 1.14 13.7
1/27/2021 4:15:00 PM 1.99 35.582 0.069 6.49 1.14 13.69
1/27/2021 4:30:00 PM 1.97 35.546 0.069 6.5 1.1 13.68
1/27/2021 4:45:00 PM 1.95 35.51 0.069 6.5 1.11 13.68
1/27/2021 5:00:00 PM 1.93 35.474 0.069 6.5 1.15 13.67
1/27/2021 5:15:00 PM 1.89 35.402 0.069 6.43 1.09 13.68
1/27/2021 5:30:00 PM 1.87 35.366 0.069 6.47 1.11 13.68
1/27/2021 5:45:00 PM 1.83 35.294 0.069 6.47 1.15 13.68
1/27/2021 6:00:00 PM 1.78 35.204 0.069 6.46 1.12 13.69
1/27/2021 6:15:00 PM 1.75 35.15 0.069 6.47 1.11 13.7
1/27/2021 6:30:00 PM 1.71 35.078 0.069 6.46 1.11 13.7
1/27/2021 6:45:00 PM 1.68 35.024 0.069 6.46 1.11 13.72
1/27/2021 7:00:00 PM 1.64 34.952 0.069 6.46 1.13 13.73
1/27/2021 7:15:00 PM 1.59 34.862 0.069 6.47 1.12 13.73
1/27/2021 7:30:00 PM 1.54 34.772 0.069 6.44 1.12 13.74
1/27/2021 7:45:00 PM 1.51 34.718 0.069 6.46 1.15 13.74
1/27/2021 8:00:00 PM 1.47 34.646 0.069 6.46 1.13 13.76
1/27/2021 8:15:00 PM 1.45 34.61 0.069 6.45 1.13 13.77
1/27/2021 8:30:00 PM 1.43 34.574 0.069 6.44 1.13 13.79
1/27/2021 8:45:00 PM 1.41 34.538 0.069 6.46 1.12 13.8
1/27/2021 9:00:00 PM 1.37 34.466 0.069 6.48 1.11 13.81
1/27/2021 9:15:00 PM 1.33 34.394 0.069 6.46 1.11 13.83
1/27/2021 9:30:00 PM 1.3 34.34 0.069 6.46 1.13 13.84
1/27/2021 9:45:00 PM 1.27 34.286 0.069 6.45 1.12 13.86
1/27/2021 10:00:00 PM 1.23 34.214 0.069 6.45 1.14 13.87
1/27/2021 10:15:00 PM 1.19 34.142 0.069 6.45 1.13 13.89
1/27/2021 10:30:00 PM 1.15 34.07 0.069 6.45 1.14 13.9
1/27/2021 10:45:00 PM 1.11 33.998 0.069 6.42 1.15 13.92
1/27/2021 11:00:00 PM 1.08 33.944 0.069 6.45 1.13 13.92
1/27/2021 11:15:00 PM 1.06 33.908 0.069 6.44 1.13 13.92
1/27/2021 11:30:00 PM 1.03 33.854 0.069 6.42 1.13 13.94
1/27/2021 11:45:00 PM 0.99 33.782 0.069 6.44 1.12 13.95
1/28/2021 12:00:00 AM 0.95 33.71 0.069 6.43 1.13 13.95
1/28/2021 12:15:00 AM 0.92 33.656 0.069 6.44 1.14 13.97
1/28/2021 12:30:00 AM 0.89 33.602 0.069 6.43 1.15 13.97
1/28/2021 12:45:00 AM 0.85 33.53 0.069 6.43 1.15 13.99
1/28/2021 1:00:00 AM 0.81 33.458 0.069 6.4 1.13 14
1/28/2021 1:15:00 AM 0.78 33.404 0.069 6.44 1.14 14.03
1/28/2021 1:30:00 AM 0.75 33.35 0.069 6.41 1.16 14.03
1/28/2021 1:45:00 AM 0.73 33.314 0.069 6.41 1.14 14.05
1/28/2021 2:00:00 AM 0.72 33.296 0.069 6.4 1.13 14.06
1/28/2021 2:15:00 AM 0.73 33.314 0.069 6.41 1.15 14.06
1/28/2021 2:30:00 AM 0.72 33.296 0.069 6.4 1.3 14.08
1/28/2021 2:45:00 AM 0.73 33.314 0.069 6.4 1.15 14.09
1/28/2021 3:00:00 AM 0.73 33.314 0.069 6.41 1.16 14.1
1/28/2021 3:15:00 AM 0.73 33.314 0.07 6.43 1.16 14.09
1/28/2021 3:30:00 AM 0.73 33.314 0.07 6.44 1.13 14.11
1/28/2021 3:45:00 AM 0.74 33.332 0.07 6.42 1.12 14.11
1/28/2021 4:00:00 AM 0.75 33.35 0.069 6.45 1.13 14.11
1/28/2021 4:15:00 AM 0.75 33.35 0.069 6.45 1.11 14.1
1/28/2021 4:30:00 AM 0.74 33.332 0.069 6.42 1.14 14.1
1/28/2021 4:45:00 AM 0.76 33.368 0.069 6.46 1.08 14.09
1/28/2021 5:00:00 AM 0.75 33.35 0.069 6.41 1.12 14.09
1/28/2021 5:15:00 AM 0.75 33.35 0.069 6.46 1.12 14.1
1/28/2021 5:30:00 AM 0.74 33.332 0.069 6.43 1.09 14.1
1/28/2021 5:45:00 AM 0.75 33.35 0.069 6.47 1.15 14.09
1/28/2021 6:00:00 AM 0.74 33.332 0.069 6.44 1.14 14.1
1/28/2021 6:15:00 AM 0.75 33.35 0.069 6.46 1.08 14.1
1/28/2021 6:30:00 AM 0.75 33.35 0.069 6.47 1.12 14.1
1/28/2021 6:45:00 AM 0.75 33.35 0.068 6.45 1.14 14.11
1/28/2021 7:00:00 AM 0.75 33.35 0.069 6.45 1.1 14.1
1/28/2021 7:15:00 AM 0.75 33.35 0.069 6.45 1.12 14.11
1/28/2021 7:30:00 AM 0.75 33.35 0.069 6.45 1.13 14.11
1/28/2021 7:45:00 AM 0.75 33.35 0.069 6.45 1.13 14.11
1/28/2021 8:00:00 AM 0.75 33.35 0.069 6.46 1.12 14.14
1/28/2021 8:15:00 AM 0.74 33.332 0.069 6.46 1.1 14.16
1/28/2021 8:30:00 AM 0.75 33.35 0.069 6.47 1.13 14.18
1/28/2021 8:45:00 AM 0.74 33.332 0.069 6.48 1.15 14.21
1/28/2021 9:00:00 AM 0.75 33.35 0.069 6.48 1.11 14.23
1/28/2021 9:15:00 AM 0.75 33.35 0.069 6.49 1.14 14.22
1/28/2021 9:30:00 AM 0.76 33.368 0.069 6.49 1.13 14.24
1/28/2021 9:45:00 AM 0.76 33.368 0.068 6.5 1.1 14.24
1/28/2021 10:00:00 AM 0.76 33.368 0.069 6.46 1.1 14.24
1/28/2021 10:15:00 AM 0.77 33.386 0.069 6.51 1.12 14.24
1/28/2021 10:30:00 AM 0.77 33.386 0.068 6.51 1.16 14.25
1/28/2021 10:45:00 AM 0.77 33.386 0.068 6.51 1.09 14.25
1/28/2021 11:00:00 AM 0.78 33.404 0.068 6.51 1.08 14.25
1/28/2021 11:15:00 AM 0.78 33.404 0.069 6.51 1.05 14.24
1/28/2021 11:30:00 AM 0.78 33.404 0.069 6.52 1.1 14.26
1/28/2021 11:45:00 AM 0.79 33.422 0.069 6.52 1.12 14.24
1/28/2021 12:00:00 PM 0.77 33.386 0.069 6.52 1.2 14.26
1/28/2021 12:15:00 PM 0.79 33.422 0.068 6.43 1.28 14.27
1/28/2021 12:30:00 PM 0.8 33.44 0.068 6.48 1.17 14.27
1/28/2021 12:45:00 PM 0.78 33.404 0.069 6.5 1.21 14.26
1/28/2021 1:00:00 PM 0.79 33.422 0.069 6.51 1.26 14.25
1/28/2021 1:15:00 PM 0.78 33.404 0.069 6.47 1.18 14.23
1/28/2021 1:30:00 PM 0.76 33.368 0.069 6.44 1.19 14.23
1/28/2021 1:45:00 PM 0.79 33.422 0.07 6.47 1.18 14.21
1/28/2021 2:00:00 PM 0.79 33.422 0.07 6.47 1.15 14.19
1/28/2021 2:15:00 PM 0.77 33.386 0.07 6.46 1.17 14.19
1/28/2021 2:30:00 PM 0.76 33.368 0.071 6.45 1.2 14.18
1/28/2021 2:45:00 PM 0.75 33.35 0.071 6.46 1.22 14.19
1/28/2021 3:00:00 PM 0.73 33.314 0.071 6.45 1.21 14.2
1/28/2021 3:15:00 PM 0.71 33.278 0.071 6.44 1.2 14.21
1/28/2021 3:30:00 PM 0.71 33.278 0.071 6.43 1.19 14.21
1/28/2021 3:45:00 PM 0.71 33.278 0.071 6.43 1.2 14.22
1/28/2021 4:00:00 PM 0.71 33.278 0.072 6.42 1.23 14.24
1/28/2021 4:15:00 PM 0.72 33.296 0.072 6.4 1.18 14.26
1/28/2021 4:30:00 PM 0.72 33.296 0.072 6.43 1.19 14.27
1/28/2021 4:45:00 PM 0.72 33.296 0.072 6.42 1.21 14.28
1/28/2021 5:00:00 PM 0.71 33.278 0.072 6.43 1.19 14.28
1/28/2021 5:15:00 PM 0.72 33.296 0.072 6.42 1.17 14.27
1/28/2021 5:30:00 PM 0.72 33.296 0.072 6.43 1.2 14.26
1/28/2021 5:45:00 PM 0.72 33.296 0.073 6.42 1.19 14.25
1/28/2021 6:00:00 PM 0.72 33.296 0.073 6.41 1.18 14.25
1/28/2021 6:15:00 PM 0.72 33.296 0.073 6.42 1.19 14.24
1/28/2021 6:30:00 PM 0.72 33.296 0.073 6.42 1.18 14.24
1/28/2021 6:45:00 PM 0.7 33.26 0.073 6.36 1.2 14.25
1/28/2021 7:00:00 PM 0.72 33.296 0.073 6.43 1.2 14.23
1/28/2021 7:15:00 PM 0.71 33.278 0.073 6.42 1.15 14.23
1/28/2021 7:30:00 PM 0.72 33.296 0.073 6.43 1.17 14.23
1/28/2021 7:45:00 PM 0.71 33.278 0.073 6.42 1.17 14.23
1/28/2021 8:00:00 PM 0.72 33.296 0.073 6.44 1.16 14.22
1/28/2021 8:15:00 PM 0.72 33.296 0.073 6.44 1.14 14.22
1/28/2021 8:30:00 PM 0.72 33.296 0.073 6.44 1.17 14.21
1/28/2021 8:45:00 PM 0.72 33.296 0.073 6.44 1.15 14.21
1/28/2021 9:00:00 PM 0.72 33.296 0.073 6.44 1.14 14.21
1/28/2021 9:15:00 PM 0.72 33.296 0.073 6.44 1.12 14.21
1/28/2021 9:30:00 PM 0.72 33.296 0.073 6.43 1.13 14.21
1/28/2021 9:45:00 PM 0.72 33.296 0.073 6.44 1.13 14.2
1/28/2021 10:00:00 PM 0.72 33.296 0.072 6.44 1.14 14.2
1/28/2021 10:15:00 PM 0.71 33.278 0.072 6.42 1.13 14.2
1/28/2021 10:30:00 PM 0.71 33.278 0.072 6.44 1.15 14.21
1/28/2021 10:45:00 PM 0.7 33.26 0.072 6.4 1.14 14.21
1/28/2021 11:00:00 PM 0.71 33.278 0.072 6.44 1.16 14.21
1/28/2021 11:15:00 PM 0.71 33.278 0.072 6.43 1.14 14.22
1/28/2021 11:30:00 PM 0.71 33.278 0.072 6.44 1.15 14.2
1/28/2021 11:45:00 PM 0.71 33.278 0.072 6.44 1.15 14.21
1/29/2021 12:00:00 AM 0.7 33.26 0.072 6.39 1.13 14.22
1/29/2021 12:15:00 AM 0.71 33.278 0.072 6.44 1.14 14.2
1/29/2021 12:30:00 AM 0.71 33.278 0.072 6.46 1.09 14.2
1/29/2021 12:45:00 AM 0.72 33.296 0.073 6.44 1.14 14.19
1/29/2021 1:00:00 AM 0.71 33.278 0.072 6.44 1.12 14.2
1/29/2021 1:15:00 AM 0.71 33.278 0.072 6.43 1.14 14.2
1/29/2021 1:30:00 AM 0.71 33.278 0.072 6.44 1.1 14.19
1/29/2021 1:45:00 AM 0.72 33.296 0.072 6.44 1.11 14.18
1/29/2021 2:00:00 AM 0.71 33.278 0.072 6.44 1.17 14.19
1/29/2021 2:15:00 AM 0.71 33.278 0.072 6.45 1.19 14.18
1/29/2021 2:30:00 AM 0.71 33.278 0.072 6.44 1.17 14.18
1/29/2021 2:45:00 AM 0.71 33.278 0.072 6.44 1.14 14.18
1/29/2021 3:00:00 AM 0.7 33.26 0.072 6.4 1.16 14.18
1/29/2021 3:15:00 AM 0.71 33.278 0.072 6.43 1.12 14.17
1/29/2021 3:30:00 AM 0.71 33.278 0.072 6.43 1.15 14.18
1/29/2021 3:45:00 AM 0.71 33.278 0.072 6.44 1.15 14.18
1/29/2021 4:00:00 AM 0.71 33.278 0.072 6.43 1.15 14.18
1/29/2021 4:15:00 AM 0.71 33.278 0.072 6.44 1.15 14.18
1/29/2021 4:30:00 AM 0.71 33.278 0.072 6.45 1.15 14.18
1/29/2021 4:45:00 AM 0.71 33.278 0.072 6.45 1.14 14.18
1/29/2021 5:00:00 AM 0.71 33.278 0.072 6.45 1.13 14.18
1/29/2021 5:15:00 AM 0.71 33.278 0.072 6.44 1.14 14.18
1/29/2021 5:30:00 AM 0.71 33.278 0.072 6.44 1.12 14.19
1/29/2021 5:45:00 AM 0.71 33.278 0.072 6.44 1.13 14.18
1/29/2021 6:00:00 AM 0.71 33.278 0.072 6.44 1.11 14.18
1/29/2021 6:15:00 AM 0.71 33.278 0.072 6.44 1.12 14.19
1/29/2021 6:30:00 AM 0.71 33.278 0.072 6.44 1.12 14.19
1/29/2021 6:45:00 AM 0.71 33.278 0.072 6.44 1.1 14.19
1/29/2021 7:00:00 AM 0.71 33.278 0.072 6.45 1.13 14.18
1/29/2021 7:15:00 AM 0.71 33.278 0.072 6.44 1.12 14.18
1/29/2021 7:30:00 AM 0.71 33.278 0.072 6.44 1.11 14.19
1/29/2021 7:45:00 AM 0.71 33.278 0.072 6.44 1.13 14.18
1/29/2021 8:00:00 AM 0.71 33.278 0.072 6.44 1.14 14.19
1/29/2021 8:15:00 AM 0.71 33.278 0.072 6.41 1.13 14.21
1/29/2021 8:30:00 AM 0.72 33.296 0.072 6.45 1.09 14.22
1/29/2021 8:45:00 AM 0.72 33.296 0.072 6.45 1.13 14.23
1/29/2021 9:00:00 AM 0.72 33.296 0.072 6.46 1.14 14.25
1/29/2021 9:15:00 AM 0.72 33.296 0.072 6.45 1.16 14.26
1/29/2021 9:30:00 AM 0.72 33.296 0.072 6.47 1.17 14.26
1/29/2021 9:45:00 AM 0.71 33.278 0.071 6.43 1.23 14.28
1/29/2021 10:00:00 AM 0.71 33.278 0.07 6.51 1.21 14.28
1/29/2021 10:15:00 AM 0.72 33.296 0.07 6.5 1.23 14.28
1/29/2021 10:30:00 AM 0.71 33.278 0.072 6.53 1.22 14.28
1/29/2021 10:45:00 AM 0.72 33.296 0.072 6.54 1.62 14.28
1/29/2021 11:00:00 AM 0.72 33.296 0.072 6.54 1.21 14.28
1/29/2021 11:15:00 AM 0.72 33.296 0.072 6.48 1.29 14.28
1/29/2021 11:30:00 AM 0.73 33.314 0.072 6.45 1.31 14.26
1/29/2021 11:45:00 AM 0.73 33.314 0.072 6.46 1.33 14.27
1/29/2021 12:00:00 PM 0.73 33.314 0.072 6.46 1.29 14.26
1/29/2021 12:15:00 PM 0.72 33.296 0.072 6.43 1.26 14.26
1/29/2021 12:30:00 PM 0.73 33.314 0.072 6.46 1.25 14.25
1/29/2021 12:45:00 PM 0.72 33.296 0.072 6.43 1.27 14.25
1/29/2021 1:00:00 PM 0.73 33.314 0.071 6.46 1.23 14.24
1/29/2021 1:15:00 PM 0.73 33.314 0.071 6.47 1.19 14.24
1/29/2021 1:30:00 PM 0.74 33.332 0.071 6.47 1.3 14.23
1/29/2021 1:45:00 PM 0.74 33.332 0.071 6.47 1.34 14.23
1/29/2021 2:00:00 PM 0.74 33.332 0.072 6.48 1.3 14.23
1/29/2021 2:15:00 PM 0.74 33.332 0.072 6.5 1.25 14.22
1/29/2021 2:30:00 PM 0.73 33.314 0.072 6.5 1.25 14.23
1/29/2021 2:45:00 PM 0.74 33.332 0.072 6.53 1.27 14.22
1/29/2021 3:00:00 PM 0.74 33.332 0.072 6.53 1.23 14.22
1/29/2021 3:15:00 PM 0.73 33.314 0.072 6.49 1.31 14.22
1/29/2021 3:30:00 PM 0.73 33.314 0.073 6.5 1.26 14.22
1/29/2021 3:45:00 PM 0.74 33.332 0.073 6.49 1.23 14.23
1/29/2021 4:00:00 PM 0.73 33.314 0.073 6.51 1.28 14.23
1/29/2021 4:15:00 PM 0.72 33.296 0.074 6.5 1.22 14.23
1/29/2021 4:30:00 PM 0.71 33.278 0.074 6.45 1.22 14.24
1/29/2021 4:45:00 PM 0.71 33.278 0.074 6.48 1.19 14.22
1/29/2021 5:00:00 PM 0.7 33.26 0.074 6.44 1.2 14.21
1/29/2021 5:15:00 PM 0.71 33.278 0.074 6.47 1.17 14.2
1/29/2021 5:30:00 PM 0.71 33.278 0.075 6.46 1.19 14.2
1/29/2021 5:45:00 PM 0.71 33.278 0.075 6.45 1.15 14.19
1/29/2021 6:00:00 PM 0.71 33.278 0.075 6.44 1.16 14.18
1/29/2021 6:15:00 PM 0.71 33.278 0.075 6.45 1.16 14.18
1/29/2021 6:30:00 PM 0.71 33.278 0.075 6.46 1.13 14.17
1/29/2021 6:45:00 PM 0.71 33.278 0.075 6.46 1.14 14.17
1/29/2021 7:00:00 PM 0.71 33.278 0.075 6.46 1.12 14.16
1/29/2021 7:15:00 PM 0.7 33.26 0.075 6.43 1.12 14.16
1/29/2021 7:30:00 PM 0.71 33.278 0.075 6.46 1.11 14.15
1/29/2021 7:45:00 PM 0.71 33.278 0.075 6.45 1.1 14.16
1/29/2021 8:00:00 PM 0.71 33.278 0.075 6.46 1.16 14.16
1/29/2021 8:15:00 PM 0.71 33.278 0.075 6.47 1.15 14.16
1/29/2021 8:30:00 PM 0.71 33.278 0.075 6.47 1.12 14.15
1/29/2021 8:45:00 PM 0.72 33.296 0.075 6.48 1.13 14.16
1/29/2021 9:00:00 PM 0.72 33.296 0.075 6.48 1.08 14.14
1/29/2021 9:15:00 PM 0.72 33.296 0.074 6.49 1.12 14.14
1/29/2021 9:30:00 PM 0.72 33.296 0.074 6.48 1.09 14.14
1/29/2021 9:45:00 PM 0.72 33.296 0.074 6.48 1.09 14.14
1/29/2021 10:00:00 PM 0.72 33.296 0.074 6.48 1.11 14.14
1/29/2021 10:15:00 PM 0.72 33.296 0.074 6.48 1.12 14.14
1/29/2021 10:30:00 PM 0.71 33.278 0.074 6.46 1.08 14.15
1/29/2021 10:45:00 PM 0.72 33.296 0.074 6.48 1.12 14.14
1/29/2021 11:00:00 PM 0.72 33.296 0.074 6.47 1.07 14.15
1/29/2021 11:15:00 PM 0.72 33.296 0.074 6.47 1.09 14.15
1/29/2021 11:30:00 PM 0.71 33.278 0.074 6.48 1.06 14.15
1/29/2021 11:45:00 PM 0.71 33.278 0.074 6.48 1.12 14.16
1/30/2021 12:00:00 AM 0.71 33.278 0.074 6.49 1.09 14.17
1/30/2021 12:15:00 AM 0.7 33.26 0.074 6.45 1.08 14.18
1/30/2021 12:30:00 AM 0.71 33.278 0.074 6.5 1.1 14.16
1/30/2021 12:45:00 AM 0.7 33.26 0.074 6.48 1.06 14.17
1/30/2021 1:00:00 AM 0.71 33.278 0.074 6.5 1.08 14.18
1/30/2021 1:15:00 AM 0.71 33.278 0.074 6.5 1.1 14.17
1/30/2021 1:30:00 AM 0.71 33.278 0.074 6.51 1.09 14.17
1/30/2021 1:45:00 AM 0.7 33.26 0.074 6.47 1.06 14.18
1/30/2021 2:00:00 AM 0.71 33.278 0.074 6.51 1.07 14.17
1/30/2021 2:15:00 AM 0.71 33.278 0.074 6.51 1.07 14.18
1/30/2021 2:30:00 AM 0.7 33.26 0.074 6.47 1.06 14.18
1/30/2021 2:45:00 AM 0.71 33.278 0.074 6.5 1.08 14.18
1/30/2021 3:00:00 AM 0.71 33.278 0.074 6.51 1.09 14.17
1/30/2021 3:15:00 AM 0.71 33.278 0.074 6.51 1.05 14.18
1/30/2021 3:30:00 AM 0.71 33.278 0.074 6.5 1.07 14.18
1/30/2021 3:45:00 AM 0.71 33.278 0.074 6.51 1.08 14.18
1/30/2021 4:00:00 AM 0.7 33.26 0.074 6.48 1.05 14.18
1/30/2021 4:15:00 AM 0.71 33.278 0.074 6.51 1.06 14.17
1/30/2021 4:30:00 AM 0.71 33.278 0.074 6.51 1.09 14.18
1/30/2021 4:45:00 AM 0.7 33.26 0.074 6.47 1.05 14.19
1/30/2021 5:00:00 AM 0.71 33.278 0.074 6.51 1.06 14.17
1/30/2021 5:15:00 AM 0.71 33.278 0.074 6.51 1.07 14.17
1/30/2021 5:30:00 AM 0.71 33.278 0.074 6.49 1.06 14.18
1/30/2021 5:45:00 AM 0.71 33.278 0.074 6.51 1.07 14.18
1/30/2021 6:00:00 AM 0.71 33.278 0.074 6.49 1.04 14.18
1/30/2021 6:15:00 AM 0.71 33.278 0.074 6.51 1.02 14.18
1/30/2021 6:30:00 AM 0.71 33.278 0.074 6.51 1.04 14.18
1/30/2021 6:45:00 AM 0.71 33.278 0.074 6.5 1.06 14.18
1/30/2021 7:00:00 AM 0.71 33.278 0.074 6.51 1.07 14.17
1/30/2021 7:15:00 AM 0.7 33.26 0.074 6.47 1.03 14.19
1/30/2021 7:30:00 AM 0.71 33.278 0.074 6.51 1.05 14.19
1/30/2021 7:45:00 AM 0.71 33.278 0.074 6.51 1.05 14.2
1/30/2021 8:00:00 AM 0.71 33.278 0.074 6.52 1.04 14.22
1/30/2021 8:15:00 AM 0.71 33.278 0.074 6.52 1.03 14.24
1/30/2021 8:30:00 AM 0.71 33.278 0.074 6.53 1.06 14.26
1/30/2021 8:45:00 AM 0.72 33.296 0.074 6.52 1.08 14.27
1/30/2021 9:00:00 AM 0.73 33.314 0.074 6.54 1.16 14.29
1/30/2021 9:15:00 AM 0.73 33.314 0.074 6.54 1.04 14.29
1/30/2021 9:30:00 AM 0.73 33.314 0.074 6.54 1.07 14.3
1/30/2021 9:45:00 AM 0.74 33.332 0.074 6.54 1.06 14.31
1/30/2021 10:00:00 AM 0.77 33.386 0.074 6.55 1.09 14.3
1/30/2021 10:15:00 AM 0.75 33.35 0.074 6.5 1.05 14.31
1/30/2021 10:30:00 AM 0.76 33.368 0.074 6.55 1.05 14.3
1/30/2021 10:45:00 AM 0.78 33.404 0.074 6.52 1.1 14.3
1/30/2021 11:00:00 AM 0.8 33.44 0.073 6.56 1.1 14.29
1/30/2021 11:15:00 AM 0.79 33.422 0.073 6.51 1.14 14.29
1/30/2021 11:30:00 AM 0.83 33.494 0.073 6.51 1.18 14.28
1/30/2021 11:45:00 AM 0.83 33.494 0.073 6.53 1.14 14.27
1/30/2021 12:00:00 PM 0.84 33.512 0.073 6.5 1.07 14.27
1/30/2021 12:15:00 PM 0.86 33.548 0.073 6.53 1.06 14.25
1/30/2021 12:30:00 PM 0.86 33.548 0.073 6.53 1.25 14.24
1/30/2021 12:45:00 PM 0.85 33.53 0.073 6.52 1.15 14.23
1/30/2021 1:00:00 PM 0.83 33.494 0.072 6.51 1.13 14.22
1/30/2021 1:15:00 PM 0.83 33.494 0.072 6.53 1.16 14.21
1/30/2021 1:30:00 PM 0.82 33.476 0.072 6.53 1.16 14.2
1/30/2021 1:45:00 PM 0.82 33.476 0.072 6.52 1.16 14.19
1/30/2021 2:00:00 PM 0.81 33.458 0.072 6.53 1.17 14.2
1/30/2021 2:15:00 PM 0.8 33.44 0.072 6.53 1.14 14.19
1/30/2021 2:30:00 PM 0.79 33.422 0.072 6.53 1.11 14.2
1/30/2021 2:45:00 PM 0.78 33.404 0.072 6.53 1.14 14.19
1/30/2021 3:00:00 PM 0.76 33.368 0.072 6.53 1.15 14.19
1/30/2021 3:15:00 PM 0.75 33.35 0.072 6.53 1.12 14.19
1/30/2021 3:30:00 PM 0.74 33.332 0.073 6.53 1.17 14.18
1/30/2021 3:45:00 PM 0.74 33.332 0.073 6.52 1.2 14.19
1/30/2021 4:00:00 PM 0.74 33.332 0.073 6.53 1.18 14.19
1/30/2021 4:15:00 PM 0.73 33.314 0.073 6.52 1.14 14.2
1/30/2021 4:30:00 PM 0.72 33.296 0.073 6.48 1.26 14.2
1/30/2021 4:45:00 PM 0.73 33.314 0.073 6.51 1.18 14.19
1/30/2021 5:00:00 PM 0.72 33.296 0.073 6.51 1.18 14.19
1/30/2021 5:15:00 PM 0.72 33.296 0.073 6.52 1.15 14.18
1/30/2021 5:30:00 PM 0.72 33.296 0.073 6.51 1.13 14.18
1/30/2021 5:45:00 PM 0.72 33.296 0.073 6.51 1.17 14.17
1/30/2021 6:00:00 PM 0.72 33.296 0.073 6.5 1.12 14.17
1/30/2021 6:15:00 PM 0.71 33.278 0.073 6.5 1.13 14.17
1/30/2021 6:30:00 PM 0.7 33.26 0.073 6.47 1.13 14.17
1/30/2021 6:45:00 PM 0.71 33.278 0.073 6.5 1.12 14.16
1/30/2021 7:00:00 PM 0.71 33.278 0.073 6.5 1.18 14.17
1/30/2021 7:15:00 PM 0.7 33.26 0.073 6.47 1.11 14.17
1/30/2021 7:30:00 PM 0.71 33.278 0.073 6.5 1.12 14.17
1/30/2021 7:45:00 PM 0.71 33.278 0.073 6.5 1.14 14.17
1/30/2021 8:00:00 PM 0.71 33.278 0.073 6.5 1.08 14.17
1/30/2021 8:15:00 PM 0.7 33.26 0.073 6.46 1.1 14.18
1/30/2021 8:30:00 PM 0.7 33.26 0.073 6.49 1.12 14.18
1/30/2021 8:45:00 PM 0.7 33.26 0.074 6.49 1.12 14.18
1/30/2021 9:00:00 PM 0.7 33.26 0.074 6.48 1.1 14.18
1/30/2021 9:15:00 PM 0.7 33.26 0.074 6.48 1.11 14.18
1/30/2021 9:30:00 PM 0.7 33.26 0.074 6.48 1.15 14.18
1/30/2021 9:45:00 PM 0.69 33.242 0.074 6.43 1.16 14.18
1/30/2021 10:00:00 PM 0.71 33.278 0.074 6.47 1.16 14.18
1/30/2021 10:15:00 PM 0.71 33.278 0.074 6.47 1.11 14.17
1/30/2021 10:30:00 PM 0.71 33.278 0.074 6.47 1.12 14.17
1/30/2021 10:45:00 PM 0.71 33.278 0.074 6.46 1.09 14.17
1/30/2021 11:00:00 PM 0.71 33.278 0.074 6.46 1.08 14.16
1/30/2021 11:15:00 PM 0.71 33.278 0.074 6.46 1.12 14.16
1/30/2021 11:30:00 PM 0.71 33.278 0.074 6.46 1.11 14.16
1/30/2021 11:45:00 PM 0.71 33.278 0.074 6.46 1.08 14.16
1/31/2021 12:00:00 AM 0.7 33.26 0.074 6.45 1.12 14.15
1/31/2021 12:15:00 AM 0.71 33.278 0.074 6.46 1.1 14.15
1/31/2021 12:30:00 AM 0.71 33.278 0.074 6.45 1.06 14.15
1/31/2021 12:45:00 AM 0.71 33.278 0.074 6.46 1.15 14.15
1/31/2021 1:00:00 AM 0.71 33.278 0.074 6.46 1.08 14.14
1/31/2021 1:15:00 AM 0.71 33.278 0.074 6.46 1.08 14.15
1/31/2021 1:30:00 AM 0.71 33.278 0.074 6.46 1.08 14.14
1/31/2021 1:45:00 AM 0.7 33.26 0.074 6.44 1.14 14.14
1/31/2021 2:00:00 AM 0.71 33.278 0.074 6.46 1.08 14.14
1/31/2021 2:15:00 AM 0.71 33.278 0.074 6.46 1.07 14.14
1/31/2021 2:30:00 AM 0.71 33.278 0.074 6.46 1.08 14.14
1/31/2021 2:45:00 AM 0.71 33.278 0.073 6.46 1.08 14.14
1/31/2021 3:00:00 AM 0.71 33.278 0.073 6.47 1.09 14.14
1/31/2021 3:15:00 AM 0.71 33.278 0.073 6.47 1.09 14.14
1/31/2021 3:30:00 AM 0.71 33.278 0.073 6.46 1.09 14.13
1/31/2021 3:45:00 AM 0.71 33.278 0.073 6.46 1.1 14.13
1/31/2021 4:00:00 AM 0.71 33.278 0.073 6.47 1.08 14.14
1/31/2021 4:15:00 AM 0.71 33.278 0.073 6.47 1.1 14.13
1/31/2021 4:30:00 AM 0.71 33.278 0.073 6.46 1.1 14.13
1/31/2021 4:45:00 AM 0.71 33.278 0.073 6.45 1.1 14.12
1/31/2021 5:00:00 AM 0.71 33.278 0.073 6.46 1.09 14.12
1/31/2021 5:15:00 AM 0.72 33.296 0.073 6.46 1.09 14.11
1/31/2021 5:30:00 AM 0.71 33.278 0.073 6.46 1.08 14.12
1/31/2021 5:45:00 AM 0.72 33.296 0.073 6.46 1.07 14.12
1/31/2021 6:00:00 AM 0.71 33.278 0.073 6.45 1.12 14.11
1/31/2021 6:15:00 AM 0.72 33.296 0.073 6.48 1.11 14.11
1/31/2021 6:30:00 AM 0.72 33.296 0.073 6.48 1.08 14.11
1/31/2021 6:45:00 AM 0.72 33.296 0.073 6.48 1.09 14.1
1/31/2021 7:00:00 AM 0.71 33.278 0.073 6.46 1.05 14.11
1/31/2021 7:15:00 AM 0.72 33.296 0.073 6.48 1.11 14.1
1/31/2021 7:30:00 AM 0.72 33.296 0.073 6.48 1.11 14.1
1/31/2021 7:45:00 AM 0.71 33.278 0.073 6.49 1.23 14.1
1/31/2021 8:00:00 AM 0.71 33.278 0.073 6.48 1.11 14.1
1/31/2021 8:15:00 AM 0.71 33.278 0.073 6.49 1.09 14.11
1/31/2021 8:30:00 AM 0.72 33.296 0.073 6.5 1.05 14.12
1/31/2021 8:45:00 AM 0.71 33.278 0.073 6.45 1.07 14.12
1/31/2021 9:00:00 AM 0.72 33.296 0.073 6.5 1.06 14.13
1/31/2021 9:15:00 AM 0.72 33.296 0.073 6.5 1.06 14.14
1/31/2021 9:30:00 AM 0.73 33.314 0.073 6.5 1.07 14.15
1/31/2021 9:45:00 AM 0.73 33.314 0.073 6.47 1.1 14.17
1/31/2021 10:00:00 AM 0.74 33.332 0.073 6.51 1.12 14.18
1/31/2021 10:15:00 AM 0.75 33.35 0.073 6.51 1.12 14.2
1/31/2021 10:30:00 AM 0.75 33.35 0.073 6.51 1.07 14.19
1/31/2021 10:45:00 AM 0.75 33.35 0.073 6.51 1.1 14.2
1/31/2021 11:00:00 AM 0.77 33.386 0.073 6.52 1.12 14.2
1/31/2021 11:15:00 AM 0.77 33.386 0.073 6.51 1.12 14.2
1/31/2021 11:30:00 AM 0.76 33.368 0.072 6.52 1.1 14.19
1/31/2021 11:45:00 AM 0.75 33.35 0.072 6.47 1.16 14.19
1/31/2021 12:00:00 PM 0.75 33.35 0.072 6.45 1.19 14.18
1/31/2021 12:15:00 PM 0.75 33.35 0.072 6.47 1.19 14.18
1/31/2021 12:30:00 PM 0.75 33.35 0.072 6.47 1.19 14.17
1/31/2021 12:45:00 PM 0.74 33.332 0.072 6.44 1.16 14.17
1/31/2021 1:00:00 PM 0.75 33.35 0.072 6.47 1.19 14.16
1/31/2021 1:15:00 PM 0.76 33.368 0.072 6.49 1.19 14.16
1/31/2021 1:30:00 PM 0.76 33.368 0.072 6.52 1.19 14.14
1/31/2021 1:45:00 PM 0.76 33.368 0.072 6.52 1.17 14.14
1/31/2021 2:00:00 PM 0.76 33.368 0.072 6.52 1.22 14.13
1/31/2021 2:15:00 PM 0.76 33.368 0.071 6.5 1.22 14.11
1/31/2021 2:30:00 PM 0.75 33.35 0.072 6.45 1.17 14.12
1/31/2021 2:45:00 PM 0.75 33.35 0.072 6.48 1.19 14.1
1/31/2021 3:00:00 PM 0.75 33.35 0.072 6.49 1.19 14.1
1/31/2021 3:15:00 PM 0.75 33.35 0.072 6.5 1.17 14.08
1/31/2021 3:30:00 PM 0.75 33.35 0.072 6.5 1.19 14.08
1/31/2021 3:45:00 PM 0.74 33.332 0.072 6.51 1.19 14.07
1/31/2021 4:00:00 PM 0.74 33.332 0.072 6.51 1.16 14.06
1/31/2021 4:15:00 PM 0.74 33.332 0.072 6.51 1.17 14.05
1/31/2021 4:30:00 PM 0.73 33.314 0.072 6.51 1.16 14.05
1/31/2021 4:45:00 PM 0.73 33.314 0.072 6.51 1.15 14.04
1/31/2021 5:00:00 PM 0.72 33.296 0.072 6.51 1.13 14.03
1/31/2021 5:15:00 PM 0.73 33.314 0.072 6.51 1.15 14.03
1/31/2021 5:30:00 PM 0.73 33.314 0.072 6.52 1.13 14.01
1/31/2021 5:45:00 PM 0.72 33.296 0.072 6.51 1.13 14.01
1/31/2021 6:00:00 PM 0.72 33.296 0.072 6.51 1.14 14.01
1/31/2021 6:15:00 PM 0.72 33.296 0.072 6.51 1.19 14.01
1/31/2021 6:30:00 PM 0.72 33.296 0.072 6.51 1.16 14.01
1/31/2021 6:45:00 PM 0.71 33.278 0.072 6.48 1.13 14.02
1/31/2021 7:00:00 PM 0.72 33.296 0.072 6.51 1.13 14.01
1/31/2021 7:15:00 PM 0.72 33.296 0.072 6.51 1.17 14.02
1/31/2021 7:30:00 PM 0.72 33.296 0.072 6.51 1.13 14.02
1/31/2021 7:45:00 PM 0.71 33.278 0.072 6.47 1.21 14.03
1/31/2021 8:00:00 PM 0.72 33.296 0.072 6.51 1.16 14.02
1/31/2021 8:15:00 PM 0.72 33.296 0.072 6.51 1.14 14.02
1/31/2021 8:30:00 PM 0.71 33.278 0.072 6.48 1.2 14.04
1/31/2021 8:45:00 PM 0.72 33.296 0.072 6.51 1.18 14.03
1/31/2021 9:00:00 PM 0.71 33.278 0.072 6.48 1.21 14.04
1/31/2021 9:15:00 PM 0.72 33.296 0.072 6.51 1.14 14.04
1/31/2021 9:30:00 PM 0.72 33.296 0.072 6.51 1.14 14.03
1/31/2021 9:45:00 PM 0.71 33.278 0.072 6.5 1.23 14.04
1/31/2021 10:00:00 PM 0.72 33.296 0.072 6.51 1.09 14.04
1/31/2021 10:15:00 PM 0.72 33.296 0.072 6.51 1.14 14.04
1/31/2021 10:30:00 PM 0.71 33.278 0.072 6.49 1.22 14.05
1/31/2021 10:45:00 PM 0.71 33.278 0.072 6.48 1.21 14.04
1/31/2021 11:00:00 PM 0.72 33.296 0.072 6.5 1.27 14.03
1/31/2021 11:15:00 PM 0.71 33.278 0.072 6.49 1.15 14.03
1/31/2021 11:30:00 PM 0.72 33.296 0.072 6.5 1.16 14.03
1/31/2021 11:45:00 PM 0.72 33.296 0.072 6.5 1.14 14.02
2/1/2021 12:00:00 AM 0.71 33.278 0.072 6.5 1.12 14.03
2/1/2021 12:15:00 AM 0.72 33.296 0.072 6.5 1.1 14.02
2/1/2021 12:30:00 AM 0.72 33.296 0.072 6.51 1.33 14.02
2/1/2021 12:45:00 AM 0.72 33.296 0.072 6.51 1.08 14.03
2/1/2021 1:00:00 AM 0.72 33.296 0.072 6.51 1.1 14.02
2/1/2021 1:15:00 AM 0.72 33.296 0.072 6.51 1.1 14.02
2/1/2021 1:30:00 AM 0.72 33.296 0.072 6.51 1.1 14.02
2/1/2021 1:45:00 AM 0.72 33.296 0.072 6.5 1.09 14.02
2/1/2021 2:00:00 AM 0.71 33.278 0.072 6.49 1.09 14.01
2/1/2021 2:15:00 AM 0.72 33.296 0.072 6.52 1.07 14.01
2/1/2021 2:30:00 AM 0.72 33.296 0.072 6.51 1.13 14.01
2/1/2021 2:45:00 AM 0.72 33.296 0.072 6.5 1.09 14.01
2/1/2021 3:00:00 AM 0.71 33.278 0.072 6.49 1.62 14.01
2/1/2021 3:15:00 AM 0.72 33.296 0.072 6.5 1.12 14
2/1/2021 3:30:00 AM 0.71 33.278 0.072 6.49 1.11 14.01
2/1/2021 3:45:00 AM 0.72 33.296 0.072 6.51 1.11 14
2/1/2021 4:00:00 AM 0.72 33.296 0.072 6.51 1.14 14
2/1/2021 4:15:00 AM 0.71 33.278 0.072 6.48 1.12 14.01
2/1/2021 4:30:00 AM 0.72 33.296 0.072 6.51 1.09 14
2/1/2021 4:45:00 AM 0.72 33.296 0.072 6.49 1.09 14
2/1/2021 5:00:00 AM 0.72 33.296 0.072 6.51 1.09 14
2/1/2021 5:15:00 AM 0.72 33.296 0.072 6.5 1.15 14
2/1/2021 5:30:00 AM 0.72 33.296 0.072 6.49 1.08 14
2/1/2021 5:45:00 AM 0.72 33.296 0.071 6.51 1.07 14
2/1/2021 6:00:00 AM 0.71 33.278 0.071 6.51 1.07 14
2/1/2021 6:15:00 AM 0.72 33.296 0.071 6.52 1.09 14
2/1/2021 6:30:00 AM 0.72 33.296 0.072 6.51 1.04 14
2/1/2021 6:45:00 AM 0.72 33.296 0.072 6.51 1.08 14.01
2/1/2021 7:00:00 AM 0.72 33.296 0.072 6.52 1.11 14.01
2/1/2021 7:15:00 AM 0.72 33.296 0.072 6.51 1.15 14
2/1/2021 7:30:00 AM 0.71 33.278 0.072 6.47 1.07 14
2/1/2021 7:45:00 AM 0.72 33.296 0.072 6.52 1.08 14.01
2/1/2021 8:00:00 AM 0.72 33.296 0.072 6.52 1.1 14.02
2/1/2021 8:15:00 AM 0.72 33.296 0.072 6.48 1.15 14.03
2/1/2021 8:30:00 AM 0.73 33.314 0.071 6.52 1.12 14.03
2/1/2021 8:45:00 AM 0.72 33.296 0.071 6.5 1.08 14.04
2/1/2021 9:00:00 AM 0.73 33.314 0.071 6.53 1.1 14.05
2/1/2021 9:15:00 AM 0.73 33.314 0.071 6.53 1.07 14.06
2/1/2021 9:30:00 AM 0.73 33.314 0.071 6.53 1.12 14.07
2/1/2021 9:45:00 AM 0.73 33.314 0.071 6.51 1.06 14.08
2/1/2021 10:00:00 AM 0.74 33.332 0.071 6.53 1.09 14.07
2/1/2021 10:15:00 AM 0.74 33.332 0.071 6.54 1.08 14.07
2/1/2021 10:30:00 AM 0.74 33.332 0.071 6.54 1.07 14.08
2/1/2021 10:45:00 AM 0.74 33.332 0.071 6.55 1.11 14.07
2/1/2021 11:00:00 AM 0.74 33.332 0.071 6.53 1.07 14.07
2/1/2021 11:15:00 AM 0.75 33.35 0.071 6.54 1.11 14.06
2/1/2021 11:30:00 AM 0.75 33.35 0.071 6.55 1.08 14.06
2/1/2021 11:45:00 AM 0.75 33.35 0.071 6.54 1.09 14.06
2/1/2021 12:00:00 PM 0.76 33.368 0.071 6.55 1.08 14.05
2/1/2021 12:15:00 PM 0.76 33.368 0.071 6.55 1.06 14.04
2/1/2021 12:30:00 PM 0.76 33.368 0.071 6.55 1.12 14.02
2/1/2021 12:45:00 PM 0.76 33.368 0.071 6.54 1.12 14
2/1/2021 1:00:00 PM 0.76 33.368 0.071 6.52 1.09 13.99
2/1/2021 1:15:00 PM 0.77 33.386 0.071 6.55 1.11 13.97
2/1/2021 1:30:00 PM 0.77 33.386 0.071 6.53 1.08 13.97
2/1/2021 1:45:00 PM 0.79 33.422 0.071 6.55 1.12 13.95
2/1/2021 2:00:00 PM 0.79 33.422 0.071 6.52 1.1 13.95
2/1/2021 2:15:00 PM 0.81 33.458 0.071 6.55 1.11 13.94
2/1/2021 2:30:00 PM 0.81 33.458 0.071 6.55 1.12 13.93
2/1/2021 2:45:00 PM 0.81 33.458 0.071 6.54 1.15 13.92
2/1/2021 3:00:00 PM 0.81 33.458 0.071 6.54 1.13 13.9
2/1/2021 3:15:00 PM 0.81 33.458 0.071 6.55 1.18 13.89
2/1/2021 3:30:00 PM 0.81 33.458 0.071 6.54 1.13 13.88
2/1/2021 3:45:00 PM 0.82 33.476 0.071 6.54 1.11 13.87
2/1/2021 4:00:00 PM 0.82 33.476 0.071 6.55 1.1 13.85
2/1/2021 4:15:00 PM 0.82 33.476 0.071 6.54 1.15 13.85
2/1/2021 4:30:00 PM 0.82 33.476 0.071 6.54 1.13 13.84
2/1/2021 4:45:00 PM 0.82 33.476 0.071 6.55 1.14 13.84
2/1/2021 5:00:00 PM 0.82 33.476 0.071 6.54 1.1 13.84
2/1/2021 5:15:00 PM 0.82 33.476 0.071 6.54 1.12 13.84
2/1/2021 5:30:00 PM 0.82 33.476 0.071 6.54 1.13 13.83
2/1/2021 5:45:00 PM 0.81 33.458 0.071 6.53 1.09 13.83
2/1/2021 6:00:00 PM 0.81 33.458 0.071 6.53 1.14 13.83
2/1/2021 6:15:00 PM 0.8 33.44 0.071 6.53 1.13 13.83
2/1/2021 6:30:00 PM 0.8 33.44 0.071 6.5 1.16 13.83
2/1/2021 6:45:00 PM 0.8 33.44 0.071 6.51 1.25 13.83
2/1/2021 7:00:00 PM 0.79 33.422 0.071 6.49 1.13 13.84
2/1/2021 7:15:00 PM 0.79 33.422 0.071 6.47 1.09 13.85
2/1/2021 7:30:00 PM 0.78 33.404 0.071 6.47 1.11 13.86
2/1/2021 7:45:00 PM 0.77 33.386 0.071 6.46 1.13 13.88
2/1/2021 8:00:00 PM 0.77 33.386 0.071 6.47 1.15 13.89
2/1/2021 8:15:00 PM 0.77 33.386 0.071 6.48 1.12 13.9
2/1/2021 8:30:00 PM 0.77 33.386 0.071 6.48 1.12 13.9
2/1/2021 8:45:00 PM 0.76 33.368 0.071 6.46 1.1 13.9
2/1/2021 9:00:00 PM 0.75 33.35 0.071 6.48 1.12 13.91
2/1/2021 9:15:00 PM 0.75 33.35 0.071 6.47 1.17 13.91
2/1/2021 9:30:00 PM 0.74 33.332 0.071 6.48 1.15 13.92
2/1/2021 9:45:00 PM 0.74 33.332 0.071 6.48 1.11 13.93
2/1/2021 10:00:00 PM 0.74 33.332 0.071 6.48 1.13 13.94
2/1/2021 10:15:00 PM 0.74 33.332 0.071 6.47 1.12 13.95
2/1/2021 10:30:00 PM 0.73 33.314 0.071 6.47 1.15 13.95
2/1/2021 10:45:00 PM 0.73 33.314 0.071 6.47 1.13 13.95
2/1/2021 11:00:00 PM 0.73 33.314 0.071 6.48 1.12 13.96
2/1/2021 11:15:00 PM 0.73 33.314 0.071 6.47 1.11 13.96
2/1/2021 11:30:00 PM 0.73 33.314 0.071 6.48 1.16 13.96
2/1/2021 11:45:00 PM 0.73 33.314 0.071 6.48 1.12 13.96
2/2/2021 12:00:00 AM 0.73 33.314 0.071 6.49 1.1 13.95
2/2/2021 12:15:00 AM 0.73 33.314 0.071 6.49 1.1 13.96
2/2/2021 12:30:00 AM 0.73 33.314 0.071 6.48 1.11 13.95
2/2/2021 12:45:00 AM 0.73 33.314 0.071 6.47 1.11 13.95
2/2/2021 1:00:00 AM 0.74 33.332 0.071 6.5 1.12 13.94
2/2/2021 1:15:00 AM 0.74 33.332 0.071 6.49 1.12 13.94
2/2/2021 1:30:00 AM 0.74 33.332 0.071 6.49 1.16 13.94
2/2/2021 1:45:00 AM 0.74 33.332 0.071 6.5 1.12 13.93
2/2/2021 2:00:00 AM 0.74 33.332 0.071 6.5 1.08 13.93
2/2/2021 2:15:00 AM 0.74 33.332 0.071 6.5 1.09 13.93
2/2/2021 2:30:00 AM 0.74 33.332 0.071 6.5 1.09 13.92
2/2/2021 2:45:00 AM 0.74 33.332 0.071 6.5 1.1 13.93
2/2/2021 3:00:00 AM 0.74 33.332 0.071 6.5 1.11 13.92
2/2/2021 3:15:00 AM 0.73 33.314 0.071 6.47 1.08 13.92
2/2/2021 3:30:00 AM 0.74 33.332 0.071 6.51 1.12 13.92
2/2/2021 3:45:00 AM 0.74 33.332 0.071 6.51 1.08 13.92
2/2/2021 4:00:00 AM 0.73 33.314 0.071 6.48 1.09 13.92
2/2/2021 4:15:00 AM 0.73 33.314 0.071 6.51 1.1 13.92
2/2/2021 4:30:00 AM 0.73 33.314 0.071 6.51 1.12 13.92
2/2/2021 4:45:00 AM 0.72 33.296 0.071 6.5 1.09 13.92
2/2/2021 5:00:00 AM 0.72 33.296 0.071 6.52 1.18 13.93
2/2/2021 5:15:00 AM 0.71 33.278 0.071 6.49 1.17 13.93
2/2/2021 5:30:00 AM 0.71 33.278 0.071 6.52 1.1 13.94
2/2/2021 5:45:00 AM 0.71 33.278 0.071 6.52 1.13 13.95
2/2/2021 6:00:00 AM 0.71 33.278 0.071 6.51 1.17 13.95
2/2/2021 6:15:00 AM 0.71 33.278 0.071 6.51 1.1 13.95
2/2/2021 6:30:00 AM 0.71 33.278 0.071 6.53 1.14 13.96
2/2/2021 6:45:00 AM 0.71 33.278 0.071 6.52 1.1 13.96
2/2/2021 7:00:00 AM 0.71 33.278 0.071 6.52 1.12 13.96
2/2/2021 7:15:00 AM 0.7 33.26 0.071 6.49 1.13 13.97
2/2/2021 7:30:00 AM 0.71 33.278 0.071 6.53 1.1 13.97
2/2/2021 7:45:00 AM 0.7 33.26 0.071 6.51 1.12 13.97
2/2/2021 8:00:00 AM 0.71 33.278 0.071 6.53 1.1 13.97
2/2/2021 8:15:00 AM 0.71 33.278 0.071 6.53 1.12 13.98
2/2/2021 8:30:00 AM 0.72 33.296 0.071 6.54 1.09 13.98
2/2/2021 8:45:00 AM 0.71 33.278 0.071 6.49 1.09 13.99
2/2/2021 9:00:00 AM 0.72 33.296 0.071 6.55 1.14 14.01
2/2/2021 9:15:00 AM 0.72 33.296 0.071 6.51 1.08 14.02
2/2/2021 9:30:00 AM 0.72 33.296 0.071 6.55 1.11 14.02
2/2/2021 9:45:00 AM 0.72 33.296 0.071 6.52 1.08 14.02
2/2/2021 10:00:00 AM 0.73 33.314 0.071 6.55 1.12 14.02
2/2/2021 10:15:00 AM 0.73 33.314 0.071 6.55 1.11 14.01
2/2/2021 10:30:00 AM 0.74 33.332 0.071 6.55 1.14 14
2/2/2021 10:45:00 AM 0.74 33.332 0.071 6.55 1.12 14
2/2/2021 11:00:00 AM 0.75 33.35 0.071 6.55 1.11 14
2/2/2021 11:15:00 AM 0.77 33.386 0.071 6.56 1.1 13.99
2/2/2021 11:30:00 AM 0.78 33.404 0.071 6.55 1.1 13.97
2/2/2021 11:45:00 AM 0.79 33.422 0.071 6.55 1.12 13.95
2/2/2021 12:00:00 PM 0.81 33.458 0.071 6.55 1.06 13.93
2/2/2021 12:15:00 PM 0.82 33.476 0.071 6.54 1.07 13.92
2/2/2021 12:30:00 PM 0.83 33.494 0.071 6.55 1.08 13.9
2/2/2021 12:45:00 PM 0.84 33.512 0.071 6.55 1.07 13.88
2/2/2021 1:00:00 PM 0.83 33.494 0.071 6.54 1.1 13.87
2/2/2021 1:15:00 PM 0.83 33.494 0.071 6.53 1.09 13.86
2/2/2021 1:30:00 PM 0.83 33.494 0.071 6.51 1.12 13.85
2/2/2021 1:45:00 PM 0.84 33.512 0.071 6.55 1.1 13.83
2/2/2021 2:00:00 PM 0.84 33.512 0.071 6.54 1.06 13.83
2/2/2021 2:15:00 PM 0.84 33.512 0.071 6.55 1.05 13.83
2/2/2021 2:30:00 PM 0.83 33.494 0.071 6.55 1.1 13.85
2/2/2021 2:45:00 PM 0.83 33.494 0.071 6.55 1.08 13.84
2/2/2021 3:00:00 PM 0.83 33.494 0.071 6.55 1.05 13.85
2/2/2021 3:15:00 PM 0.82 33.476 0.071 6.55 1.07 13.85
2/2/2021 3:30:00 PM 0.82 33.476 0.071 6.55 1.06 13.86
2/2/2021 3:45:00 PM 0.82 33.476 0.071 6.55 1.07 13.85
2/2/2021 4:00:00 PM 0.81 33.458 0.071 6.55 1.05 13.86
2/2/2021 4:15:00 PM 0.8 33.44 0.071 6.55 1.09 13.87
2/2/2021 4:30:00 PM 0.8 33.44 0.071 6.55 1.08 13.86
2/2/2021 4:45:00 PM 0.8 33.44 0.071 6.55 1.09 13.87
2/2/2021 5:00:00 PM 0.79 33.422 0.071 6.55 1.1 13.87
2/2/2021 5:15:00 PM 0.78 33.404 0.071 6.54 1.09 13.87
2/2/2021 5:30:00 PM 0.77 33.386 0.071 6.54 1.09 13.87
2/2/2021 5:45:00 PM 0.77 33.386 0.071 6.51 1.1 13.86
2/2/2021 6:00:00 PM 0.77 33.386 0.071 6.53 1.1 13.85
2/2/2021 6:15:00 PM 0.76 33.368 0.071 6.53 1.15 13.86
2/2/2021 6:30:00 PM 0.76 33.368 0.071 6.52 1.1 13.85
2/2/2021 6:45:00 PM 0.75 33.35 0.071 6.52 1.13 13.86
2/2/2021 7:00:00 PM 0.74 33.332 0.071 6.52 1.08 13.86
2/2/2021 7:15:00 PM 0.74 33.332 0.071 6.49 1.08 13.86
2/2/2021 7:30:00 PM 0.74 33.332 0.071 6.51 1.09 13.87
2/2/2021 7:45:00 PM 0.74 33.332 0.071 6.49 1.09 13.87
2/2/2021 8:00:00 PM 0.74 33.332 0.071 6.51 1.11 13.86
2/2/2021 8:15:00 PM 0.74 33.332 0.071 6.51 1.11 13.87
2/2/2021 8:30:00 PM 0.74 33.332 0.071 6.5 1.13 13.87
2/2/2021 8:45:00 PM 0.73 33.314 0.071 6.5 1.13 13.87
2/2/2021 9:00:00 PM 0.74 33.332 0.071 6.51 1.11 13.88
2/2/2021 9:15:00 PM 0.74 33.332 0.071 6.51 1.1 13.86
2/2/2021 9:30:00 PM 0.74 33.332 0.071 6.52 1.12 13.87
2/2/2021 9:45:00 PM 0.74 33.332 0.071 6.51 1.07 13.87
2/2/2021 10:00:00 PM 0.74 33.332 0.071 6.51 1.04 13.87
2/2/2021 10:15:00 PM 0.73 33.314 0.072 6.51 1.09 13.86
2/2/2021 10:30:00 PM 0.74 33.332 0.071 6.51 1.07 13.86
2/2/2021 10:45:00 PM 0.74 33.332 0.071 6.52 1.09 13.87
2/2/2021 11:00:00 PM 0.74 33.332 0.071 6.52 1.1 13.86
2/2/2021 11:15:00 PM 0.75 33.35 0.071 6.52 1.1 13.86
2/2/2021 11:30:00 PM 0.75 33.35 0.071 6.52 1.1 13.85
2/2/2021 11:45:00 PM 0.75 33.35 0.071 6.49 1.08 13.86
2/3/2021 12:00:00 AM 0.76 33.368 0.071 6.52 1.1 13.85
2/3/2021 12:15:00 AM 0.76 33.368 0.071 6.52 1.09 13.84
2/3/2021 12:30:00 AM 0.77 33.386 0.071 6.51 1.1 13.83
2/3/2021 12:45:00 AM 0.77 33.386 0.071 6.52 1.12 13.84
2/3/2021 1:00:00 AM 0.77 33.386 0.071 6.51 1.1 13.83
2/3/2021 1:15:00 AM 0.77 33.386 0.072 6.48 1.1 13.84
2/3/2021 1:30:00 AM 0.78 33.404 0.072 6.52 1.11 13.83
2/3/2021 1:45:00 AM 0.77 33.386 0.072 6.5 1.1 13.82
2/3/2021 2:00:00 AM 0.78 33.404 0.072 6.52 1.13 13.82
2/3/2021 2:15:00 AM 0.78 33.404 0.072 6.51 1.08 13.82
2/3/2021 2:30:00 AM 0.78 33.404 0.072 6.51 1.17 13.82
2/3/2021 2:45:00 AM 0.77 33.386 0.072 6.51 1.14 13.82
2/3/2021 3:00:00 AM 0.77 33.386 0.071 6.5 1.13 13.83
2/3/2021 3:15:00 AM 0.77 33.386 0.071 6.51 1.1 13.82
2/3/2021 3:30:00 AM 0.78 33.404 0.072 6.51 1.11 13.82
2/3/2021 3:45:00 AM 0.77 33.386 0.072 6.47 1.1 13.83
2/3/2021 4:00:00 AM 0.78 33.404 0.072 6.52 1.14 13.82
2/3/2021 4:15:00 AM 0.78 33.404 0.071 6.52 1.13 13.83
2/3/2021 4:30:00 AM 0.77 33.386 0.072 6.49 1.14 13.82
2/3/2021 4:45:00 AM 0.77 33.386 0.071 6.5 1.1 13.82
2/3/2021 5:00:00 AM 0.77 33.386 0.071 6.51 1.13 13.83
2/3/2021 5:15:00 AM 0.78 33.404 0.072 6.52 1.11 13.83
2/3/2021 5:30:00 AM 0.77 33.386 0.071 6.52 1.13 13.83
2/3/2021 5:45:00 AM 0.77 33.386 0.071 6.52 1.12 13.83
2/3/2021 6:00:00 AM 0.77 33.386 0.071 6.52 1.12 13.83
2/3/2021 6:15:00 AM 0.77 33.386 0.071 6.51 1.11 13.84
2/3/2021 6:30:00 AM 0.77 33.386 0.072 6.5 1.09 13.83
2/3/2021 6:45:00 AM 0.76 33.368 0.072 6.5 1.1 13.85
2/3/2021 7:00:00 AM 0.75 33.35 0.071 6.5 1.11 13.85
2/3/2021 7:15:00 AM 0.75 33.35 0.072 6.51 1.1 13.85
2/3/2021 7:30:00 AM 0.75 33.35 0.072 6.52 1.12 13.86
2/3/2021 7:45:00 AM 0.74 33.332 0.072 6.49 1.13 13.86
2/3/2021 8:00:00 AM 0.75 33.35 0.072 6.52 1.1 13.87
2/3/2021 8:15:00 AM 0.74 33.332 0.072 6.5 1.1 13.89
2/3/2021 8:30:00 AM 0.76 33.368 0.072 6.52 1.12 13.89
2/3/2021 8:45:00 AM 0.76 33.368 0.072 6.51 1.08 13.9
2/3/2021 9:00:00 AM 0.76 33.368 0.072 6.52 1.09 13.92
2/3/2021 9:15:00 AM 0.77 33.386 0.072 6.51 1.07 13.92
2/3/2021 9:30:00 AM 0.78 33.404 0.072 6.52 1.1 13.93
2/3/2021 9:45:00 AM 0.79 33.422 0.071 6.54 1.06 13.95
2/3/2021 10:00:00 AM 0.82 33.476 0.071 6.53 1.13 13.94
2/3/2021 10:15:00 AM 0.85 33.53 0.071 6.54 1.08 13.94
2/3/2021 10:30:00 AM 0.88 33.584 0.071 6.53 1.08 13.93
2/3/2021 10:45:00 AM 0.91 33.638 0.071 6.52 1.08 13.91
2/3/2021 11:00:00 AM 0.95 33.71 0.071 6.53 1.08 13.9
2/3/2021 11:15:00 AM 0.99 33.782 0.071 6.54 1.1 13.89
2/3/2021 11:30:00 AM 1.03 33.854 0.071 6.54 1.09 13.87
2/3/2021 11:45:00 AM 1.11 33.998 0.071 6.53 1.08 13.86
2/3/2021 12:00:00 PM 1.14 34.052 0.071 6.5 1.05 13.86
2/3/2021 12:15:00 PM 1.15 34.07 0.071 6.53 1.07 13.83
2/3/2021 12:30:00 PM 1.19 34.142 0.071 6.53 1.05 13.8
2/3/2021 12:45:00 PM 1.19 34.142 0.071 6.53 1.07 13.78
2/3/2021 1:00:00 PM 1.2 34.16 0.071 6.53 1.09 13.75
2/3/2021 1:15:00 PM 1.23 34.214 0.071 6.53 1.07 13.72
2/3/2021 1:30:00 PM 1.24 34.232 0.071 6.53 1.07 13.7
2/3/2021 1:45:00 PM 1.28 34.304 0.071 6.53 1.06 13.7
2/3/2021 2:00:00 PM 1.28 34.304 0.071 6.53 1.1 13.69
2/3/2021 2:15:00 PM 1.23 34.214 0.071 6.51 1.1 13.69
2/3/2021 2:30:00 PM 1.25 34.25 0.071 6.53 1.11 13.68
2/3/2021 2:45:00 PM 1.24 34.232 0.071 6.53 1.07 13.7
2/3/2021 3:00:00 PM 1.2 34.16 0.071 6.51 1.09 13.7
2/3/2021 3:15:00 PM 1.19 34.142 0.071 6.53 1.08 13.71
2/3/2021 3:30:00 PM 1.19 34.142 0.071 6.53 1.11 13.71
2/3/2021 3:45:00 PM 1.19 34.142 0.071 6.53 1.07 13.71
2/3/2021 4:00:00 PM 1.16 34.088 0.071 6.52 1.09 13.7
2/3/2021 4:15:00 PM 1.18 34.124 0.071 6.52 1.11 13.71
2/3/2021 4:30:00 PM 1.17 34.106 0.071 6.52 1.1 13.73
2/3/2021 4:45:00 PM 1.16 34.088 0.071 6.52 1.12 13.73
2/3/2021 5:00:00 PM 1.13 34.034 0.071 6.49 1.14 13.74
2/3/2021 5:15:00 PM 1.11 33.998 0.071 6.52 1.19 13.74
2/3/2021 5:30:00 PM 1.09 33.962 0.071 6.52 1.22 13.75
2/3/2021 5:45:00 PM 1.07 33.926 0.071 6.51 1.22 13.74
2/3/2021 6:00:00 PM 1.04 33.872 0.071 6.51 1.3 13.75
2/3/2021 6:15:00 PM 1.02 33.836 0.071 6.5 1.28 13.76
2/3/2021 6:30:00 PM 0.98 33.764 0.071 6.5 1.27 13.76
2/3/2021 6:45:00 PM 0.94 33.692 0.071 6.46 1.27 13.79
2/3/2021 7:00:00 PM 0.93 33.674 0.071 6.5 1.24 13.8
2/3/2021 7:15:00 PM 0.89 33.602 0.071 6.5 1.22 13.8
2/3/2021 7:30:00 PM 0.88 33.584 0.071 6.5 1.21 13.83
2/3/2021 7:45:00 PM 0.85 33.53 0.071 6.49 1.19 13.85
2/3/2021 8:00:00 PM 0.83 33.494 0.071 6.5 1.18 13.86
2/3/2021 8:15:00 PM 0.8 33.44 0.071 6.5 1.16 13.88
2/3/2021 8:30:00 PM 0.76 33.368 0.071 6.47 1.18 13.91
2/3/2021 8:45:00 PM 0.74 33.332 0.071 6.5 1.1 13.93
2/3/2021 9:00:00 PM 0.72 33.296 0.071 6.5 1.14 13.94
2/3/2021 9:15:00 PM 0.71 33.278 0.071 6.5 1.18 13.94
2/3/2021 9:30:00 PM 0.69 33.242 0.071 6.48 1.16 13.97
2/3/2021 9:45:00 PM 0.69 33.242 0.071 6.48 1.14 13.98
2/3/2021 10:00:00 PM 0.7 33.26 0.072 6.5 1.17 14
2/3/2021 10:15:00 PM 0.7 33.26 0.072 6.5 1.18 14.01
2/3/2021 10:30:00 PM 0.7 33.26 0.072 6.5 1.23 14.02
2/3/2021 10:45:00 PM 0.7 33.26 0.071 6.5 1.22 14.02
2/3/2021 11:00:00 PM 0.7 33.26 0.072 6.5 1.21 14.03
2/3/2021 11:15:00 PM 0.7 33.26 0.071 6.49 1.25 14.04
2/3/2021 11:30:00 PM 0.7 33.26 0.071 6.5 1.26 14.04
2/3/2021 11:45:00 PM 0.7 33.26 0.071 6.5 1.34 14.04
2/4/2021 12:00:00 AM 0.7 33.26 0.071 6.5 1.37 14.04
2/4/2021 12:15:00 AM 0.7 33.26 0.071 6.5 1.39 14.05
2/4/2021 12:30:00 AM 0.7 33.26 0.071 6.5 1.43 14.05
2/4/2021 12:45:00 AM 0.7 33.26 0.071 6.5 1.51 14.06
2/4/2021 1:00:00 AM 0.7 33.26 0.071 6.5 1.52 14.06
2/4/2021 1:15:00 AM 0.7 33.26 0.071 6.5 1.58 14.06
2/4/2021 1:30:00 AM 0.7 33.26 0.071 6.5 1.64 14.06
2/4/2021 1:45:00 AM 0.7 33.26 0.071 6.5 1.69 14.06
2/4/2021 2:00:00 AM 0.7 33.26 0.071 6.5 1.77 14.06
2/4/2021 2:15:00 AM 0.7 33.26 0.071 6.5 1.79 14.06
2/4/2021 2:30:00 AM 0.7 33.26 0.071 6.49 1.82 14.07
2/4/2021 2:45:00 AM 0.7 33.26 0.071 6.5 1.88 14.07
2/4/2021 3:00:00 AM 0.7 33.26 0.071 6.49 1.94 14.06
2/4/2021 3:15:00 AM 0.7 33.26 0.071 6.49 1.97 14.07
2/4/2021 3:30:00 AM 0.7 33.26 0.071 6.51 1.96 14.07
2/4/2021 3:45:00 AM 0.71 33.278 0.071 6.51 2.03 14.07
2/4/2021 4:00:00 AM 0.7 33.26 0.071 6.51 2.1 14.07
2/4/2021 4:15:00 AM 0.7 33.26 0.071 6.5 2.1 14.07
2/4/2021 4:30:00 AM 0.7 33.26 0.071 6.5 2.15 14.08
2/4/2021 4:45:00 AM 0.71 33.278 0.071 6.51 2.18 14.07
2/4/2021 5:00:00 AM 0.7 33.26 0.072 6.5 2.19 14.07
2/4/2021 5:15:00 AM 0.71 33.278 0.072 6.5 2.23 14.08
2/4/2021 5:30:00 AM 0.71 33.278 0.072 6.5 2.26 14.07
2/4/2021 5:45:00 AM 0.7 33.26 0.072 6.5 2.27 14.08
2/4/2021 6:00:00 AM 0.7 33.26 0.072 6.5 2.23 14.08
2/4/2021 6:15:00 AM 0.71 33.278 0.072 6.5 2.27 14.08
2/4/2021 6:30:00 AM 0.71 33.278 0.072 6.5 2.23 14.08
2/4/2021 6:45:00 AM 0.7 33.26 0.072 6.5 2.2 14.08
2/4/2021 7:00:00 AM 0.7 33.26 0.072 6.47 2.14 14.09
2/4/2021 7:15:00 AM 0.71 33.278 0.072 6.5 2.08 14.08
2/4/2021 7:30:00 AM 0.7 33.26 0.072 6.47 1.1 14.09
2/4/2021 7:45:00 AM 0.71 33.278 0.072 6.51 1.1 14.1
2/4/2021 8:00:00 AM 0.71 33.278 0.072 6.51 1.11 14.1
2/4/2021 8:15:00 AM 0.71 33.278 0.072 6.48 1.11 14.11
2/4/2021 8:30:00 AM 0.72 33.296 0.073 6.52 1.1 14.11
2/4/2021 8:45:00 AM 0.72 33.296 0.073 6.53 1.09 14.13
2/4/2021 9:00:00 AM 0.73 33.314 0.073 6.53 1.08 14.14
2/4/2021 9:15:00 AM 0.73 33.314 0.073 6.53 1.1 14.15
2/4/2021 9:30:00 AM 0.74 33.332 0.073 6.53 1.1 14.14
2/4/2021 9:45:00 AM 0.73 33.314 0.073 6.51 1.1 14.13
2/4/2021 10:00:00 AM 0.74 33.332 0.072 6.55 1.1 14.12
2/4/2021 10:15:00 AM 0.74 33.332 0.072 6.53 1.1 14.13
2/4/2021 10:30:00 AM 0.75 33.35 0.072 6.53 1.08 14.12
2/4/2021 10:45:00 AM 0.75 33.35 0.072 6.52 1.13 14.12
2/4/2021 11:00:00 AM 0.77 33.386 0.072 6.51 1.12 14.11
2/4/2021 11:15:00 AM 0.75 33.35 0.071 6.5 1.14 14.13
2/4/2021 11:30:00 AM 0.76 33.368 0.071 6.51 1.14 14.13
2/4/2021 11:45:00 AM 0.76 33.368 0.071 6.47 1.29 14.13
2/4/2021 12:00:00 PM 0.77 33.386 0.071 6.47 1.57 14.13
2/4/2021 12:15:00 PM 0.76 33.368 0.07 6.42 1.22 14.12
2/4/2021 12:30:00 PM 0.77 33.386 0.07 6.48 1.23 14.11
2/4/2021 12:45:00 PM 0.77 33.386 0.069 6.5 1.3 14.11
2/4/2021 1:00:00 PM 0.77 33.386 0.069 6.48 1.27 14.1
2/4/2021 1:15:00 PM 0.76 33.368 0.069 6.51 1.32 14.09
2/4/2021 1:30:00 PM 0.76 33.368 0.07 6.51 1.6 14.09
2/4/2021 1:45:00 PM 0.76 33.368 0.07 6.53 1.42 14.09
2/4/2021 2:00:00 PM 0.75 33.35 0.07 6.52 1.43 14.08
2/4/2021 2:15:00 PM 0.75 33.35 0.07 6.52 1.39 14.09
2/4/2021 2:30:00 PM 0.74 33.332 0.07 6.52 1.47 14.08
2/4/2021 2:45:00 PM 0.75 33.35 0.071 6.52 1.48 14.08
2/4/2021 3:00:00 PM 0.75 33.35 0.071 6.51 1.5 14.08
2/4/2021 3:15:00 PM 0.73 33.314 0.072 6.52 1.54 14.07
2/4/2021 3:30:00 PM 0.72 33.296 0.072 6.53 1.55 14.06
2/4/2021 3:45:00 PM 0.71 33.278 0.072 6.48 1.5 14.06
2/4/2021 4:00:00 PM 0.72 33.296 0.073 6.51 1.53 14.05
2/4/2021 4:15:00 PM 0.72 33.296 0.073 6.52 1.44 14.04
2/4/2021 4:30:00 PM 0.72 33.296 0.074 6.52 1.44 14.04
2/4/2021 4:45:00 PM 0.71 33.278 0.074 6.46 1.51 14.04
2/4/2021 5:00:00 PM 0.71 33.278 0.074 6.52 1.47 14.02
2/4/2021 5:15:00 PM 0.71 33.278 0.074 6.53 1.45 14.02
2/4/2021 5:30:00 PM 0.71 33.278 0.074 6.52 1.47 14.01
2/4/2021 5:45:00 PM 0.7 33.26 0.073 6.52 1.49 14.01
2/4/2021 6:00:00 PM 0.71 33.278 0.073 6.52 1.44 14.01
2/4/2021 6:15:00 PM 0.7 33.26 0.073 6.51 1.46 14
2/4/2021 6:30:00 PM 0.71 33.278 0.073 6.51 1.46 13.99
2/4/2021 6:45:00 PM 0.71 33.278 0.073 6.53 1.47 14
2/4/2021 7:00:00 PM 0.7 33.26 0.073 6.52 1.44 13.99
2/4/2021 7:15:00 PM 0.7 33.26 0.073 6.5 1.39 13.99
2/4/2021 7:30:00 PM 0.71 33.278 0.073 6.52 1.4 13.99
2/4/2021 7:45:00 PM 0.71 33.278 0.073 6.53 1.39 13.98
2/4/2021 8:00:00 PM 0.71 33.278 0.073 6.52 1.28 13.99
2/4/2021 8:15:00 PM 0.71 33.278 0.073 6.52 1.31 13.98
2/4/2021 8:30:00 PM 0.71 33.278 0.073 6.52 1.27 13.98
2/4/2021 8:45:00 PM 0.71 33.278 0.073 6.51 1.31 13.97
2/4/2021 9:00:00 PM 0.7 33.26 0.073 6.49 1.2 13.98
2/4/2021 9:15:00 PM 0.71 33.278 0.073 6.53 1.21 13.96
2/4/2021 9:30:00 PM 0.71 33.278 0.073 6.52 1.21 13.96
2/4/2021 9:45:00 PM 0.71 33.278 0.073 6.52 1.14 13.95
2/4/2021 10:00:00 PM 0.71 33.278 0.073 6.52 1.18 13.95
2/4/2021 10:15:00 PM 0.71 33.278 0.073 6.53 1.17 13.94
2/4/2021 10:30:00 PM 0.7 33.26 0.073 6.48 1.18 13.95
2/4/2021 10:45:00 PM 0.71 33.278 0.073 6.52 1.16 13.93
2/4/2021 11:00:00 PM 0.71 33.278 0.073 6.52 1.18 13.93
2/4/2021 11:15:00 PM 0.71 33.278 0.073 6.53 1.15 13.92
2/4/2021 11:30:00 PM 0.71 33.278 0.073 6.51 1.14 13.91
2/4/2021 11:45:00 PM 0.71 33.278 0.073 6.53 1.17 13.91
2/5/2021 12:00:00 AM 0.71 33.278 0.072 6.52 1.12 13.91
2/5/2021 12:15:00 AM 0.71 33.278 0.072 6.52 1.19 13.9
2/5/2021 12:30:00 AM 0.71 33.278 0.072 6.53 1.14 13.91
2/5/2021 12:45:00 AM 0.71 33.278 0.072 6.53 1.12 13.91
2/5/2021 1:00:00 AM 0.7 33.26 0.072 6.49 1.18 13.91
2/5/2021 1:15:00 AM 0.72 33.296 0.072 6.53 1.12 13.89
2/5/2021 1:30:00 AM 0.71 33.278 0.072 6.52 1.14 13.89
2/5/2021 1:45:00 AM 0.71 33.278 0.072 6.52 1.16 13.88
2/5/2021 2:00:00 AM 0.71 33.278 0.072 6.54 1.16 13.87
2/5/2021 2:15:00 AM 0.72 33.296 0.072 6.53 1.15 13.87
2/5/2021 2:30:00 AM 0.71 33.278 0.072 6.52 1.14 13.86
2/5/2021 2:45:00 AM 0.72 33.296 0.072 6.54 1.19 13.85
2/5/2021 3:00:00 AM 0.71 33.278 0.072 6.5 1.17 13.85
2/5/2021 3:15:00 AM 0.72 33.296 0.072 6.54 1.12 13.83
2/5/2021 3:30:00 AM 0.72 33.296 0.072 6.54 1.19 13.83
2/5/2021 3:45:00 AM 0.72 33.296 0.072 6.53 1.17 13.82
2/5/2021 4:00:00 AM 0.72 33.296 0.072 6.53 1.13 13.81
2/5/2021 4:15:00 AM 0.72 33.296 0.072 6.52 1.13 13.81
2/5/2021 4:30:00 AM 0.73 33.314 0.072 6.52 1.15 13.79
2/5/2021 4:45:00 AM 0.73 33.314 0.072 6.54 1.2 13.78
2/5/2021 5:00:00 AM 0.73 33.314 0.072 6.54 1.2 13.78
2/5/2021 5:15:00 AM 0.72 33.296 0.072 6.5 1.2 13.77
2/5/2021 5:30:00 AM 0.73 33.314 0.072 6.55 1.21 13.77
2/5/2021 5:45:00 AM 0.73 33.314 0.072 6.55 1.21 13.75
2/5/2021 6:00:00 AM 0.73 33.314 0.072 6.55 1.14 13.75
2/5/2021 6:15:00 AM 0.73 33.314 0.072 6.54 1.15 13.74
2/5/2021 6:30:00 AM 0.73 33.314 0.072 6.55 1.11 13.74
2/5/2021 6:45:00 AM 0.73 33.314 0.072 6.51 1.17 13.73
2/5/2021 7:00:00 AM 0.73 33.314 0.072 6.55 1.17 13.72
2/5/2021 7:15:00 AM 0.74 33.332 0.072 6.53 1.17 13.72
2/5/2021 7:30:00 AM 0.75 33.35 0.072 6.54 1.16 13.72
2/5/2021 7:45:00 AM 0.76 33.368 0.072 6.54 1.21 13.73
2/5/2021 8:00:00 AM 0.78 33.404 0.072 6.56 1.16 13.74
2/5/2021 8:15:00 AM 0.78 33.404 0.072 6.51 1.15 13.75
2/5/2021 8:30:00 AM 0.8 33.44 0.072 6.54 1.14 13.76
2/5/2021 8:45:00 AM 0.82 33.476 0.072 6.54 1.15 13.76
2/5/2021 9:00:00 AM 0.85 33.53 0.072 6.55 1.24 13.75
2/5/2021 9:15:00 AM 0.86 33.548 0.072 6.55 1.15 13.76
2/5/2021 9:30:00 AM 0.91 33.638 0.072 6.54 1.14 13.75
2/5/2021 9:45:00 AM 0.92 33.656 0.072 6.52 1.1 13.76
2/5/2021 10:00:00 AM 0.95 33.71 0.072 6.55 1.13 13.75
2/5/2021 10:15:00 AM 0.98 33.764 0.072 6.55 1.13 13.75
2/5/2021 10:30:00 AM 1.01 33.818 0.072 6.5